<?xml version="1.0" encoding="UTF-8" standalone="no" ?>
<gpx xmlns="http://www.topografix.com/GPX/1/1" xmlns:xsi="http://www.w3.org/2001/XMLSchema-instance" xsi:schemaLocation="http://www.topografix.com/GPX/1/1 http://www.topografix.com/GPX/1/1/gpx.xsd" version="1.1" creator="VisuGPX - https://www.visugpx.com">
  <metadata>
    <name>La Sportive</name>
  </metadata>
  <wpt lat="45.73248" lon="6.50638">
    <ele>1308.8</ele>
    <name><![CDATA[Ravitaillement]]></name>
    <desc><![CDATA[]]></desc>
  </wpt>
  <wpt lat="45.76017" lon="6.53412">
    <ele>1660.3</ele>
    <name><![CDATA[Ravitaillement]]></name>
    <desc><![CDATA[]]></desc>
  </wpt>
  <trk>
    <name><![CDATA[Diamant VTT 2025 -  Sportive 29km VF-21461595]]></name>
    <trkseg>
      <trkpt lat="45.76002" lon="6.53375">
        <ele>1660</ele>
        <time>2025-06-19T14:24:42Z</time>
      </trkpt>
      <trkpt lat="45.75982" lon="6.5339">
        <ele>1659</ele>
        <time>2025-06-19T14:24:47Z</time>
      </trkpt>
      <trkpt lat="45.75955" lon="6.53419">
        <ele>1658</ele>
        <time>2025-06-19T14:24:55Z</time>
      </trkpt>
      <trkpt lat="45.75952" lon="6.53416">
        <ele>1658</ele>
        <time>2025-06-19T14:24:56Z</time>
      </trkpt>
      <trkpt lat="45.7595" lon="6.53414">
        <ele>1658</ele>
        <time>2025-06-19T14:24:57Z</time>
      </trkpt>
      <trkpt lat="45.75947" lon="6.53414">
        <ele>1658</ele>
        <time>2025-06-19T14:24:57Z</time>
      </trkpt>
      <trkpt lat="45.75944" lon="6.53415">
        <ele>1658</ele>
        <time>2025-06-19T14:24:58Z</time>
      </trkpt>
      <trkpt lat="45.75941" lon="6.53418">
        <ele>1657</ele>
        <time>2025-06-19T14:24:59Z</time>
      </trkpt>
      <trkpt lat="45.75939" lon="6.53421">
        <ele>1657</ele>
        <time>2025-06-19T14:25:00Z</time>
      </trkpt>
      <trkpt lat="45.75939" lon="6.53426">
        <ele>1658</ele>
        <time>2025-06-19T14:25:00Z</time>
      </trkpt>
      <trkpt lat="45.75935" lon="6.53425">
        <ele>1657</ele>
        <time>2025-06-19T14:25:01Z</time>
      </trkpt>
      <trkpt lat="45.7591" lon="6.53407">
        <ele>1655</ele>
        <time>2025-06-19T14:25:08Z</time>
      </trkpt>
      <trkpt lat="45.75906" lon="6.53414">
        <ele>1655</ele>
        <time>2025-06-19T14:25:09Z</time>
      </trkpt>
      <trkpt lat="45.75903" lon="6.53416">
        <ele>1655</ele>
        <time>2025-06-19T14:25:10Z</time>
      </trkpt>
      <trkpt lat="45.75898" lon="6.53416">
        <ele>1654</ele>
        <time>2025-06-19T14:25:11Z</time>
      </trkpt>
      <trkpt lat="45.75877" lon="6.53404">
        <ele>1653</ele>
        <time>2025-06-19T14:25:17Z</time>
      </trkpt>
      <trkpt lat="45.75818" lon="6.53375">
        <ele>1648</ele>
        <time>2025-06-19T14:25:31Z</time>
      </trkpt>
      <trkpt lat="45.75811" lon="6.53367">
        <ele>1648</ele>
        <time>2025-06-19T14:25:33Z</time>
      </trkpt>
      <trkpt lat="45.75807" lon="6.53358">
        <ele>1647</ele>
        <time>2025-06-19T14:25:35Z</time>
      </trkpt>
      <trkpt lat="45.75802" lon="6.53356">
        <ele>1647</ele>
        <time>2025-06-19T14:25:36Z</time>
      </trkpt>
      <trkpt lat="45.75798" lon="6.53353">
        <ele>1646</ele>
        <time>2025-06-19T14:25:37Z</time>
      </trkpt>
      <trkpt lat="45.75786" lon="6.53336">
        <ele>1645</ele>
        <time>2025-06-19T14:25:41Z</time>
      </trkpt>
      <trkpt lat="45.75778" lon="6.53316">
        <ele>1644</ele>
        <time>2025-06-19T14:25:45Z</time>
      </trkpt>
      <trkpt lat="45.75774" lon="6.53277">
        <ele>1645</ele>
        <time>2025-06-19T14:25:51Z</time>
      </trkpt>
      <trkpt lat="45.75772" lon="6.53219">
        <ele>1644</ele>
        <time>2025-06-19T14:26:01Z</time>
      </trkpt>
      <trkpt lat="45.75779" lon="6.53159">
        <ele>1644</ele>
        <time>2025-06-19T14:26:11Z</time>
      </trkpt>
      <trkpt lat="45.75782" lon="6.53147">
        <ele>1644</ele>
        <time>2025-06-19T14:26:13Z</time>
      </trkpt>
      <trkpt lat="45.75785" lon="6.53133">
        <ele>1643</ele>
        <time>2025-06-19T14:26:15Z</time>
      </trkpt>
      <trkpt lat="45.75789" lon="6.53119">
        <ele>1643</ele>
        <time>2025-06-19T14:26:18Z</time>
      </trkpt>
      <trkpt lat="45.75799" lon="6.53094">
        <ele>1642</ele>
        <time>2025-06-19T14:26:22Z</time>
      </trkpt>
      <trkpt lat="45.7581" lon="6.53077">
        <ele>1642</ele>
        <time>2025-06-19T14:26:26Z</time>
      </trkpt>
      <trkpt lat="45.75818" lon="6.53067">
        <ele>1642</ele>
        <time>2025-06-19T14:26:29Z</time>
      </trkpt>
      <trkpt lat="45.75826" lon="6.53059">
        <ele>1642</ele>
        <time>2025-06-19T14:26:31Z</time>
      </trkpt>
      <trkpt lat="45.75846" lon="6.53037">
        <ele>1642</ele>
        <time>2025-06-19T14:26:37Z</time>
      </trkpt>
      <trkpt lat="45.75851" lon="6.5302">
        <ele>1640</ele>
        <time>2025-06-19T14:26:40Z</time>
      </trkpt>
      <trkpt lat="45.7585" lon="6.52997">
        <ele>1639</ele>
        <time>2025-06-19T14:26:43Z</time>
      </trkpt>
      <trkpt lat="45.75848" lon="6.52985">
        <ele>1638</ele>
        <time>2025-06-19T14:26:45Z</time>
      </trkpt>
      <trkpt lat="45.75839" lon="6.52944">
        <ele>1636</ele>
        <time>2025-06-19T14:26:52Z</time>
      </trkpt>
      <trkpt lat="45.75843" lon="6.52924">
        <ele>1635</ele>
        <time>2025-06-19T14:26:56Z</time>
      </trkpt>
      <trkpt lat="45.75851" lon="6.52902">
        <ele>1634</ele>
        <time>2025-06-19T14:27:00Z</time>
      </trkpt>
      <trkpt lat="45.75868" lon="6.52874">
        <ele>1633</ele>
        <time>2025-06-19T14:27:06Z</time>
      </trkpt>
      <trkpt lat="45.75847" lon="6.5283">
        <ele>1632</ele>
        <time>2025-06-19T14:27:15Z</time>
      </trkpt>
      <trkpt lat="45.75827" lon="6.52791">
        <ele>1634</ele>
        <time>2025-06-19T14:27:23Z</time>
      </trkpt>
      <trkpt lat="45.75823" lon="6.52773">
        <ele>1634</ele>
        <time>2025-06-19T14:27:26Z</time>
      </trkpt>
      <trkpt lat="45.75816" lon="6.52749">
        <ele>1635</ele>
        <time>2025-06-19T14:27:30Z</time>
      </trkpt>
      <trkpt lat="45.75816" lon="6.52731">
        <ele>1637</ele>
        <time>2025-06-19T14:27:33Z</time>
      </trkpt>
      <trkpt lat="45.75819" lon="6.52715">
        <ele>1638</ele>
        <time>2025-06-19T14:27:35Z</time>
      </trkpt>
      <trkpt lat="45.75829" lon="6.52661">
        <ele>1641</ele>
        <time>2025-06-19T14:27:45Z</time>
      </trkpt>
      <trkpt lat="45.75834" lon="6.52645">
        <ele>1642</ele>
        <time>2025-06-19T14:27:47Z</time>
      </trkpt>
      <trkpt lat="45.75836" lon="6.52637">
        <ele>1643</ele>
        <time>2025-06-19T14:27:49Z</time>
      </trkpt>
      <trkpt lat="45.7584" lon="6.52599">
        <ele>1647</ele>
        <time>2025-06-19T14:27:55Z</time>
      </trkpt>
      <trkpt lat="45.75846" lon="6.52554">
        <ele>1649</ele>
        <time>2025-06-19T14:28:03Z</time>
      </trkpt>
      <trkpt lat="45.7585" lon="6.52506">
        <ele>1650</ele>
        <time>2025-06-19T14:28:10Z</time>
      </trkpt>
      <trkpt lat="45.75851" lon="6.52473">
        <ele>1650</ele>
        <time>2025-06-19T14:28:16Z</time>
      </trkpt>
      <trkpt lat="45.75846" lon="6.52437">
        <ele>1650</ele>
        <time>2025-06-19T14:28:22Z</time>
      </trkpt>
      <trkpt lat="45.75832" lon="6.5237">
        <ele>1652</ele>
        <time>2025-06-19T14:28:33Z</time>
      </trkpt>
      <trkpt lat="45.75816" lon="6.5232">
        <ele>1654</ele>
        <time>2025-06-19T14:28:42Z</time>
      </trkpt>
      <trkpt lat="45.75804" lon="6.52304">
        <ele>1655</ele>
        <time>2025-06-19T14:28:46Z</time>
      </trkpt>
      <trkpt lat="45.75792" lon="6.5228">
        <ele>1656</ele>
        <time>2025-06-19T14:28:51Z</time>
      </trkpt>
      <trkpt lat="45.75777" lon="6.52234">
        <ele>1658</ele>
        <time>2025-06-19T14:28:59Z</time>
      </trkpt>
      <trkpt lat="45.75785" lon="6.52181">
        <ele>1660</ele>
        <time>2025-06-19T14:29:08Z</time>
      </trkpt>
      <trkpt lat="45.75785" lon="6.52179">
        <ele>1660</ele>
        <time>2025-06-19T14:29:08Z</time>
      </trkpt>
      <trkpt lat="45.75806" lon="6.52137">
        <ele>1661</ele>
        <time>2025-06-19T14:29:17Z</time>
      </trkpt>
      <trkpt lat="45.75836" lon="6.52121">
        <ele>1657</ele>
        <time>2025-06-19T14:29:24Z</time>
      </trkpt>
      <trkpt lat="45.75883" lon="6.52082">
        <ele>1659</ele>
        <time>2025-06-19T14:29:37Z</time>
      </trkpt>
      <trkpt lat="45.75907" lon="6.52068">
        <ele>1660</ele>
        <time>2025-06-19T14:29:43Z</time>
      </trkpt>
      <trkpt lat="45.75927" lon="6.5206">
        <ele>1661</ele>
        <time>2025-06-19T14:29:48Z</time>
      </trkpt>
      <trkpt lat="45.75953" lon="6.52054">
        <ele>1661</ele>
        <time>2025-06-19T14:29:54Z</time>
      </trkpt>
      <trkpt lat="45.75976" lon="6.52046">
        <ele>1662</ele>
        <time>2025-06-19T14:29:59Z</time>
      </trkpt>
      <trkpt lat="45.75991" lon="6.52041">
        <ele>1662</ele>
        <time>2025-06-19T14:30:03Z</time>
      </trkpt>
      <trkpt lat="45.76018" lon="6.52034">
        <ele>1663</ele>
        <time>2025-06-19T14:30:09Z</time>
      </trkpt>
      <trkpt lat="45.7606" lon="6.52019">
        <ele>1665</ele>
        <time>2025-06-19T14:30:19Z</time>
      </trkpt>
      <trkpt lat="45.76071" lon="6.52011">
        <ele>1665</ele>
        <time>2025-06-19T14:30:22Z</time>
      </trkpt>
      <trkpt lat="45.76088" lon="6.51991">
        <ele>1667</ele>
        <time>2025-06-19T14:30:28Z</time>
      </trkpt>
      <trkpt lat="45.76098" lon="6.51967">
        <ele>1669</ele>
        <time>2025-06-19T14:30:32Z</time>
      </trkpt>
      <trkpt lat="45.76108" lon="6.51949">
        <ele>1669</ele>
        <time>2025-06-19T14:30:36Z</time>
      </trkpt>
      <trkpt lat="45.76117" lon="6.51921">
        <ele>1671</ele>
        <time>2025-06-19T14:30:41Z</time>
      </trkpt>
      <trkpt lat="45.76142" lon="6.51773">
        <ele>1683</ele>
        <time>2025-06-19T14:31:06Z</time>
      </trkpt>
      <trkpt lat="45.7615" lon="6.51741">
        <ele>1685</ele>
        <time>2025-06-19T14:31:11Z</time>
      </trkpt>
      <trkpt lat="45.76166" lon="6.51719">
        <ele>1685</ele>
        <time>2025-06-19T14:31:16Z</time>
      </trkpt>
      <trkpt lat="45.76177" lon="6.51708">
        <ele>1686</ele>
        <time>2025-06-19T14:31:19Z</time>
      </trkpt>
      <trkpt lat="45.76198" lon="6.51693">
        <ele>1686</ele>
        <time>2025-06-19T14:31:25Z</time>
      </trkpt>
      <trkpt lat="45.7621" lon="6.51674">
        <ele>1687</ele>
        <time>2025-06-19T14:31:29Z</time>
      </trkpt>
      <trkpt lat="45.76219" lon="6.51646">
        <ele>1688</ele>
        <time>2025-06-19T14:31:34Z</time>
      </trkpt>
      <trkpt lat="45.76225" lon="6.5162">
        <ele>1689</ele>
        <time>2025-06-19T14:31:39Z</time>
      </trkpt>
      <trkpt lat="45.76225" lon="6.51597">
        <ele>1690</ele>
        <time>2025-06-19T14:31:42Z</time>
      </trkpt>
      <trkpt lat="45.76224" lon="6.51584">
        <ele>1691</ele>
        <time>2025-06-19T14:31:45Z</time>
      </trkpt>
      <trkpt lat="45.76222" lon="6.51576">
        <ele>1692</ele>
        <time>2025-06-19T14:31:46Z</time>
      </trkpt>
      <trkpt lat="45.76219" lon="6.51564">
        <ele>1693</ele>
        <time>2025-06-19T14:31:48Z</time>
      </trkpt>
      <trkpt lat="45.76216" lon="6.51536">
        <ele>1695</ele>
        <time>2025-06-19T14:31:53Z</time>
      </trkpt>
      <trkpt lat="45.76217" lon="6.51509">
        <ele>1698</ele>
        <time>2025-06-19T14:31:57Z</time>
      </trkpt>
      <trkpt lat="45.76221" lon="6.5148">
        <ele>1700</ele>
        <time>2025-06-19T14:32:02Z</time>
      </trkpt>
      <trkpt lat="45.76222" lon="6.51475">
        <ele>1701</ele>
        <time>2025-06-19T14:32:03Z</time>
      </trkpt>
      <trkpt lat="45.7622" lon="6.51456">
        <ele>1703</ele>
        <time>2025-06-19T14:32:06Z</time>
      </trkpt>
      <trkpt lat="45.76236" lon="6.51424">
        <ele>1705</ele>
        <time>2025-06-19T14:32:12Z</time>
      </trkpt>
      <trkpt lat="45.76245" lon="6.51408">
        <ele>1706</ele>
        <time>2025-06-19T14:32:16Z</time>
      </trkpt>
      <trkpt lat="45.76255" lon="6.51392">
        <ele>1707</ele>
        <time>2025-06-19T14:32:19Z</time>
      </trkpt>
      <trkpt lat="45.76273" lon="6.51366">
        <ele>1708</ele>
        <time>2025-06-19T14:32:25Z</time>
      </trkpt>
      <trkpt lat="45.76279" lon="6.51328">
        <ele>1709</ele>
        <time>2025-06-19T14:32:31Z</time>
      </trkpt>
      <trkpt lat="45.76286" lon="6.51311">
        <ele>1710</ele>
        <time>2025-06-19T14:32:35Z</time>
      </trkpt>
      <trkpt lat="45.76293" lon="6.51295">
        <ele>1710</ele>
        <time>2025-06-19T14:32:38Z</time>
      </trkpt>
      <trkpt lat="45.763" lon="6.51284">
        <ele>1710</ele>
        <time>2025-06-19T14:32:40Z</time>
      </trkpt>
      <trkpt lat="45.76304" lon="6.51266">
        <ele>1711</ele>
        <time>2025-06-19T14:32:43Z</time>
      </trkpt>
      <trkpt lat="45.7631" lon="6.51255">
        <ele>1711</ele>
        <time>2025-06-19T14:32:45Z</time>
      </trkpt>
      <trkpt lat="45.76334" lon="6.51239">
        <ele>1710</ele>
        <time>2025-06-19T14:32:52Z</time>
      </trkpt>
      <trkpt lat="45.76346" lon="6.51223">
        <ele>1712</ele>
        <time>2025-06-19T14:32:55Z</time>
      </trkpt>
      <trkpt lat="45.76361" lon="6.51209">
        <ele>1714</ele>
        <time>2025-06-19T14:33:00Z</time>
      </trkpt>
      <trkpt lat="45.76383" lon="6.51167">
        <ele>1718</ele>
        <time>2025-06-19T14:33:08Z</time>
      </trkpt>
      <trkpt lat="45.76388" lon="6.51152">
        <ele>1718</ele>
        <time>2025-06-19T14:33:11Z</time>
      </trkpt>
      <trkpt lat="45.76385" lon="6.51131">
        <ele>1719</ele>
        <time>2025-06-19T14:33:14Z</time>
      </trkpt>
      <trkpt lat="45.76368" lon="6.5109">
        <ele>1719</ele>
        <time>2025-06-19T14:33:22Z</time>
      </trkpt>
      <trkpt lat="45.76372" lon="6.51068">
        <ele>1719</ele>
        <time>2025-06-19T14:33:26Z</time>
      </trkpt>
      <trkpt lat="45.76376" lon="6.51052">
        <ele>1719</ele>
        <time>2025-06-19T14:33:29Z</time>
      </trkpt>
      <trkpt lat="45.76353" lon="6.51059">
        <ele>1718</ele>
        <time>2025-06-19T14:33:34Z</time>
      </trkpt>
      <trkpt lat="45.76342" lon="6.51052">
        <ele>1717</ele>
        <time>2025-06-19T14:33:37Z</time>
      </trkpt>
      <trkpt lat="45.76318" lon="6.51031">
        <ele>1717</ele>
        <time>2025-06-19T14:33:43Z</time>
      </trkpt>
      <trkpt lat="45.76271" lon="6.51018">
        <ele>1718</ele>
        <time>2025-06-19T14:33:55Z</time>
      </trkpt>
      <trkpt lat="45.76248" lon="6.51008">
        <ele>1718</ele>
        <time>2025-06-19T14:34:00Z</time>
      </trkpt>
      <trkpt lat="45.76241" lon="6.51005">
        <ele>1718</ele>
        <time>2025-06-19T14:34:02Z</time>
      </trkpt>
      <trkpt lat="45.76156" lon="6.50978">
        <ele>1726</ele>
        <time>2025-06-19T14:34:22Z</time>
      </trkpt>
      <trkpt lat="45.76151" lon="6.50971">
        <ele>1726</ele>
        <time>2025-06-19T14:34:24Z</time>
      </trkpt>
      <trkpt lat="45.76137" lon="6.50946">
        <ele>1725</ele>
        <time>2025-06-19T14:34:29Z</time>
      </trkpt>
      <trkpt lat="45.76128" lon="6.50932">
        <ele>1725</ele>
        <time>2025-06-19T14:34:32Z</time>
      </trkpt>
      <trkpt lat="45.76107" lon="6.50913">
        <ele>1725</ele>
        <time>2025-06-19T14:34:38Z</time>
      </trkpt>
      <trkpt lat="45.76094" lon="6.50899">
        <ele>1725</ele>
        <time>2025-06-19T14:34:42Z</time>
      </trkpt>
      <trkpt lat="45.76087" lon="6.50887">
        <ele>1725</ele>
        <time>2025-06-19T14:34:44Z</time>
      </trkpt>
      <trkpt lat="45.76079" lon="6.50871">
        <ele>1726</ele>
        <time>2025-06-19T14:34:48Z</time>
      </trkpt>
      <trkpt lat="45.76075" lon="6.5086">
        <ele>1726</ele>
        <time>2025-06-19T14:34:50Z</time>
      </trkpt>
      <trkpt lat="45.76071" lon="6.50846">
        <ele>1726</ele>
        <time>2025-06-19T14:34:52Z</time>
      </trkpt>
      <trkpt lat="45.76068" lon="6.50807">
        <ele>1724</ele>
        <time>2025-06-19T14:34:59Z</time>
      </trkpt>
      <trkpt lat="45.76065" lon="6.50793">
        <ele>1723</ele>
        <time>2025-06-19T14:35:01Z</time>
      </trkpt>
      <trkpt lat="45.76061" lon="6.50781">
        <ele>1722</ele>
        <time>2025-06-19T14:35:03Z</time>
      </trkpt>
      <trkpt lat="45.76043" lon="6.5076">
        <ele>1722</ele>
        <time>2025-06-19T14:35:08Z</time>
      </trkpt>
      <trkpt lat="45.76021" lon="6.50743">
        <ele>1722</ele>
        <time>2025-06-19T14:35:14Z</time>
      </trkpt>
      <trkpt lat="45.76002" lon="6.50748">
        <ele>1724</ele>
        <time>2025-06-19T14:35:19Z</time>
      </trkpt>
      <trkpt lat="45.75986" lon="6.50759">
        <ele>1725</ele>
        <time>2025-06-19T14:35:23Z</time>
      </trkpt>
      <trkpt lat="45.75979" lon="6.50762">
        <ele>1725</ele>
        <time>2025-06-19T14:35:25Z</time>
      </trkpt>
      <trkpt lat="45.75968" lon="6.5076">
        <ele>1724</ele>
        <time>2025-06-19T14:35:27Z</time>
      </trkpt>
      <trkpt lat="45.75954" lon="6.50752">
        <ele>1722</ele>
        <time>2025-06-19T14:35:31Z</time>
      </trkpt>
      <trkpt lat="45.75945" lon="6.50746">
        <ele>1720</ele>
        <time>2025-06-19T14:35:33Z</time>
      </trkpt>
      <trkpt lat="45.75939" lon="6.50744">
        <ele>1720</ele>
        <time>2025-06-19T14:35:35Z</time>
      </trkpt>
      <trkpt lat="45.75934" lon="6.50747">
        <ele>1720</ele>
        <time>2025-06-19T14:35:36Z</time>
      </trkpt>
      <trkpt lat="45.75917" lon="6.50766">
        <ele>1721</ele>
        <time>2025-06-19T14:35:41Z</time>
      </trkpt>
      <trkpt lat="45.75908" lon="6.50774">
        <ele>1721</ele>
        <time>2025-06-19T14:35:43Z</time>
      </trkpt>
      <trkpt lat="45.75902" lon="6.50781">
        <ele>1722</ele>
        <time>2025-06-19T14:35:45Z</time>
      </trkpt>
      <trkpt lat="45.75883" lon="6.50799">
        <ele>1722</ele>
        <time>2025-06-19T14:35:50Z</time>
      </trkpt>
      <trkpt lat="45.75864" lon="6.50812">
        <ele>1722</ele>
        <time>2025-06-19T14:35:55Z</time>
      </trkpt>
      <trkpt lat="45.75848" lon="6.5082">
        <ele>1721</ele>
        <time>2025-06-19T14:35:59Z</time>
      </trkpt>
      <trkpt lat="45.75841" lon="6.50825">
        <ele>1720</ele>
        <time>2025-06-19T14:36:01Z</time>
      </trkpt>
      <trkpt lat="45.75831" lon="6.50829">
        <ele>1720</ele>
        <time>2025-06-19T14:36:04Z</time>
      </trkpt>
      <trkpt lat="45.75775" lon="6.50832">
        <ele>1726</ele>
        <time>2025-06-19T14:36:17Z</time>
      </trkpt>
      <trkpt lat="45.75765" lon="6.50831">
        <ele>1727</ele>
        <time>2025-06-19T14:36:19Z</time>
      </trkpt>
      <trkpt lat="45.75755" lon="6.50823">
        <ele>1728</ele>
        <time>2025-06-19T14:36:22Z</time>
      </trkpt>
      <trkpt lat="45.75745" lon="6.50817">
        <ele>1729</ele>
        <time>2025-06-19T14:36:24Z</time>
      </trkpt>
      <trkpt lat="45.75735" lon="6.50813">
        <ele>1730</ele>
        <time>2025-06-19T14:36:27Z</time>
      </trkpt>
      <trkpt lat="45.75729" lon="6.50813">
        <ele>1731</ele>
        <time>2025-06-19T14:36:28Z</time>
      </trkpt>
      <trkpt lat="45.75717" lon="6.50815">
        <ele>1733</ele>
        <time>2025-06-19T14:36:31Z</time>
      </trkpt>
      <trkpt lat="45.75714" lon="6.50819">
        <ele>1733</ele>
        <time>2025-06-19T14:36:32Z</time>
      </trkpt>
      <trkpt lat="45.75711" lon="6.50825">
        <ele>1734</ele>
        <time>2025-06-19T14:36:33Z</time>
      </trkpt>
      <trkpt lat="45.7571" lon="6.50832">
        <ele>1734</ele>
        <time>2025-06-19T14:36:34Z</time>
      </trkpt>
      <trkpt lat="45.75711" lon="6.50845">
        <ele>1734</ele>
        <time>2025-06-19T14:36:36Z</time>
      </trkpt>
      <trkpt lat="45.75715" lon="6.50853">
        <ele>1734</ele>
        <time>2025-06-19T14:36:38Z</time>
      </trkpt>
      <trkpt lat="45.7571" lon="6.50859">
        <ele>1735</ele>
        <time>2025-06-19T14:36:39Z</time>
      </trkpt>
      <trkpt lat="45.75704" lon="6.50858">
        <ele>1736</ele>
        <time>2025-06-19T14:36:41Z</time>
      </trkpt>
      <trkpt lat="45.7569" lon="6.50846">
        <ele>1737</ele>
        <time>2025-06-19T14:36:45Z</time>
      </trkpt>
      <trkpt lat="45.75665" lon="6.50836">
        <ele>1740</ele>
        <time>2025-06-19T14:36:51Z</time>
      </trkpt>
      <trkpt lat="45.75651" lon="6.50829">
        <ele>1743</ele>
        <time>2025-06-19T14:36:54Z</time>
      </trkpt>
      <trkpt lat="45.75633" lon="6.50817">
        <ele>1745</ele>
        <time>2025-06-19T14:36:59Z</time>
      </trkpt>
      <trkpt lat="45.75608" lon="6.50787">
        <ele>1747</ele>
        <time>2025-06-19T14:37:06Z</time>
      </trkpt>
      <trkpt lat="45.75588" lon="6.50775">
        <ele>1749</ele>
        <time>2025-06-19T14:37:11Z</time>
      </trkpt>
      <trkpt lat="45.75552" lon="6.50759">
        <ele>1752</ele>
        <time>2025-06-19T14:37:20Z</time>
      </trkpt>
      <trkpt lat="45.75511" lon="6.50734">
        <ele>1754</ele>
        <time>2025-06-19T14:37:31Z</time>
      </trkpt>
      <trkpt lat="45.75496" lon="6.5072">
        <ele>1754</ele>
        <time>2025-06-19T14:37:35Z</time>
      </trkpt>
      <trkpt lat="45.75477" lon="6.50703">
        <ele>1756</ele>
        <time>2025-06-19T14:37:40Z</time>
      </trkpt>
      <trkpt lat="45.75468" lon="6.50702">
        <ele>1757</ele>
        <time>2025-06-19T14:37:42Z</time>
      </trkpt>
      <trkpt lat="45.75447" lon="6.50703">
        <ele>1760</ele>
        <time>2025-06-19T14:37:47Z</time>
      </trkpt>
      <trkpt lat="45.7543" lon="6.50701">
        <ele>1762</ele>
        <time>2025-06-19T14:37:51Z</time>
      </trkpt>
      <trkpt lat="45.75422" lon="6.50696">
        <ele>1763</ele>
        <time>2025-06-19T14:37:53Z</time>
      </trkpt>
      <trkpt lat="45.754" lon="6.5067">
        <ele>1764</ele>
        <time>2025-06-19T14:38:00Z</time>
      </trkpt>
      <trkpt lat="45.75393" lon="6.50673">
        <ele>1766</ele>
        <time>2025-06-19T14:38:02Z</time>
      </trkpt>
      <trkpt lat="45.75392" lon="6.50679">
        <ele>1767</ele>
        <time>2025-06-19T14:38:03Z</time>
      </trkpt>
      <trkpt lat="45.75399" lon="6.50716">
        <ele>1771</ele>
        <time>2025-06-19T14:38:09Z</time>
      </trkpt>
      <trkpt lat="45.75404" lon="6.50727">
        <ele>1771</ele>
        <time>2025-06-19T14:38:11Z</time>
      </trkpt>
      <trkpt lat="45.75406" lon="6.50739">
        <ele>1772</ele>
        <time>2025-06-19T14:38:13Z</time>
      </trkpt>
      <trkpt lat="45.75408" lon="6.50773">
        <ele>1774</ele>
        <time>2025-06-19T14:38:18Z</time>
      </trkpt>
      <trkpt lat="45.75409" lon="6.50785">
        <ele>1775</ele>
        <time>2025-06-19T14:38:20Z</time>
      </trkpt>
      <trkpt lat="45.75416" lon="6.50801">
        <ele>1773</ele>
        <time>2025-06-19T14:38:24Z</time>
      </trkpt>
      <trkpt lat="45.75421" lon="6.50807">
        <ele>1773</ele>
        <time>2025-06-19T14:38:25Z</time>
      </trkpt>
      <trkpt lat="45.75436" lon="6.50833">
        <ele>1773</ele>
        <time>2025-06-19T14:38:31Z</time>
      </trkpt>
      <trkpt lat="45.75455" lon="6.50874">
        <ele>1773</ele>
        <time>2025-06-19T14:38:39Z</time>
      </trkpt>
      <trkpt lat="45.75467" lon="6.50892">
        <ele>1773</ele>
        <time>2025-06-19T14:38:43Z</time>
      </trkpt>
      <trkpt lat="45.75467" lon="6.50896">
        <ele>1773</ele>
        <time>2025-06-19T14:38:43Z</time>
      </trkpt>
      <trkpt lat="45.75468" lon="6.50903">
        <ele>1773</ele>
        <time>2025-06-19T14:38:44Z</time>
      </trkpt>
      <trkpt lat="45.75451" lon="6.50964">
        <ele>1778</ele>
        <time>2025-06-19T14:38:55Z</time>
      </trkpt>
      <trkpt lat="45.75451" lon="6.50973">
        <ele>1779</ele>
        <time>2025-06-19T14:38:57Z</time>
      </trkpt>
      <trkpt lat="45.7545" lon="6.50983">
        <ele>1779</ele>
        <time>2025-06-19T14:38:58Z</time>
      </trkpt>
      <trkpt lat="45.75452" lon="6.51006">
        <ele>1780</ele>
        <time>2025-06-19T14:39:02Z</time>
      </trkpt>
      <trkpt lat="45.75452" lon="6.51026">
        <ele>1780</ele>
        <time>2025-06-19T14:39:05Z</time>
      </trkpt>
      <trkpt lat="45.75448" lon="6.51033">
        <ele>1781</ele>
        <time>2025-06-19T14:39:07Z</time>
      </trkpt>
      <trkpt lat="45.75442" lon="6.51039">
        <ele>1782</ele>
        <time>2025-06-19T14:39:08Z</time>
      </trkpt>
      <trkpt lat="45.75396" lon="6.51066">
        <ele>1792</ele>
        <time>2025-06-19T14:39:20Z</time>
      </trkpt>
      <trkpt lat="45.75391" lon="6.51077">
        <ele>1793</ele>
        <time>2025-06-19T14:39:22Z</time>
      </trkpt>
      <trkpt lat="45.75386" lon="6.51089">
        <ele>1794</ele>
        <time>2025-06-19T14:39:24Z</time>
      </trkpt>
      <trkpt lat="45.75373" lon="6.51108">
        <ele>1797</ele>
        <time>2025-06-19T14:39:29Z</time>
      </trkpt>
      <trkpt lat="45.75362" lon="6.51116">
        <ele>1799</ele>
        <time>2025-06-19T14:39:32Z</time>
      </trkpt>
      <trkpt lat="45.75343" lon="6.51123">
        <ele>1803</ele>
        <time>2025-06-19T14:39:36Z</time>
      </trkpt>
      <trkpt lat="45.75336" lon="6.51137">
        <ele>1804</ele>
        <time>2025-06-19T14:39:39Z</time>
      </trkpt>
      <trkpt lat="45.75327" lon="6.512">
        <ele>1807</ele>
        <time>2025-06-19T14:39:50Z</time>
      </trkpt>
      <trkpt lat="45.75329" lon="6.51216">
        <ele>1807</ele>
        <time>2025-06-19T14:39:52Z</time>
      </trkpt>
      <trkpt lat="45.75336" lon="6.51233">
        <ele>1806</ele>
        <time>2025-06-19T14:39:55Z</time>
      </trkpt>
      <trkpt lat="45.75338" lon="6.51245">
        <ele>1806</ele>
        <time>2025-06-19T14:39:57Z</time>
      </trkpt>
      <trkpt lat="45.75322" lon="6.51301">
        <ele>1809</ele>
        <time>2025-06-19T14:40:07Z</time>
      </trkpt>
      <trkpt lat="45.75319" lon="6.51327">
        <ele>1810</ele>
        <time>2025-06-19T14:40:12Z</time>
      </trkpt>
      <trkpt lat="45.75298" lon="6.51404">
        <ele>1811</ele>
        <time>2025-06-19T14:40:25Z</time>
      </trkpt>
      <trkpt lat="45.75274" lon="6.51429">
        <ele>1814</ele>
        <time>2025-06-19T14:40:32Z</time>
      </trkpt>
      <trkpt lat="45.75266" lon="6.51438">
        <ele>1815</ele>
        <time>2025-06-19T14:40:34Z</time>
      </trkpt>
      <trkpt lat="45.75259" lon="6.51454">
        <ele>1815</ele>
        <time>2025-06-19T14:40:37Z</time>
      </trkpt>
      <trkpt lat="45.75253" lon="6.51464">
        <ele>1816</ele>
        <time>2025-06-19T14:40:40Z</time>
      </trkpt>
      <trkpt lat="45.75236" lon="6.51483">
        <ele>1818</ele>
        <time>2025-06-19T14:40:45Z</time>
      </trkpt>
      <trkpt lat="45.75232" lon="6.51498">
        <ele>1818</ele>
        <time>2025-06-19T14:40:47Z</time>
      </trkpt>
      <trkpt lat="45.75233" lon="6.5151">
        <ele>1817</ele>
        <time>2025-06-19T14:40:49Z</time>
      </trkpt>
      <trkpt lat="45.75237" lon="6.51529">
        <ele>1816</ele>
        <time>2025-06-19T14:40:52Z</time>
      </trkpt>
      <trkpt lat="45.75234" lon="6.5155">
        <ele>1816</ele>
        <time>2025-06-19T14:40:56Z</time>
      </trkpt>
      <trkpt lat="45.75225" lon="6.51565">
        <ele>1817</ele>
        <time>2025-06-19T14:40:59Z</time>
      </trkpt>
      <trkpt lat="45.75203" lon="6.51599">
        <ele>1817</ele>
        <time>2025-06-19T14:41:07Z</time>
      </trkpt>
      <trkpt lat="45.75193" lon="6.51609">
        <ele>1816</ele>
        <time>2025-06-19T14:41:10Z</time>
      </trkpt>
      <trkpt lat="45.75187" lon="6.51613">
        <ele>1816</ele>
        <time>2025-06-19T14:41:11Z</time>
      </trkpt>
      <trkpt lat="45.75182" lon="6.51614">
        <ele>1816</ele>
        <time>2025-06-19T14:41:12Z</time>
      </trkpt>
      <trkpt lat="45.75177" lon="6.51613">
        <ele>1817</ele>
        <time>2025-06-19T14:41:13Z</time>
      </trkpt>
      <trkpt lat="45.75167" lon="6.51605">
        <ele>1818</ele>
        <time>2025-06-19T14:41:16Z</time>
      </trkpt>
      <trkpt lat="45.75154" lon="6.51593">
        <ele>1818</ele>
        <time>2025-06-19T14:41:20Z</time>
      </trkpt>
      <trkpt lat="45.75134" lon="6.51576">
        <ele>1819</ele>
        <time>2025-06-19T14:41:25Z</time>
      </trkpt>
      <trkpt lat="45.75125" lon="6.51571">
        <ele>1820</ele>
        <time>2025-06-19T14:41:27Z</time>
      </trkpt>
      <trkpt lat="45.75115" lon="6.51568">
        <ele>1820</ele>
        <time>2025-06-19T14:41:30Z</time>
      </trkpt>
      <trkpt lat="45.75108" lon="6.51568">
        <ele>1819</ele>
        <time>2025-06-19T14:41:31Z</time>
      </trkpt>
      <trkpt lat="45.75101" lon="6.51569">
        <ele>1819</ele>
        <time>2025-06-19T14:41:33Z</time>
      </trkpt>
      <trkpt lat="45.75096" lon="6.51571">
        <ele>1818</ele>
        <time>2025-06-19T14:41:34Z</time>
      </trkpt>
      <trkpt lat="45.75089" lon="6.5158">
        <ele>1817</ele>
        <time>2025-06-19T14:41:37Z</time>
      </trkpt>
      <trkpt lat="45.75078" lon="6.51605">
        <ele>1815</ele>
        <time>2025-06-19T14:41:41Z</time>
      </trkpt>
      <trkpt lat="45.75074" lon="6.51636">
        <ele>1813</ele>
        <time>2025-06-19T14:41:46Z</time>
      </trkpt>
      <trkpt lat="45.75064" lon="6.51667">
        <ele>1813</ele>
        <time>2025-06-19T14:41:52Z</time>
      </trkpt>
      <trkpt lat="45.75058" lon="6.51693">
        <ele>1812</ele>
        <time>2025-06-19T14:41:57Z</time>
      </trkpt>
      <trkpt lat="45.7505" lon="6.51717">
        <ele>1812</ele>
        <time>2025-06-19T14:42:01Z</time>
      </trkpt>
      <trkpt lat="45.7502" lon="6.51773">
        <ele>1812</ele>
        <time>2025-06-19T14:42:12Z</time>
      </trkpt>
      <trkpt lat="45.75013" lon="6.51783">
        <ele>1812</ele>
        <time>2025-06-19T14:42:15Z</time>
      </trkpt>
      <trkpt lat="45.75005" lon="6.51803">
        <ele>1812</ele>
        <time>2025-06-19T14:42:18Z</time>
      </trkpt>
      <trkpt lat="45.74999" lon="6.51814">
        <ele>1811</ele>
        <time>2025-06-19T14:42:21Z</time>
      </trkpt>
      <trkpt lat="45.74994" lon="6.51823">
        <ele>1811</ele>
        <time>2025-06-19T14:42:23Z</time>
      </trkpt>
      <trkpt lat="45.74987" lon="6.5183">
        <ele>1810</ele>
        <time>2025-06-19T14:42:25Z</time>
      </trkpt>
      <trkpt lat="45.74971" lon="6.5184">
        <ele>1810</ele>
        <time>2025-06-19T14:42:29Z</time>
      </trkpt>
      <trkpt lat="45.74957" lon="6.51846">
        <ele>1811</ele>
        <time>2025-06-19T14:42:32Z</time>
      </trkpt>
      <trkpt lat="45.74942" lon="6.5185">
        <ele>1811</ele>
        <time>2025-06-19T14:42:36Z</time>
      </trkpt>
      <trkpt lat="45.74939" lon="6.51853">
        <ele>1811</ele>
        <time>2025-06-19T14:42:36Z</time>
      </trkpt>
      <trkpt lat="45.74937" lon="6.51858">
        <ele>1810</ele>
        <time>2025-06-19T14:42:37Z</time>
      </trkpt>
      <trkpt lat="45.74935" lon="6.51866">
        <ele>1810</ele>
        <time>2025-06-19T14:42:39Z</time>
      </trkpt>
      <trkpt lat="45.74935" lon="6.51878">
        <ele>1808</ele>
        <time>2025-06-19T14:42:41Z</time>
      </trkpt>
      <trkpt lat="45.74933" lon="6.51887">
        <ele>1807</ele>
        <time>2025-06-19T14:42:42Z</time>
      </trkpt>
      <trkpt lat="45.74926" lon="6.51892">
        <ele>1807</ele>
        <time>2025-06-19T14:42:44Z</time>
      </trkpt>
      <trkpt lat="45.74891" lon="6.51898">
        <ele>1806</ele>
        <time>2025-06-19T14:42:52Z</time>
      </trkpt>
      <trkpt lat="45.74879" lon="6.51903">
        <ele>1805</ele>
        <time>2025-06-19T14:42:55Z</time>
      </trkpt>
      <trkpt lat="45.74874" lon="6.51906">
        <ele>1804</ele>
        <time>2025-06-19T14:42:57Z</time>
      </trkpt>
      <trkpt lat="45.7486" lon="6.51921">
        <ele>1802</ele>
        <time>2025-06-19T14:43:01Z</time>
      </trkpt>
      <trkpt lat="45.74858" lon="6.51926">
        <ele>1802</ele>
        <time>2025-06-19T14:43:02Z</time>
      </trkpt>
      <trkpt lat="45.7486" lon="6.51921">
        <ele>1802</ele>
        <time>2025-06-19T14:43:02Z</time>
      </trkpt>
      <trkpt lat="45.74863" lon="6.5191">
        <ele>1804</ele>
        <time>2025-06-19T14:43:04Z</time>
      </trkpt>
      <trkpt lat="45.74867" lon="6.51876">
        <ele>1808</ele>
        <time>2025-06-19T14:43:10Z</time>
      </trkpt>
      <trkpt lat="45.7487" lon="6.51867">
        <ele>1809</ele>
        <time>2025-06-19T14:43:12Z</time>
      </trkpt>
      <trkpt lat="45.74875" lon="6.51858">
        <ele>1811</ele>
        <time>2025-06-19T14:43:14Z</time>
      </trkpt>
      <trkpt lat="45.74895" lon="6.51835">
        <ele>1814</ele>
        <time>2025-06-19T14:43:20Z</time>
      </trkpt>
      <trkpt lat="45.74913" lon="6.51811">
        <ele>1818</ele>
        <time>2025-06-19T14:43:25Z</time>
      </trkpt>
      <trkpt lat="45.74927" lon="6.51791">
        <ele>1820</ele>
        <time>2025-06-19T14:43:30Z</time>
      </trkpt>
      <trkpt lat="45.74937" lon="6.51776">
        <ele>1821</ele>
        <time>2025-06-19T14:43:33Z</time>
      </trkpt>
      <trkpt lat="45.7494" lon="6.51766">
        <ele>1822</ele>
        <time>2025-06-19T14:43:35Z</time>
      </trkpt>
      <trkpt lat="45.74942" lon="6.51757">
        <ele>1823</ele>
        <time>2025-06-19T14:43:37Z</time>
      </trkpt>
      <trkpt lat="45.74943" lon="6.51748">
        <ele>1824</ele>
        <time>2025-06-19T14:43:38Z</time>
      </trkpt>
      <trkpt lat="45.74942" lon="6.51737">
        <ele>1825</ele>
        <time>2025-06-19T14:43:40Z</time>
      </trkpt>
      <trkpt lat="45.74939" lon="6.51725">
        <ele>1826</ele>
        <time>2025-06-19T14:43:42Z</time>
      </trkpt>
      <trkpt lat="45.74936" lon="6.51716">
        <ele>1827</ele>
        <time>2025-06-19T14:43:44Z</time>
      </trkpt>
      <trkpt lat="45.74931" lon="6.51707">
        <ele>1828</ele>
        <time>2025-06-19T14:43:45Z</time>
      </trkpt>
      <trkpt lat="45.74915" lon="6.51681">
        <ele>1831</ele>
        <time>2025-06-19T14:43:51Z</time>
      </trkpt>
      <trkpt lat="45.74909" lon="6.5167">
        <ele>1832</ele>
        <time>2025-06-19T14:43:53Z</time>
      </trkpt>
      <trkpt lat="45.74905" lon="6.51657">
        <ele>1834</ele>
        <time>2025-06-19T14:43:56Z</time>
      </trkpt>
      <trkpt lat="45.74902" lon="6.51641">
        <ele>1835</ele>
        <time>2025-06-19T14:43:58Z</time>
      </trkpt>
      <trkpt lat="45.74899" lon="6.51609">
        <ele>1839</ele>
        <time>2025-06-19T14:44:04Z</time>
      </trkpt>
      <trkpt lat="45.749" lon="6.51589">
        <ele>1841</ele>
        <time>2025-06-19T14:44:07Z</time>
      </trkpt>
      <trkpt lat="45.74902" lon="6.5157">
        <ele>1843</ele>
        <time>2025-06-19T14:44:10Z</time>
      </trkpt>
      <trkpt lat="45.74902" lon="6.51558">
        <ele>1844</ele>
        <time>2025-06-19T14:44:12Z</time>
      </trkpt>
      <trkpt lat="45.749" lon="6.51545">
        <ele>1846</ele>
        <time>2025-06-19T14:44:14Z</time>
      </trkpt>
      <trkpt lat="45.74904" lon="6.5154">
        <ele>1846</ele>
        <time>2025-06-19T14:44:15Z</time>
      </trkpt>
      <trkpt lat="45.74919" lon="6.51486">
        <ele>1849</ele>
        <time>2025-06-19T14:44:25Z</time>
      </trkpt>
      <trkpt lat="45.74966" lon="6.51344">
        <ele>1854</ele>
        <time>2025-06-19T14:44:50Z</time>
      </trkpt>
      <trkpt lat="45.74981" lon="6.51294">
        <ele>1858</ele>
        <time>2025-06-19T14:44:59Z</time>
      </trkpt>
      <trkpt lat="45.74987" lon="6.51288">
        <ele>1858</ele>
        <time>2025-06-19T14:45:01Z</time>
      </trkpt>
      <trkpt lat="45.74992" lon="6.51282">
        <ele>1858</ele>
        <time>2025-06-19T14:45:03Z</time>
      </trkpt>
      <trkpt lat="45.75009" lon="6.51275">
        <ele>1858</ele>
        <time>2025-06-19T14:45:07Z</time>
      </trkpt>
      <trkpt lat="45.75029" lon="6.51271">
        <ele>1857</ele>
        <time>2025-06-19T14:45:11Z</time>
      </trkpt>
      <trkpt lat="45.7504" lon="6.51266">
        <ele>1857</ele>
        <time>2025-06-19T14:45:14Z</time>
      </trkpt>
      <trkpt lat="45.75045" lon="6.5126">
        <ele>1858</ele>
        <time>2025-06-19T14:45:16Z</time>
      </trkpt>
      <trkpt lat="45.75049" lon="6.51252">
        <ele>1858</ele>
        <time>2025-06-19T14:45:17Z</time>
      </trkpt>
      <trkpt lat="45.75055" lon="6.51231">
        <ele>1860</ele>
        <time>2025-06-19T14:45:21Z</time>
      </trkpt>
      <trkpt lat="45.75056" lon="6.51217">
        <ele>1861</ele>
        <time>2025-06-19T14:45:23Z</time>
      </trkpt>
      <trkpt lat="45.75056" lon="6.51201">
        <ele>1863</ele>
        <time>2025-06-19T14:45:26Z</time>
      </trkpt>
      <trkpt lat="45.75049" lon="6.51175">
        <ele>1866</ele>
        <time>2025-06-19T14:45:30Z</time>
      </trkpt>
      <trkpt lat="45.7504" lon="6.51138">
        <ele>1869</ele>
        <time>2025-06-19T14:45:37Z</time>
      </trkpt>
      <trkpt lat="45.75036" lon="6.51103">
        <ele>1871</ele>
        <time>2025-06-19T14:45:43Z</time>
      </trkpt>
      <trkpt lat="45.75037" lon="6.51091">
        <ele>1871</ele>
        <time>2025-06-19T14:45:45Z</time>
      </trkpt>
      <trkpt lat="45.75042" lon="6.51055">
        <ele>1869</ele>
        <time>2025-06-19T14:45:51Z</time>
      </trkpt>
      <trkpt lat="45.75043" lon="6.51051">
        <ele>1869</ele>
        <time>2025-06-19T14:45:51Z</time>
      </trkpt>
      <trkpt lat="45.75034" lon="6.50998">
        <ele>1867</ele>
        <time>2025-06-19T14:46:00Z</time>
      </trkpt>
      <trkpt lat="45.75027" lon="6.50929">
        <ele>1867</ele>
        <time>2025-06-19T14:46:11Z</time>
      </trkpt>
      <trkpt lat="45.75023" lon="6.50875">
        <ele>1868</ele>
        <time>2025-06-19T14:46:20Z</time>
      </trkpt>
      <trkpt lat="45.75029" lon="6.50864">
        <ele>1868</ele>
        <time>2025-06-19T14:46:23Z</time>
      </trkpt>
      <trkpt lat="45.75041" lon="6.50853">
        <ele>1866</ele>
        <time>2025-06-19T14:46:26Z</time>
      </trkpt>
      <trkpt lat="45.75055" lon="6.5085">
        <ele>1863</ele>
        <time>2025-06-19T14:46:29Z</time>
      </trkpt>
      <trkpt lat="45.7506" lon="6.50846">
        <ele>1863</ele>
        <time>2025-06-19T14:46:31Z</time>
      </trkpt>
      <trkpt lat="45.7506" lon="6.50832">
        <ele>1863</ele>
        <time>2025-06-19T14:46:33Z</time>
      </trkpt>
      <trkpt lat="45.7505" lon="6.50809">
        <ele>1864</ele>
        <time>2025-06-19T14:46:37Z</time>
      </trkpt>
      <trkpt lat="45.75038" lon="6.50786">
        <ele>1866</ele>
        <time>2025-06-19T14:46:42Z</time>
      </trkpt>
      <trkpt lat="45.75035" lon="6.50771">
        <ele>1867</ele>
        <time>2025-06-19T14:46:44Z</time>
      </trkpt>
      <trkpt lat="45.75035" lon="6.50737">
        <ele>1866</ele>
        <time>2025-06-19T14:46:50Z</time>
      </trkpt>
      <trkpt lat="45.75027" lon="6.50713">
        <ele>1865</ele>
        <time>2025-06-19T14:46:54Z</time>
      </trkpt>
      <trkpt lat="45.75017" lon="6.50689">
        <ele>1866</ele>
        <time>2025-06-19T14:46:59Z</time>
      </trkpt>
      <trkpt lat="45.75009" lon="6.50655">
        <ele>1864</ele>
        <time>2025-06-19T14:47:05Z</time>
      </trkpt>
      <trkpt lat="45.75002" lon="6.50638">
        <ele>1863</ele>
        <time>2025-06-19T14:47:08Z</time>
      </trkpt>
      <trkpt lat="45.74982" lon="6.50616">
        <ele>1865</ele>
        <time>2025-06-19T14:47:14Z</time>
      </trkpt>
      <trkpt lat="45.74955" lon="6.50589">
        <ele>1869</ele>
        <time>2025-06-19T14:47:22Z</time>
      </trkpt>
      <trkpt lat="45.74931" lon="6.50563">
        <ele>1871</ele>
        <time>2025-06-19T14:47:29Z</time>
      </trkpt>
      <trkpt lat="45.74921" lon="6.50546">
        <ele>1871</ele>
        <time>2025-06-19T14:47:32Z</time>
      </trkpt>
      <trkpt lat="45.74914" lon="6.50524">
        <ele>1869</ele>
        <time>2025-06-19T14:47:36Z</time>
      </trkpt>
      <trkpt lat="45.74902" lon="6.50487">
        <ele>1867</ele>
        <time>2025-06-19T14:47:43Z</time>
      </trkpt>
      <trkpt lat="45.74897" lon="6.50461">
        <ele>1866</ele>
        <time>2025-06-19T14:47:47Z</time>
      </trkpt>
      <trkpt lat="45.74866" lon="6.50417">
        <ele>1869</ele>
        <time>2025-06-19T14:47:57Z</time>
      </trkpt>
      <trkpt lat="45.74842" lon="6.5038">
        <ele>1872</ele>
        <time>2025-06-19T14:48:06Z</time>
      </trkpt>
      <trkpt lat="45.74827" lon="6.50352">
        <ele>1874</ele>
        <time>2025-06-19T14:48:11Z</time>
      </trkpt>
      <trkpt lat="45.74822" lon="6.5034">
        <ele>1874</ele>
        <time>2025-06-19T14:48:14Z</time>
      </trkpt>
      <trkpt lat="45.74816" lon="6.50308">
        <ele>1873</ele>
        <time>2025-06-19T14:48:19Z</time>
      </trkpt>
      <trkpt lat="45.74811" lon="6.50295">
        <ele>1873</ele>
        <time>2025-06-19T14:48:21Z</time>
      </trkpt>
      <trkpt lat="45.74801" lon="6.50289">
        <ele>1875</ele>
        <time>2025-06-19T14:48:24Z</time>
      </trkpt>
      <trkpt lat="45.7479" lon="6.50283">
        <ele>1877</ele>
        <time>2025-06-19T14:48:27Z</time>
      </trkpt>
      <trkpt lat="45.74782" lon="6.50272">
        <ele>1877</ele>
        <time>2025-06-19T14:48:29Z</time>
      </trkpt>
      <trkpt lat="45.74769" lon="6.50238">
        <ele>1875</ele>
        <time>2025-06-19T14:48:36Z</time>
      </trkpt>
      <trkpt lat="45.74757" lon="6.5022">
        <ele>1876</ele>
        <time>2025-06-19T14:48:40Z</time>
      </trkpt>
      <trkpt lat="45.74744" lon="6.50202">
        <ele>1876</ele>
        <time>2025-06-19T14:48:44Z</time>
      </trkpt>
      <trkpt lat="45.74722" lon="6.50188">
        <ele>1875</ele>
        <time>2025-06-19T14:48:50Z</time>
      </trkpt>
      <trkpt lat="45.74686" lon="6.50169">
        <ele>1873</ele>
        <time>2025-06-19T14:48:58Z</time>
      </trkpt>
      <trkpt lat="45.74666" lon="6.50165">
        <ele>1873</ele>
        <time>2025-06-19T14:49:03Z</time>
      </trkpt>
      <trkpt lat="45.74651" lon="6.50159">
        <ele>1872</ele>
        <time>2025-06-19T14:49:07Z</time>
      </trkpt>
      <trkpt lat="45.74644" lon="6.50149">
        <ele>1871</ele>
        <time>2025-06-19T14:49:09Z</time>
      </trkpt>
      <trkpt lat="45.74635" lon="6.50137">
        <ele>1869</ele>
        <time>2025-06-19T14:49:12Z</time>
      </trkpt>
      <trkpt lat="45.74617" lon="6.50125">
        <ele>1867</ele>
        <time>2025-06-19T14:49:17Z</time>
      </trkpt>
      <trkpt lat="45.74601" lon="6.50117">
        <ele>1866</ele>
        <time>2025-06-19T14:49:21Z</time>
      </trkpt>
      <trkpt lat="45.74587" lon="6.50117">
        <ele>1866</ele>
        <time>2025-06-19T14:49:24Z</time>
      </trkpt>
      <trkpt lat="45.74565" lon="6.50122">
        <ele>1866</ele>
        <time>2025-06-19T14:49:29Z</time>
      </trkpt>
      <trkpt lat="45.7455" lon="6.50123">
        <ele>1866</ele>
        <time>2025-06-19T14:49:33Z</time>
      </trkpt>
      <trkpt lat="45.7454" lon="6.50121">
        <ele>1866</ele>
        <time>2025-06-19T14:49:35Z</time>
      </trkpt>
      <trkpt lat="45.74531" lon="6.50115">
        <ele>1865</ele>
        <time>2025-06-19T14:49:37Z</time>
      </trkpt>
      <trkpt lat="45.74524" lon="6.50105">
        <ele>1863</ele>
        <time>2025-06-19T14:49:40Z</time>
      </trkpt>
      <trkpt lat="45.74518" lon="6.50094">
        <ele>1862</ele>
        <time>2025-06-19T14:49:42Z</time>
      </trkpt>
      <trkpt lat="45.74514" lon="6.50077">
        <ele>1860</ele>
        <time>2025-06-19T14:49:45Z</time>
      </trkpt>
      <trkpt lat="45.74513" lon="6.50073">
        <ele>1859</ele>
        <time>2025-06-19T14:49:45Z</time>
      </trkpt>
      <trkpt lat="45.74513" lon="6.50028">
        <ele>1852</ele>
        <time>2025-06-19T14:49:53Z</time>
      </trkpt>
      <trkpt lat="45.74513" lon="6.50011">
        <ele>1849</ele>
        <time>2025-06-19T14:49:56Z</time>
      </trkpt>
      <trkpt lat="45.74511" lon="6.49999">
        <ele>1848</ele>
        <time>2025-06-19T14:49:58Z</time>
      </trkpt>
      <trkpt lat="45.74503" lon="6.49968">
        <ele>1845</ele>
        <time>2025-06-19T14:50:03Z</time>
      </trkpt>
      <trkpt lat="45.74494" lon="6.49932">
        <ele>1841</ele>
        <time>2025-06-19T14:50:09Z</time>
      </trkpt>
      <trkpt lat="45.74489" lon="6.49898">
        <ele>1837</ele>
        <time>2025-06-19T14:50:15Z</time>
      </trkpt>
      <trkpt lat="45.74481" lon="6.4987">
        <ele>1835</ele>
        <time>2025-06-19T14:50:20Z</time>
      </trkpt>
      <trkpt lat="45.7447" lon="6.49851">
        <ele>1834</ele>
        <time>2025-06-19T14:50:24Z</time>
      </trkpt>
      <trkpt lat="45.74455" lon="6.49827">
        <ele>1833</ele>
        <time>2025-06-19T14:50:29Z</time>
      </trkpt>
      <trkpt lat="45.7445" lon="6.49817">
        <ele>1832</ele>
        <time>2025-06-19T14:50:31Z</time>
      </trkpt>
      <trkpt lat="45.74463" lon="6.49804">
        <ele>1828</ele>
        <time>2025-06-19T14:50:35Z</time>
      </trkpt>
      <trkpt lat="45.74477" lon="6.49807">
        <ele>1826</ele>
        <time>2025-06-19T14:50:38Z</time>
      </trkpt>
      <trkpt lat="45.74486" lon="6.49822">
        <ele>1828</ele>
        <time>2025-06-19T14:50:41Z</time>
      </trkpt>
      <trkpt lat="45.74491" lon="6.49811">
        <ele>1825</ele>
        <time>2025-06-19T14:50:43Z</time>
      </trkpt>
      <trkpt lat="45.745" lon="6.49817">
        <ele>1825</ele>
        <time>2025-06-19T14:50:46Z</time>
      </trkpt>
      <trkpt lat="45.74502" lon="6.49812">
        <ele>1824</ele>
        <time>2025-06-19T14:50:47Z</time>
      </trkpt>
      <trkpt lat="45.74488" lon="6.49784">
        <ele>1820</ele>
        <time>2025-06-19T14:50:52Z</time>
      </trkpt>
      <trkpt lat="45.74442" lon="6.49754">
        <ele>1823</ele>
        <time>2025-06-19T14:51:04Z</time>
      </trkpt>
      <trkpt lat="45.74426" lon="6.49726">
        <ele>1824</ele>
        <time>2025-06-19T14:51:10Z</time>
      </trkpt>
      <trkpt lat="45.74407" lon="6.49703">
        <ele>1826</ele>
        <time>2025-06-19T14:51:16Z</time>
      </trkpt>
      <trkpt lat="45.74409" lon="6.4969">
        <ele>1825</ele>
        <time>2025-06-19T14:51:18Z</time>
      </trkpt>
      <trkpt lat="45.74407" lon="6.49684">
        <ele>1825</ele>
        <time>2025-06-19T14:51:19Z</time>
      </trkpt>
      <trkpt lat="45.74404" lon="6.4965">
        <ele>1823</ele>
        <time>2025-06-19T14:51:25Z</time>
      </trkpt>
      <trkpt lat="45.74406" lon="6.49631">
        <ele>1821</ele>
        <time>2025-06-19T14:51:28Z</time>
      </trkpt>
      <trkpt lat="45.74394" lon="6.49616">
        <ele>1820</ele>
        <time>2025-06-19T14:51:32Z</time>
      </trkpt>
      <trkpt lat="45.74374" lon="6.49603">
        <ele>1820</ele>
        <time>2025-06-19T14:51:37Z</time>
      </trkpt>
      <trkpt lat="45.74362" lon="6.49591">
        <ele>1820</ele>
        <time>2025-06-19T14:51:40Z</time>
      </trkpt>
      <trkpt lat="45.74357" lon="6.49567">
        <ele>1818</ele>
        <time>2025-06-19T14:51:44Z</time>
      </trkpt>
      <trkpt lat="45.74349" lon="6.49546">
        <ele>1816</ele>
        <time>2025-06-19T14:51:48Z</time>
      </trkpt>
      <trkpt lat="45.74342" lon="6.49537">
        <ele>1816</ele>
        <time>2025-06-19T14:51:50Z</time>
      </trkpt>
      <trkpt lat="45.74334" lon="6.49536">
        <ele>1817</ele>
        <time>2025-06-19T14:51:52Z</time>
      </trkpt>
      <trkpt lat="45.74332" lon="6.49532">
        <ele>1816</ele>
        <time>2025-06-19T14:51:53Z</time>
      </trkpt>
      <trkpt lat="45.74323" lon="6.49517">
        <ele>1815</ele>
        <time>2025-06-19T14:51:56Z</time>
      </trkpt>
      <trkpt lat="45.74294" lon="6.49484">
        <ele>1812</ele>
        <time>2025-06-19T14:52:05Z</time>
      </trkpt>
      <trkpt lat="45.74289" lon="6.49507">
        <ele>1814</ele>
        <time>2025-06-19T14:52:09Z</time>
      </trkpt>
      <trkpt lat="45.74283" lon="6.49513">
        <ele>1814</ele>
        <time>2025-06-19T14:52:10Z</time>
      </trkpt>
      <trkpt lat="45.74284" lon="6.49505">
        <ele>1814</ele>
        <time>2025-06-19T14:52:12Z</time>
      </trkpt>
      <trkpt lat="45.74262" lon="6.4948">
        <ele>1813</ele>
        <time>2025-06-19T14:52:18Z</time>
      </trkpt>
      <trkpt lat="45.74256" lon="6.49463">
        <ele>1812</ele>
        <time>2025-06-19T14:52:21Z</time>
      </trkpt>
      <trkpt lat="45.74244" lon="6.49443">
        <ele>1811</ele>
        <time>2025-06-19T14:52:26Z</time>
      </trkpt>
      <trkpt lat="45.74244" lon="6.49404">
        <ele>1808</ele>
        <time>2025-06-19T14:52:32Z</time>
      </trkpt>
      <trkpt lat="45.74248" lon="6.49394">
        <ele>1807</ele>
        <time>2025-06-19T14:52:34Z</time>
      </trkpt>
      <trkpt lat="45.74243" lon="6.49376">
        <ele>1805</ele>
        <time>2025-06-19T14:52:37Z</time>
      </trkpt>
      <trkpt lat="45.74216" lon="6.4933">
        <ele>1801</ele>
        <time>2025-06-19T14:52:47Z</time>
      </trkpt>
      <trkpt lat="45.74206" lon="6.49322">
        <ele>1801</ele>
        <time>2025-06-19T14:52:50Z</time>
      </trkpt>
      <trkpt lat="45.74206" lon="6.49306">
        <ele>1798</ele>
        <time>2025-06-19T14:52:52Z</time>
      </trkpt>
      <trkpt lat="45.74194" lon="6.49282">
        <ele>1797</ele>
        <time>2025-06-19T14:52:57Z</time>
      </trkpt>
      <trkpt lat="45.74175" lon="6.49275">
        <ele>1799</ele>
        <time>2025-06-19T14:53:02Z</time>
      </trkpt>
      <trkpt lat="45.7417" lon="6.49272">
        <ele>1800</ele>
        <time>2025-06-19T14:53:03Z</time>
      </trkpt>
      <trkpt lat="45.74161" lon="6.49267">
        <ele>1800</ele>
        <time>2025-06-19T14:53:05Z</time>
      </trkpt>
      <trkpt lat="45.74152" lon="6.49272">
        <ele>1799</ele>
        <time>2025-06-19T14:53:07Z</time>
      </trkpt>
      <trkpt lat="45.74149" lon="6.49289">
        <ele>1800</ele>
        <time>2025-06-19T14:53:10Z</time>
      </trkpt>
      <trkpt lat="45.74155" lon="6.49309">
        <ele>1801</ele>
        <time>2025-06-19T14:53:14Z</time>
      </trkpt>
      <trkpt lat="45.74154" lon="6.49321">
        <ele>1802</ele>
        <time>2025-06-19T14:53:16Z</time>
      </trkpt>
      <trkpt lat="45.74147" lon="6.49337">
        <ele>1801</ele>
        <time>2025-06-19T14:53:19Z</time>
      </trkpt>
      <trkpt lat="45.74143" lon="6.49377">
        <ele>1798</ele>
        <time>2025-06-19T14:53:25Z</time>
      </trkpt>
      <trkpt lat="45.74137" lon="6.49377">
        <ele>1797</ele>
        <time>2025-06-19T14:53:27Z</time>
      </trkpt>
      <trkpt lat="45.74126" lon="6.49362">
        <ele>1796</ele>
        <time>2025-06-19T14:53:30Z</time>
      </trkpt>
      <trkpt lat="45.74108" lon="6.49348">
        <ele>1793</ele>
        <time>2025-06-19T14:53:35Z</time>
      </trkpt>
      <trkpt lat="45.74094" lon="6.49324">
        <ele>1792</ele>
        <time>2025-06-19T14:53:40Z</time>
      </trkpt>
      <trkpt lat="45.74092" lon="6.49346">
        <ele>1790</ele>
        <time>2025-06-19T14:53:44Z</time>
      </trkpt>
      <trkpt lat="45.74097" lon="6.4935">
        <ele>1791</ele>
        <time>2025-06-19T14:53:45Z</time>
      </trkpt>
      <trkpt lat="45.74085" lon="6.49355">
        <ele>1788</ele>
        <time>2025-06-19T14:53:48Z</time>
      </trkpt>
      <trkpt lat="45.74072" lon="6.49355">
        <ele>1783</ele>
        <time>2025-06-19T14:53:51Z</time>
      </trkpt>
      <trkpt lat="45.74024" lon="6.49303">
        <ele>1774</ele>
        <time>2025-06-19T14:54:05Z</time>
      </trkpt>
      <trkpt lat="45.73976" lon="6.49223">
        <ele>1769</ele>
        <time>2025-06-19T14:54:22Z</time>
      </trkpt>
      <trkpt lat="45.73962" lon="6.49194">
        <ele>1768</ele>
        <time>2025-06-19T14:54:28Z</time>
      </trkpt>
      <trkpt lat="45.73949" lon="6.49153">
        <ele>1770</ele>
        <time>2025-06-19T14:54:35Z</time>
      </trkpt>
      <trkpt lat="45.73934" lon="6.49128">
        <ele>1768</ele>
        <time>2025-06-19T14:54:41Z</time>
      </trkpt>
      <trkpt lat="45.73919" lon="6.49117">
        <ele>1765</ele>
        <time>2025-06-19T14:54:45Z</time>
      </trkpt>
      <trkpt lat="45.73915" lon="6.49156">
        <ele>1757</ele>
        <time>2025-06-19T14:54:51Z</time>
      </trkpt>
      <trkpt lat="45.73916" lon="6.49199">
        <ele>1749</ele>
        <time>2025-06-19T14:54:58Z</time>
      </trkpt>
      <trkpt lat="45.73868" lon="6.49161">
        <ele>1738</ele>
        <time>2025-06-19T14:55:11Z</time>
      </trkpt>
      <trkpt lat="45.73836" lon="6.49143">
        <ele>1729</ele>
        <time>2025-06-19T14:55:19Z</time>
      </trkpt>
      <trkpt lat="45.73854" lon="6.49212">
        <ele>1722</ele>
        <time>2025-06-19T14:55:31Z</time>
      </trkpt>
      <trkpt lat="45.73888" lon="6.4926">
        <ele>1726</ele>
        <time>2025-06-19T14:55:42Z</time>
      </trkpt>
      <trkpt lat="45.73901" lon="6.49309">
        <ele>1719</ele>
        <time>2025-06-19T14:55:51Z</time>
      </trkpt>
      <trkpt lat="45.73899" lon="6.4935">
        <ele>1710</ele>
        <time>2025-06-19T14:55:57Z</time>
      </trkpt>
      <trkpt lat="45.73927" lon="6.49415">
        <ele>1710</ele>
        <time>2025-06-19T14:56:10Z</time>
      </trkpt>
      <trkpt lat="45.73912" lon="6.4946">
        <ele>1699</ele>
        <time>2025-06-19T14:56:18Z</time>
      </trkpt>
      <trkpt lat="45.73868" lon="6.49478">
        <ele>1682</ele>
        <time>2025-06-19T14:56:29Z</time>
      </trkpt>
      <trkpt lat="45.73864" lon="6.49476">
        <ele>1681</ele>
        <time>2025-06-19T14:56:30Z</time>
      </trkpt>
      <trkpt lat="45.73849" lon="6.49482">
        <ele>1675</ele>
        <time>2025-06-19T14:56:33Z</time>
      </trkpt>
      <trkpt lat="45.73842" lon="6.49482">
        <ele>1673</ele>
        <time>2025-06-19T14:56:35Z</time>
      </trkpt>
      <trkpt lat="45.73838" lon="6.49478">
        <ele>1672</ele>
        <time>2025-06-19T14:56:36Z</time>
      </trkpt>
      <trkpt lat="45.7383" lon="6.49468">
        <ele>1670</ele>
        <time>2025-06-19T14:56:39Z</time>
      </trkpt>
      <trkpt lat="45.73817" lon="6.49451">
        <ele>1668</ele>
        <time>2025-06-19T14:56:43Z</time>
      </trkpt>
      <trkpt lat="45.73803" lon="6.49442">
        <ele>1665</ele>
        <time>2025-06-19T14:56:46Z</time>
      </trkpt>
      <trkpt lat="45.73782" lon="6.49436">
        <ele>1660</ele>
        <time>2025-06-19T14:56:51Z</time>
      </trkpt>
      <trkpt lat="45.73751" lon="6.49425">
        <ele>1653</ele>
        <time>2025-06-19T14:56:59Z</time>
      </trkpt>
      <trkpt lat="45.73724" lon="6.4941">
        <ele>1651</ele>
        <time>2025-06-19T14:57:05Z</time>
      </trkpt>
      <trkpt lat="45.73711" lon="6.49407">
        <ele>1649</ele>
        <time>2025-06-19T14:57:09Z</time>
      </trkpt>
      <trkpt lat="45.73695" lon="6.49401">
        <ele>1648</ele>
        <time>2025-06-19T14:57:12Z</time>
      </trkpt>
      <trkpt lat="45.73685" lon="6.49402">
        <ele>1646</ele>
        <time>2025-06-19T14:57:15Z</time>
      </trkpt>
      <trkpt lat="45.73667" lon="6.49415">
        <ele>1640</ele>
        <time>2025-06-19T14:57:19Z</time>
      </trkpt>
      <trkpt lat="45.73645" lon="6.49436">
        <ele>1633</ele>
        <time>2025-06-19T14:57:26Z</time>
      </trkpt>
      <trkpt lat="45.73639" lon="6.4944">
        <ele>1631</ele>
        <time>2025-06-19T14:57:27Z</time>
      </trkpt>
      <trkpt lat="45.7363" lon="6.49445">
        <ele>1629</ele>
        <time>2025-06-19T14:57:29Z</time>
      </trkpt>
      <trkpt lat="45.73626" lon="6.49457">
        <ele>1626</ele>
        <time>2025-06-19T14:57:32Z</time>
      </trkpt>
      <trkpt lat="45.73623" lon="6.49474">
        <ele>1622</ele>
        <time>2025-06-19T14:57:34Z</time>
      </trkpt>
      <trkpt lat="45.73612" lon="6.49478">
        <ele>1619</ele>
        <time>2025-06-19T14:57:37Z</time>
      </trkpt>
      <trkpt lat="45.73602" lon="6.49503">
        <ele>1613</ele>
        <time>2025-06-19T14:57:42Z</time>
      </trkpt>
      <trkpt lat="45.73605" lon="6.49531">
        <ele>1609</ele>
        <time>2025-06-19T14:57:46Z</time>
      </trkpt>
      <trkpt lat="45.7362" lon="6.49579">
        <ele>1604</ele>
        <time>2025-06-19T14:57:55Z</time>
      </trkpt>
      <trkpt lat="45.73618" lon="6.49589">
        <ele>1602</ele>
        <time>2025-06-19T14:57:57Z</time>
      </trkpt>
      <trkpt lat="45.73616" lon="6.49602">
        <ele>1600</ele>
        <time>2025-06-19T14:57:59Z</time>
      </trkpt>
      <trkpt lat="45.7361" lon="6.49596">
        <ele>1600</ele>
        <time>2025-06-19T14:58:01Z</time>
      </trkpt>
      <trkpt lat="45.73602" lon="6.49586">
        <ele>1600</ele>
        <time>2025-06-19T14:58:03Z</time>
      </trkpt>
      <trkpt lat="45.73592" lon="6.49581">
        <ele>1599</ele>
        <time>2025-06-19T14:58:06Z</time>
      </trkpt>
      <trkpt lat="45.73579" lon="6.49568">
        <ele>1598</ele>
        <time>2025-06-19T14:58:09Z</time>
      </trkpt>
      <trkpt lat="45.73566" lon="6.49563">
        <ele>1594</ele>
        <time>2025-06-19T14:58:12Z</time>
      </trkpt>
      <trkpt lat="45.73561" lon="6.49558">
        <ele>1593</ele>
        <time>2025-06-19T14:58:14Z</time>
      </trkpt>
      <trkpt lat="45.73556" lon="6.49555">
        <ele>1592</ele>
        <time>2025-06-19T14:58:15Z</time>
      </trkpt>
      <trkpt lat="45.73549" lon="6.49547">
        <ele>1591</ele>
        <time>2025-06-19T14:58:17Z</time>
      </trkpt>
      <trkpt lat="45.73541" lon="6.49528">
        <ele>1590</ele>
        <time>2025-06-19T14:58:21Z</time>
      </trkpt>
      <trkpt lat="45.73535" lon="6.49516">
        <ele>1589</ele>
        <time>2025-06-19T14:58:23Z</time>
      </trkpt>
      <trkpt lat="45.7353" lon="6.49516">
        <ele>1587</ele>
        <time>2025-06-19T14:58:24Z</time>
      </trkpt>
      <trkpt lat="45.73515" lon="6.49513">
        <ele>1582</ele>
        <time>2025-06-19T14:58:28Z</time>
      </trkpt>
      <trkpt lat="45.7351" lon="6.49508">
        <ele>1580</ele>
        <time>2025-06-19T14:58:29Z</time>
      </trkpt>
      <trkpt lat="45.73488" lon="6.49461">
        <ele>1579</ele>
        <time>2025-06-19T14:58:39Z</time>
      </trkpt>
      <trkpt lat="45.73478" lon="6.49425">
        <ele>1580</ele>
        <time>2025-06-19T14:58:45Z</time>
      </trkpt>
      <trkpt lat="45.73464" lon="6.49407">
        <ele>1576</ele>
        <time>2025-06-19T14:58:49Z</time>
      </trkpt>
      <trkpt lat="45.73453" lon="6.49394">
        <ele>1574</ele>
        <time>2025-06-19T14:58:53Z</time>
      </trkpt>
      <trkpt lat="45.73447" lon="6.49391">
        <ele>1571</ele>
        <time>2025-06-19T14:58:54Z</time>
      </trkpt>
      <trkpt lat="45.73436" lon="6.49379">
        <ele>1568</ele>
        <time>2025-06-19T14:58:57Z</time>
      </trkpt>
      <trkpt lat="45.73434" lon="6.49366">
        <ele>1569</ele>
        <time>2025-06-19T14:58:59Z</time>
      </trkpt>
      <trkpt lat="45.7343" lon="6.49362">
        <ele>1568</ele>
        <time>2025-06-19T14:59:01Z</time>
      </trkpt>
      <trkpt lat="45.73426" lon="6.49364">
        <ele>1566</ele>
        <time>2025-06-19T14:59:02Z</time>
      </trkpt>
      <trkpt lat="45.73423" lon="6.49373">
        <ele>1563</ele>
        <time>2025-06-19T14:59:03Z</time>
      </trkpt>
      <trkpt lat="45.73428" lon="6.49423">
        <ele>1557</ele>
        <time>2025-06-19T14:59:11Z</time>
      </trkpt>
      <trkpt lat="45.73429" lon="6.49443">
        <ele>1556</ele>
        <time>2025-06-19T14:59:15Z</time>
      </trkpt>
      <trkpt lat="45.73426" lon="6.49459">
        <ele>1553</ele>
        <time>2025-06-19T14:59:17Z</time>
      </trkpt>
      <trkpt lat="45.73419" lon="6.4948">
        <ele>1549</ele>
        <time>2025-06-19T14:59:21Z</time>
      </trkpt>
      <trkpt lat="45.73413" lon="6.49492">
        <ele>1546</ele>
        <time>2025-06-19T14:59:24Z</time>
      </trkpt>
      <trkpt lat="45.73407" lon="6.49501">
        <ele>1542</ele>
        <time>2025-06-19T14:59:26Z</time>
      </trkpt>
      <trkpt lat="45.73402" lon="6.49515">
        <ele>1539</ele>
        <time>2025-06-19T14:59:28Z</time>
      </trkpt>
      <trkpt lat="45.73405" lon="6.49536">
        <ele>1539</ele>
        <time>2025-06-19T14:59:32Z</time>
      </trkpt>
      <trkpt lat="45.73401" lon="6.49575">
        <ele>1534</ele>
        <time>2025-06-19T14:59:38Z</time>
      </trkpt>
      <trkpt lat="45.73396" lon="6.49589">
        <ele>1530</ele>
        <time>2025-06-19T14:59:41Z</time>
      </trkpt>
      <trkpt lat="45.73394" lon="6.49603">
        <ele>1529</ele>
        <time>2025-06-19T14:59:43Z</time>
      </trkpt>
      <trkpt lat="45.73393" lon="6.49653">
        <ele>1528</ele>
        <time>2025-06-19T14:59:51Z</time>
      </trkpt>
      <trkpt lat="45.73395" lon="6.49676">
        <ele>1528</ele>
        <time>2025-06-19T14:59:55Z</time>
      </trkpt>
      <trkpt lat="45.734" lon="6.49692">
        <ele>1528</ele>
        <time>2025-06-19T14:59:58Z</time>
      </trkpt>
      <trkpt lat="45.73404" lon="6.49712">
        <ele>1528</ele>
        <time>2025-06-19T15:00:01Z</time>
      </trkpt>
      <trkpt lat="45.73409" lon="6.49727">
        <ele>1529</ele>
        <time>2025-06-19T15:00:04Z</time>
      </trkpt>
      <trkpt lat="45.73413" lon="6.49758">
        <ele>1527</ele>
        <time>2025-06-19T15:00:09Z</time>
      </trkpt>
      <trkpt lat="45.73426" lon="6.49795">
        <ele>1526</ele>
        <time>2025-06-19T15:00:16Z</time>
      </trkpt>
      <trkpt lat="45.73432" lon="6.49819">
        <ele>1525</ele>
        <time>2025-06-19T15:00:20Z</time>
      </trkpt>
      <trkpt lat="45.73433" lon="6.49829">
        <ele>1524</ele>
        <time>2025-06-19T15:00:22Z</time>
      </trkpt>
      <trkpt lat="45.73431" lon="6.49842">
        <ele>1522</ele>
        <time>2025-06-19T15:00:24Z</time>
      </trkpt>
      <trkpt lat="45.73428" lon="6.49859">
        <ele>1519</ele>
        <time>2025-06-19T15:00:27Z</time>
      </trkpt>
      <trkpt lat="45.73424" lon="6.49861">
        <ele>1518</ele>
        <time>2025-06-19T15:00:28Z</time>
      </trkpt>
      <trkpt lat="45.73418" lon="6.49866">
        <ele>1516</ele>
        <time>2025-06-19T15:00:29Z</time>
      </trkpt>
      <trkpt lat="45.73411" lon="6.49874">
        <ele>1512</ele>
        <time>2025-06-19T15:00:31Z</time>
      </trkpt>
      <trkpt lat="45.73393" lon="6.49915">
        <ele>1500</ele>
        <time>2025-06-19T15:00:39Z</time>
      </trkpt>
      <trkpt lat="45.7339" lon="6.49942">
        <ele>1496</ele>
        <time>2025-06-19T15:00:44Z</time>
      </trkpt>
      <trkpt lat="45.73387" lon="6.49985">
        <ele>1490</ele>
        <time>2025-06-19T15:00:51Z</time>
      </trkpt>
      <trkpt lat="45.73383" lon="6.4999">
        <ele>1488</ele>
        <time>2025-06-19T15:00:52Z</time>
      </trkpt>
      <trkpt lat="45.7337" lon="6.49987">
        <ele>1484</ele>
        <time>2025-06-19T15:00:55Z</time>
      </trkpt>
      <trkpt lat="45.73361" lon="6.49986">
        <ele>1481</ele>
        <time>2025-06-19T15:00:57Z</time>
      </trkpt>
      <trkpt lat="45.73353" lon="6.49989">
        <ele>1478</ele>
        <time>2025-06-19T15:00:59Z</time>
      </trkpt>
      <trkpt lat="45.73356" lon="6.50015">
        <ele>1476</ele>
        <time>2025-06-19T15:01:03Z</time>
      </trkpt>
      <trkpt lat="45.73355" lon="6.50026">
        <ele>1474</ele>
        <time>2025-06-19T15:01:05Z</time>
      </trkpt>
      <trkpt lat="45.73345" lon="6.50033">
        <ele>1470</ele>
        <time>2025-06-19T15:01:08Z</time>
      </trkpt>
      <trkpt lat="45.73325" lon="6.50039">
        <ele>1463</ele>
        <time>2025-06-19T15:01:13Z</time>
      </trkpt>
      <trkpt lat="45.73309" lon="6.50041">
        <ele>1457</ele>
        <time>2025-06-19T15:01:16Z</time>
      </trkpt>
      <trkpt lat="45.73298" lon="6.50038">
        <ele>1454</ele>
        <time>2025-06-19T15:01:19Z</time>
      </trkpt>
      <trkpt lat="45.73271" lon="6.50028">
        <ele>1446</ele>
        <time>2025-06-19T15:01:25Z</time>
      </trkpt>
      <trkpt lat="45.73258" lon="6.50025">
        <ele>1442</ele>
        <time>2025-06-19T15:01:29Z</time>
      </trkpt>
      <trkpt lat="45.7323" lon="6.50026">
        <ele>1432</ele>
        <time>2025-06-19T15:01:35Z</time>
      </trkpt>
      <trkpt lat="45.73217" lon="6.50024">
        <ele>1427</ele>
        <time>2025-06-19T15:01:38Z</time>
      </trkpt>
      <trkpt lat="45.73188" lon="6.5001">
        <ele>1418</ele>
        <time>2025-06-19T15:01:45Z</time>
      </trkpt>
      <trkpt lat="45.73181" lon="6.50011">
        <ele>1415</ele>
        <time>2025-06-19T15:01:47Z</time>
      </trkpt>
      <trkpt lat="45.73174" lon="6.50017">
        <ele>1412</ele>
        <time>2025-06-19T15:01:49Z</time>
      </trkpt>
      <trkpt lat="45.73164" lon="6.50035">
        <ele>1406</ele>
        <time>2025-06-19T15:01:53Z</time>
      </trkpt>
      <trkpt lat="45.73158" lon="6.50055">
        <ele>1401</ele>
        <time>2025-06-19T15:01:56Z</time>
      </trkpt>
      <trkpt lat="45.73157" lon="6.50063">
        <ele>1400</ele>
        <time>2025-06-19T15:01:57Z</time>
      </trkpt>
      <trkpt lat="45.73159" lon="6.50076">
        <ele>1400</ele>
        <time>2025-06-19T15:02:00Z</time>
      </trkpt>
      <trkpt lat="45.73161" lon="6.50101">
        <ele>1395</ele>
        <time>2025-06-19T15:02:04Z</time>
      </trkpt>
      <trkpt lat="45.73163" lon="6.50127">
        <ele>1388</ele>
        <time>2025-06-19T15:02:08Z</time>
      </trkpt>
      <trkpt lat="45.73168" lon="6.50138">
        <ele>1387</ele>
        <time>2025-06-19T15:02:10Z</time>
      </trkpt>
      <trkpt lat="45.73173" lon="6.50153">
        <ele>1384</ele>
        <time>2025-06-19T15:02:13Z</time>
      </trkpt>
      <trkpt lat="45.7318" lon="6.50205">
        <ele>1369</ele>
        <time>2025-06-19T15:02:21Z</time>
      </trkpt>
      <trkpt lat="45.73195" lon="6.5024">
        <ele>1362</ele>
        <time>2025-06-19T15:02:28Z</time>
      </trkpt>
      <trkpt lat="45.73205" lon="6.50274">
        <ele>1358</ele>
        <time>2025-06-19T15:02:34Z</time>
      </trkpt>
      <trkpt lat="45.73205" lon="6.50307">
        <ele>1353</ele>
        <time>2025-06-19T15:02:40Z</time>
      </trkpt>
      <trkpt lat="45.73205" lon="6.50306">
        <ele>1353</ele>
        <time>2025-06-19T15:02:40Z</time>
      </trkpt>
      <trkpt lat="45.73205" lon="6.50307">
        <ele>1353</ele>
        <time>2025-06-19T15:02:40Z</time>
      </trkpt>
      <trkpt lat="45.73209" lon="6.50316">
        <ele>1353</ele>
        <time>2025-06-19T15:02:42Z</time>
      </trkpt>
      <trkpt lat="45.73211" lon="6.50349">
        <ele>1348</ele>
        <time>2025-06-19T15:02:47Z</time>
      </trkpt>
      <trkpt lat="45.73214" lon="6.50391">
        <ele>1344</ele>
        <time>2025-06-19T15:02:54Z</time>
      </trkpt>
      <trkpt lat="45.73225" lon="6.50427">
        <ele>1342</ele>
        <time>2025-06-19T15:03:00Z</time>
      </trkpt>
      <trkpt lat="45.73223" lon="6.50486">
        <ele>1331</ele>
        <time>2025-06-19T15:03:10Z</time>
      </trkpt>
      <trkpt lat="45.73221" lon="6.50526">
        <ele>1324</ele>
        <time>2025-06-19T15:03:16Z</time>
      </trkpt>
      <trkpt lat="45.73228" lon="6.50561">
        <ele>1319</ele>
        <time>2025-06-19T15:03:22Z</time>
      </trkpt>
      <trkpt lat="45.73246" lon="6.50601">
        <ele>1314</ele>
        <time>2025-06-19T15:03:30Z</time>
      </trkpt>
      <trkpt lat="45.73261" lon="6.50626">
        <ele>1314</ele>
        <time>2025-06-19T15:03:36Z</time>
      </trkpt>
      <trkpt lat="45.73262" lon="6.50632">
        <ele>1314</ele>
        <time>2025-06-19T15:03:37Z</time>
      </trkpt>
      <trkpt lat="45.7326" lon="6.50635">
        <ele>1312</ele>
        <time>2025-06-19T15:03:37Z</time>
      </trkpt>
      <trkpt lat="45.73257" lon="6.50637">
        <ele>1311</ele>
        <time>2025-06-19T15:03:38Z</time>
      </trkpt>
      <trkpt lat="45.73236" lon="6.5064">
        <ele>1306</ele>
        <time>2025-06-19T15:03:43Z</time>
      </trkpt>
      <trkpt lat="45.73229" lon="6.50639">
        <ele>1306</ele>
        <time>2025-06-19T15:03:45Z</time>
      </trkpt>
      <trkpt lat="45.73236" lon="6.5064">
        <ele>1306</ele>
        <time>2025-06-19T15:03:46Z</time>
      </trkpt>
      <trkpt lat="45.73257" lon="6.50637">
        <ele>1311</ele>
        <time>2025-06-19T15:03:51Z</time>
      </trkpt>
      <trkpt lat="45.7326" lon="6.50635">
        <ele>1312</ele>
        <time>2025-06-19T15:03:52Z</time>
      </trkpt>
      <trkpt lat="45.73262" lon="6.50632">
        <ele>1314</ele>
        <time>2025-06-19T15:03:53Z</time>
      </trkpt>
      <trkpt lat="45.73272" lon="6.50645">
        <ele>1314</ele>
        <time>2025-06-19T15:03:56Z</time>
      </trkpt>
      <trkpt lat="45.73279" lon="6.50667">
        <ele>1312</ele>
        <time>2025-06-19T15:04:00Z</time>
      </trkpt>
      <trkpt lat="45.7329" lon="6.50679">
        <ele>1314</ele>
        <time>2025-06-19T15:04:03Z</time>
      </trkpt>
      <trkpt lat="45.73313" lon="6.50711">
        <ele>1316</ele>
        <time>2025-06-19T15:04:10Z</time>
      </trkpt>
      <trkpt lat="45.73326" lon="6.50737">
        <ele>1316</ele>
        <time>2025-06-19T15:04:16Z</time>
      </trkpt>
      <trkpt lat="45.73333" lon="6.50744">
        <ele>1317</ele>
        <time>2025-06-19T15:04:18Z</time>
      </trkpt>
      <trkpt lat="45.73343" lon="6.50743">
        <ele>1320</ele>
        <time>2025-06-19T15:04:20Z</time>
      </trkpt>
      <trkpt lat="45.73353" lon="6.50738">
        <ele>1325</ele>
        <time>2025-06-19T15:04:22Z</time>
      </trkpt>
      <trkpt lat="45.7336" lon="6.50742">
        <ele>1326</ele>
        <time>2025-06-19T15:04:24Z</time>
      </trkpt>
      <trkpt lat="45.73363" lon="6.50748">
        <ele>1326</ele>
        <time>2025-06-19T15:04:25Z</time>
      </trkpt>
      <trkpt lat="45.73362" lon="6.50756">
        <ele>1325</ele>
        <time>2025-06-19T15:04:27Z</time>
      </trkpt>
      <trkpt lat="45.73359" lon="6.50768">
        <ele>1324</ele>
        <time>2025-06-19T15:04:29Z</time>
      </trkpt>
      <trkpt lat="45.73359" lon="6.50781">
        <ele>1323</ele>
        <time>2025-06-19T15:04:31Z</time>
      </trkpt>
      <trkpt lat="45.73357" lon="6.50819">
        <ele>1320</ele>
        <time>2025-06-19T15:04:37Z</time>
      </trkpt>
      <trkpt lat="45.73377" lon="6.50861">
        <ele>1324</ele>
        <time>2025-06-19T15:04:45Z</time>
      </trkpt>
      <trkpt lat="45.73432" lon="6.50933">
        <ele>1335</ele>
        <time>2025-06-19T15:05:03Z</time>
      </trkpt>
      <trkpt lat="45.73487" lon="6.50954">
        <ele>1348</ele>
        <time>2025-06-19T15:05:16Z</time>
      </trkpt>
      <trkpt lat="45.7348" lon="6.50971">
        <ele>1343</ele>
        <time>2025-06-19T15:05:19Z</time>
      </trkpt>
      <trkpt lat="45.73457" lon="6.51025">
        <ele>1324</ele>
        <time>2025-06-19T15:05:30Z</time>
      </trkpt>
      <trkpt lat="45.73433" lon="6.51139">
        <ele>1310</ele>
        <time>2025-06-19T15:05:49Z</time>
      </trkpt>
      <trkpt lat="45.73427" lon="6.51201">
        <ele>1311</ele>
        <time>2025-06-19T15:05:59Z</time>
      </trkpt>
      <trkpt lat="45.73416" lon="6.51299">
        <ele>1309</ele>
        <time>2025-06-19T15:06:15Z</time>
      </trkpt>
      <trkpt lat="45.73401" lon="6.51345">
        <ele>1300</ele>
        <time>2025-06-19T15:06:24Z</time>
      </trkpt>
      <trkpt lat="45.73409" lon="6.51474">
        <ele>1291</ele>
        <time>2025-06-19T15:06:45Z</time>
      </trkpt>
      <trkpt lat="45.73419" lon="6.51511">
        <ele>1295</ele>
        <time>2025-06-19T15:06:51Z</time>
      </trkpt>
      <trkpt lat="45.73426" lon="6.51528">
        <ele>1298</ele>
        <time>2025-06-19T15:06:54Z</time>
      </trkpt>
      <trkpt lat="45.73441" lon="6.51594">
        <ele>1303</ele>
        <time>2025-06-19T15:07:06Z</time>
      </trkpt>
      <trkpt lat="45.73443" lon="6.51619">
        <ele>1301</ele>
        <time>2025-06-19T15:07:10Z</time>
      </trkpt>
      <trkpt lat="45.73453" lon="6.51677">
        <ele>1300</ele>
        <time>2025-06-19T15:07:20Z</time>
      </trkpt>
      <trkpt lat="45.73462" lon="6.51707">
        <ele>1302</ele>
        <time>2025-06-19T15:07:25Z</time>
      </trkpt>
      <trkpt lat="45.73469" lon="6.51738">
        <ele>1302</ele>
        <time>2025-06-19T15:07:30Z</time>
      </trkpt>
      <trkpt lat="45.73482" lon="6.51772">
        <ele>1308</ele>
        <time>2025-06-19T15:07:37Z</time>
      </trkpt>
      <trkpt lat="45.73484" lon="6.51787">
        <ele>1310</ele>
        <time>2025-06-19T15:07:39Z</time>
      </trkpt>
      <trkpt lat="45.73482" lon="6.51814">
        <ele>1308</ele>
        <time>2025-06-19T15:07:43Z</time>
      </trkpt>
      <trkpt lat="45.73484" lon="6.51845">
        <ele>1307</ele>
        <time>2025-06-19T15:07:49Z</time>
      </trkpt>
      <trkpt lat="45.73498" lon="6.51886">
        <ele>1308</ele>
        <time>2025-06-19T15:07:56Z</time>
      </trkpt>
      <trkpt lat="45.73497" lon="6.51924">
        <ele>1298</ele>
        <time>2025-06-19T15:08:02Z</time>
      </trkpt>
      <trkpt lat="45.73496" lon="6.51935">
        <ele>1294</ele>
        <time>2025-06-19T15:08:04Z</time>
      </trkpt>
      <trkpt lat="45.73497" lon="6.51957">
        <ele>1287</ele>
        <time>2025-06-19T15:08:08Z</time>
      </trkpt>
      <trkpt lat="45.73502" lon="6.51968">
        <ele>1284</ele>
        <time>2025-06-19T15:08:10Z</time>
      </trkpt>
      <trkpt lat="45.73516" lon="6.51975">
        <ele>1284</ele>
        <time>2025-06-19T15:08:13Z</time>
      </trkpt>
      <trkpt lat="45.73522" lon="6.51974">
        <ele>1285</ele>
        <time>2025-06-19T15:08:15Z</time>
      </trkpt>
      <trkpt lat="45.73524" lon="6.51974">
        <ele>1286</ele>
        <time>2025-06-19T15:08:15Z</time>
      </trkpt>
      <trkpt lat="45.73535" lon="6.51972">
        <ele>1288</ele>
        <time>2025-06-19T15:08:18Z</time>
      </trkpt>
      <trkpt lat="45.73548" lon="6.51979">
        <ele>1287</ele>
        <time>2025-06-19T15:08:21Z</time>
      </trkpt>
      <trkpt lat="45.7356" lon="6.51995">
        <ele>1281</ele>
        <time>2025-06-19T15:08:25Z</time>
      </trkpt>
      <trkpt lat="45.73573" lon="6.52032">
        <ele>1274</ele>
        <time>2025-06-19T15:08:31Z</time>
      </trkpt>
      <trkpt lat="45.73589" lon="6.52051">
        <ele>1274</ele>
        <time>2025-06-19T15:08:36Z</time>
      </trkpt>
      <trkpt lat="45.73637" lon="6.5208">
        <ele>1277</ele>
        <time>2025-06-19T15:08:48Z</time>
      </trkpt>
      <trkpt lat="45.73644" lon="6.52086">
        <ele>1277</ele>
        <time>2025-06-19T15:08:50Z</time>
      </trkpt>
      <trkpt lat="45.73649" lon="6.52094">
        <ele>1276</ele>
        <time>2025-06-19T15:08:52Z</time>
      </trkpt>
      <trkpt lat="45.73657" lon="6.5211">
        <ele>1276</ele>
        <time>2025-06-19T15:08:55Z</time>
      </trkpt>
      <trkpt lat="45.73679" lon="6.52134">
        <ele>1279</ele>
        <time>2025-06-19T15:09:02Z</time>
      </trkpt>
      <trkpt lat="45.73683" lon="6.52141">
        <ele>1279</ele>
        <time>2025-06-19T15:09:03Z</time>
      </trkpt>
      <trkpt lat="45.73684" lon="6.52146">
        <ele>1279</ele>
        <time>2025-06-19T15:09:04Z</time>
      </trkpt>
      <trkpt lat="45.737" lon="6.52155">
        <ele>1282</ele>
        <time>2025-06-19T15:09:08Z</time>
      </trkpt>
      <trkpt lat="45.73714" lon="6.52167">
        <ele>1283</ele>
        <time>2025-06-19T15:09:12Z</time>
      </trkpt>
      <trkpt lat="45.73743" lon="6.52192">
        <ele>1287</ele>
        <time>2025-06-19T15:09:20Z</time>
      </trkpt>
      <trkpt lat="45.73748" lon="6.52196">
        <ele>1287</ele>
        <time>2025-06-19T15:09:21Z</time>
      </trkpt>
      <trkpt lat="45.73762" lon="6.52205">
        <ele>1290</ele>
        <time>2025-06-19T15:09:25Z</time>
      </trkpt>
      <trkpt lat="45.73769" lon="6.52211">
        <ele>1292</ele>
        <time>2025-06-19T15:09:27Z</time>
      </trkpt>
      <trkpt lat="45.73776" lon="6.52221">
        <ele>1293</ele>
        <time>2025-06-19T15:09:29Z</time>
      </trkpt>
      <trkpt lat="45.73798" lon="6.52271">
        <ele>1295</ele>
        <time>2025-06-19T15:09:39Z</time>
      </trkpt>
      <trkpt lat="45.73804" lon="6.52291">
        <ele>1295</ele>
        <time>2025-06-19T15:09:42Z</time>
      </trkpt>
      <trkpt lat="45.73807" lon="6.52333">
        <ele>1292</ele>
        <time>2025-06-19T15:09:49Z</time>
      </trkpt>
      <trkpt lat="45.7381" lon="6.52346">
        <ele>1293</ele>
        <time>2025-06-19T15:09:51Z</time>
      </trkpt>
      <trkpt lat="45.73817" lon="6.52361">
        <ele>1295</ele>
        <time>2025-06-19T15:09:54Z</time>
      </trkpt>
      <trkpt lat="45.73823" lon="6.52373">
        <ele>1296</ele>
        <time>2025-06-19T15:09:57Z</time>
      </trkpt>
      <trkpt lat="45.73837" lon="6.52394">
        <ele>1300</ele>
        <time>2025-06-19T15:10:01Z</time>
      </trkpt>
      <trkpt lat="45.73876" lon="6.52447">
        <ele>1317</ele>
        <time>2025-06-19T15:10:14Z</time>
      </trkpt>
      <trkpt lat="45.73883" lon="6.52458">
        <ele>1320</ele>
        <time>2025-06-19T15:10:16Z</time>
      </trkpt>
      <trkpt lat="45.73889" lon="6.5247">
        <ele>1323</ele>
        <time>2025-06-19T15:10:19Z</time>
      </trkpt>
      <trkpt lat="45.73892" lon="6.52486">
        <ele>1325</ele>
        <time>2025-06-19T15:10:21Z</time>
      </trkpt>
      <trkpt lat="45.73892" lon="6.52494">
        <ele>1325</ele>
        <time>2025-06-19T15:10:23Z</time>
      </trkpt>
      <trkpt lat="45.73895" lon="6.52549">
        <ele>1324</ele>
        <time>2025-06-19T15:10:32Z</time>
      </trkpt>
      <trkpt lat="45.739" lon="6.52603">
        <ele>1323</ele>
        <time>2025-06-19T15:10:41Z</time>
      </trkpt>
      <trkpt lat="45.73903" lon="6.52618">
        <ele>1323</ele>
        <time>2025-06-19T15:10:43Z</time>
      </trkpt>
      <trkpt lat="45.73908" lon="6.52635">
        <ele>1324</ele>
        <time>2025-06-19T15:10:46Z</time>
      </trkpt>
      <trkpt lat="45.73915" lon="6.52653">
        <ele>1326</ele>
        <time>2025-06-19T15:10:50Z</time>
      </trkpt>
      <trkpt lat="45.73923" lon="6.52668">
        <ele>1328</ele>
        <time>2025-06-19T15:10:53Z</time>
      </trkpt>
      <trkpt lat="45.7393" lon="6.52677">
        <ele>1331</ele>
        <time>2025-06-19T15:10:55Z</time>
      </trkpt>
      <trkpt lat="45.73944" lon="6.52691">
        <ele>1337</ele>
        <time>2025-06-19T15:10:59Z</time>
      </trkpt>
      <trkpt lat="45.73952" lon="6.52702">
        <ele>1340</ele>
        <time>2025-06-19T15:11:01Z</time>
      </trkpt>
      <trkpt lat="45.73957" lon="6.52714">
        <ele>1341</ele>
        <time>2025-06-19T15:11:04Z</time>
      </trkpt>
      <trkpt lat="45.73961" lon="6.52726">
        <ele>1341</ele>
        <time>2025-06-19T15:11:06Z</time>
      </trkpt>
      <trkpt lat="45.73962" lon="6.52735">
        <ele>1341</ele>
        <time>2025-06-19T15:11:07Z</time>
      </trkpt>
      <trkpt lat="45.73963" lon="6.5275">
        <ele>1339</ele>
        <time>2025-06-19T15:11:10Z</time>
      </trkpt>
      <trkpt lat="45.73962" lon="6.5276">
        <ele>1337</ele>
        <time>2025-06-19T15:11:11Z</time>
      </trkpt>
      <trkpt lat="45.73961" lon="6.52778">
        <ele>1334</ele>
        <time>2025-06-19T15:11:14Z</time>
      </trkpt>
      <trkpt lat="45.73964" lon="6.528">
        <ele>1333</ele>
        <time>2025-06-19T15:11:18Z</time>
      </trkpt>
      <trkpt lat="45.73975" lon="6.52839">
        <ele>1332</ele>
        <time>2025-06-19T15:11:25Z</time>
      </trkpt>
      <trkpt lat="45.73978" lon="6.52845">
        <ele>1332</ele>
        <time>2025-06-19T15:11:26Z</time>
      </trkpt>
      <trkpt lat="45.73981" lon="6.52848">
        <ele>1333</ele>
        <time>2025-06-19T15:11:27Z</time>
      </trkpt>
      <trkpt lat="45.73983" lon="6.52849">
        <ele>1334</ele>
        <time>2025-06-19T15:11:27Z</time>
      </trkpt>
      <trkpt lat="45.73985" lon="6.52858">
        <ele>1333</ele>
        <time>2025-06-19T15:11:29Z</time>
      </trkpt>
      <trkpt lat="45.73986" lon="6.52861">
        <ele>1333</ele>
        <time>2025-06-19T15:11:30Z</time>
      </trkpt>
      <trkpt lat="45.73988" lon="6.52865">
        <ele>1333</ele>
        <time>2025-06-19T15:11:30Z</time>
      </trkpt>
      <trkpt lat="45.74006" lon="6.52888">
        <ele>1336</ele>
        <time>2025-06-19T15:11:36Z</time>
      </trkpt>
      <trkpt lat="45.74037" lon="6.52911">
        <ele>1340</ele>
        <time>2025-06-19T15:11:44Z</time>
      </trkpt>
      <trkpt lat="45.74048" lon="6.52917">
        <ele>1342</ele>
        <time>2025-06-19T15:11:47Z</time>
      </trkpt>
      <trkpt lat="45.7406" lon="6.52922">
        <ele>1344</ele>
        <time>2025-06-19T15:11:50Z</time>
      </trkpt>
      <trkpt lat="45.74086" lon="6.52928">
        <ele>1351</ele>
        <time>2025-06-19T15:11:56Z</time>
      </trkpt>
      <trkpt lat="45.74098" lon="6.52933">
        <ele>1356</ele>
        <time>2025-06-19T15:11:59Z</time>
      </trkpt>
      <trkpt lat="45.74113" lon="6.5294">
        <ele>1361</ele>
        <time>2025-06-19T15:12:03Z</time>
      </trkpt>
      <trkpt lat="45.74127" lon="6.52949">
        <ele>1366</ele>
        <time>2025-06-19T15:12:06Z</time>
      </trkpt>
      <trkpt lat="45.74133" lon="6.52956">
        <ele>1367</ele>
        <time>2025-06-19T15:12:08Z</time>
      </trkpt>
      <trkpt lat="45.74137" lon="6.52963">
        <ele>1367</ele>
        <time>2025-06-19T15:12:09Z</time>
      </trkpt>
      <trkpt lat="45.74138" lon="6.52971">
        <ele>1366</ele>
        <time>2025-06-19T15:12:11Z</time>
      </trkpt>
      <trkpt lat="45.74136" lon="6.52988">
        <ele>1361</ele>
        <time>2025-06-19T15:12:14Z</time>
      </trkpt>
      <trkpt lat="45.74131" lon="6.53006">
        <ele>1356</ele>
        <time>2025-06-19T15:12:17Z</time>
      </trkpt>
      <trkpt lat="45.74129" lon="6.53023">
        <ele>1355</ele>
        <time>2025-06-19T15:12:19Z</time>
      </trkpt>
      <trkpt lat="45.74128" lon="6.53052">
        <ele>1353</ele>
        <time>2025-06-19T15:12:24Z</time>
      </trkpt>
      <trkpt lat="45.74128" lon="6.53064">
        <ele>1353</ele>
        <time>2025-06-19T15:12:26Z</time>
      </trkpt>
      <trkpt lat="45.7413" lon="6.53069">
        <ele>1354</ele>
        <time>2025-06-19T15:12:27Z</time>
      </trkpt>
      <trkpt lat="45.74133" lon="6.53076">
        <ele>1355</ele>
        <time>2025-06-19T15:12:28Z</time>
      </trkpt>
      <trkpt lat="45.74162" lon="6.53094">
        <ele>1365</ele>
        <time>2025-06-19T15:12:36Z</time>
      </trkpt>
      <trkpt lat="45.74167" lon="6.53099">
        <ele>1367</ele>
        <time>2025-06-19T15:12:37Z</time>
      </trkpt>
      <trkpt lat="45.74174" lon="6.53114">
        <ele>1372</ele>
        <time>2025-06-19T15:12:40Z</time>
      </trkpt>
      <trkpt lat="45.74177" lon="6.53119">
        <ele>1374</ele>
        <time>2025-06-19T15:12:41Z</time>
      </trkpt>
      <trkpt lat="45.74179" lon="6.53121">
        <ele>1375</ele>
        <time>2025-06-19T15:12:42Z</time>
      </trkpt>
      <trkpt lat="45.74184" lon="6.53121">
        <ele>1378</ele>
        <time>2025-06-19T15:12:43Z</time>
      </trkpt>
      <trkpt lat="45.74188" lon="6.53116">
        <ele>1380</ele>
        <time>2025-06-19T15:12:44Z</time>
      </trkpt>
      <trkpt lat="45.74188" lon="6.53112">
        <ele>1379</ele>
        <time>2025-06-19T15:12:45Z</time>
      </trkpt>
      <trkpt lat="45.74188" lon="6.53108">
        <ele>1379</ele>
        <time>2025-06-19T15:12:46Z</time>
      </trkpt>
      <trkpt lat="45.74186" lon="6.53104">
        <ele>1378</ele>
        <time>2025-06-19T15:12:46Z</time>
      </trkpt>
      <trkpt lat="45.74176" lon="6.53086">
        <ele>1372</ele>
        <time>2025-06-19T15:12:50Z</time>
      </trkpt>
      <trkpt lat="45.74171" lon="6.53072">
        <ele>1369</ele>
        <time>2025-06-19T15:12:53Z</time>
      </trkpt>
      <trkpt lat="45.74167" lon="6.53043">
        <ele>1369</ele>
        <time>2025-06-19T15:12:57Z</time>
      </trkpt>
      <trkpt lat="45.74168" lon="6.53032">
        <ele>1370</ele>
        <time>2025-06-19T15:12:59Z</time>
      </trkpt>
      <trkpt lat="45.74169" lon="6.53021">
        <ele>1371</ele>
        <time>2025-06-19T15:13:01Z</time>
      </trkpt>
      <trkpt lat="45.74182" lon="6.52958">
        <ele>1391</ele>
        <time>2025-06-19T15:13:12Z</time>
      </trkpt>
      <trkpt lat="45.74183" lon="6.52947">
        <ele>1394</ele>
        <time>2025-06-19T15:13:14Z</time>
      </trkpt>
      <trkpt lat="45.74182" lon="6.52939">
        <ele>1396</ele>
        <time>2025-06-19T15:13:15Z</time>
      </trkpt>
      <trkpt lat="45.74181" lon="6.52931">
        <ele>1397</ele>
        <time>2025-06-19T15:13:16Z</time>
      </trkpt>
      <trkpt lat="45.74179" lon="6.52922">
        <ele>1398</ele>
        <time>2025-06-19T15:13:18Z</time>
      </trkpt>
      <trkpt lat="45.74171" lon="6.52904">
        <ele>1397</ele>
        <time>2025-06-19T15:13:21Z</time>
      </trkpt>
      <trkpt lat="45.74165" lon="6.52898">
        <ele>1395</ele>
        <time>2025-06-19T15:13:23Z</time>
      </trkpt>
      <trkpt lat="45.74159" lon="6.52892">
        <ele>1394</ele>
        <time>2025-06-19T15:13:25Z</time>
      </trkpt>
      <trkpt lat="45.7414" lon="6.52877">
        <ele>1389</ele>
        <time>2025-06-19T15:13:30Z</time>
      </trkpt>
      <trkpt lat="45.74123" lon="6.52857">
        <ele>1388</ele>
        <time>2025-06-19T15:13:35Z</time>
      </trkpt>
      <trkpt lat="45.74109" lon="6.52836">
        <ele>1388</ele>
        <time>2025-06-19T15:13:40Z</time>
      </trkpt>
      <trkpt lat="45.74105" lon="6.52828">
        <ele>1389</ele>
        <time>2025-06-19T15:13:41Z</time>
      </trkpt>
      <trkpt lat="45.74102" lon="6.52816">
        <ele>1390</ele>
        <time>2025-06-19T15:13:43Z</time>
      </trkpt>
      <trkpt lat="45.74091" lon="6.52771">
        <ele>1393</ele>
        <time>2025-06-19T15:13:51Z</time>
      </trkpt>
      <trkpt lat="45.7409" lon="6.52762">
        <ele>1394</ele>
        <time>2025-06-19T15:13:53Z</time>
      </trkpt>
      <trkpt lat="45.74091" lon="6.52756">
        <ele>1396</ele>
        <time>2025-06-19T15:13:54Z</time>
      </trkpt>
      <trkpt lat="45.74092" lon="6.52753">
        <ele>1397</ele>
        <time>2025-06-19T15:13:54Z</time>
      </trkpt>
      <trkpt lat="45.74094" lon="6.52751">
        <ele>1398</ele>
        <time>2025-06-19T15:13:55Z</time>
      </trkpt>
      <trkpt lat="45.74098" lon="6.52748">
        <ele>1400</ele>
        <time>2025-06-19T15:13:56Z</time>
      </trkpt>
      <trkpt lat="45.74102" lon="6.52748">
        <ele>1401</ele>
        <time>2025-06-19T15:13:57Z</time>
      </trkpt>
      <trkpt lat="45.74105" lon="6.52751">
        <ele>1402</ele>
        <time>2025-06-19T15:13:58Z</time>
      </trkpt>
      <trkpt lat="45.74108" lon="6.52757">
        <ele>1402</ele>
        <time>2025-06-19T15:13:59Z</time>
      </trkpt>
      <trkpt lat="45.74118" lon="6.52791">
        <ele>1400</ele>
        <time>2025-06-19T15:14:05Z</time>
      </trkpt>
      <trkpt lat="45.74122" lon="6.528">
        <ele>1400</ele>
        <time>2025-06-19T15:14:06Z</time>
      </trkpt>
      <trkpt lat="45.74127" lon="6.52808">
        <ele>1400</ele>
        <time>2025-06-19T15:14:08Z</time>
      </trkpt>
      <trkpt lat="45.7414" lon="6.52819">
        <ele>1403</ele>
        <time>2025-06-19T15:14:12Z</time>
      </trkpt>
      <trkpt lat="45.74155" lon="6.52826">
        <ele>1407</ele>
        <time>2025-06-19T15:14:15Z</time>
      </trkpt>
      <trkpt lat="45.74181" lon="6.52836">
        <ele>1415</ele>
        <time>2025-06-19T15:14:22Z</time>
      </trkpt>
      <trkpt lat="45.74203" lon="6.52847">
        <ele>1421</ele>
        <time>2025-06-19T15:14:27Z</time>
      </trkpt>
      <trkpt lat="45.74209" lon="6.52851">
        <ele>1423</ele>
        <time>2025-06-19T15:14:29Z</time>
      </trkpt>
      <trkpt lat="45.74214" lon="6.52856">
        <ele>1425</ele>
        <time>2025-06-19T15:14:30Z</time>
      </trkpt>
      <trkpt lat="45.74218" lon="6.52863">
        <ele>1426</ele>
        <time>2025-06-19T15:14:32Z</time>
      </trkpt>
      <trkpt lat="45.74224" lon="6.52879">
        <ele>1428</ele>
        <time>2025-06-19T15:14:35Z</time>
      </trkpt>
      <trkpt lat="45.74225" lon="6.52895">
        <ele>1427</ele>
        <time>2025-06-19T15:14:37Z</time>
      </trkpt>
      <trkpt lat="45.74224" lon="6.52929">
        <ele>1423</ele>
        <time>2025-06-19T15:14:43Z</time>
      </trkpt>
      <trkpt lat="45.74225" lon="6.52941">
        <ele>1421</ele>
        <time>2025-06-19T15:14:45Z</time>
      </trkpt>
      <trkpt lat="45.74228" lon="6.52952">
        <ele>1421</ele>
        <time>2025-06-19T15:14:47Z</time>
      </trkpt>
      <trkpt lat="45.74232" lon="6.52962">
        <ele>1422</ele>
        <time>2025-06-19T15:14:49Z</time>
      </trkpt>
      <trkpt lat="45.74236" lon="6.52969">
        <ele>1423</ele>
        <time>2025-06-19T15:14:50Z</time>
      </trkpt>
      <trkpt lat="45.7424" lon="6.52974">
        <ele>1425</ele>
        <time>2025-06-19T15:14:51Z</time>
      </trkpt>
      <trkpt lat="45.74243" lon="6.52976">
        <ele>1427</ele>
        <time>2025-06-19T15:14:52Z</time>
      </trkpt>
      <trkpt lat="45.74247" lon="6.52974">
        <ele>1430</ele>
        <time>2025-06-19T15:14:53Z</time>
      </trkpt>
      <trkpt lat="45.7425" lon="6.52983">
        <ele>1430</ele>
        <time>2025-06-19T15:14:55Z</time>
      </trkpt>
      <trkpt lat="45.74262" lon="6.53003">
        <ele>1436</ele>
        <time>2025-06-19T15:14:59Z</time>
      </trkpt>
      <trkpt lat="45.74271" lon="6.53014">
        <ele>1441</ele>
        <time>2025-06-19T15:15:02Z</time>
      </trkpt>
      <trkpt lat="45.74285" lon="6.53025">
        <ele>1449</ele>
        <time>2025-06-19T15:15:05Z</time>
      </trkpt>
      <trkpt lat="45.74305" lon="6.5305">
        <ele>1457</ele>
        <time>2025-06-19T15:15:12Z</time>
      </trkpt>
      <trkpt lat="45.74306" lon="6.53055">
        <ele>1457</ele>
        <time>2025-06-19T15:15:12Z</time>
      </trkpt>
      <trkpt lat="45.7431" lon="6.53067">
        <ele>1457</ele>
        <time>2025-06-19T15:15:15Z</time>
      </trkpt>
      <trkpt lat="45.74311" lon="6.53081">
        <ele>1454</ele>
        <time>2025-06-19T15:15:17Z</time>
      </trkpt>
      <trkpt lat="45.7431" lon="6.53101">
        <ele>1452</ele>
        <time>2025-06-19T15:15:20Z</time>
      </trkpt>
      <trkpt lat="45.74315" lon="6.53137">
        <ele>1453</ele>
        <time>2025-06-19T15:15:26Z</time>
      </trkpt>
      <trkpt lat="45.74333" lon="6.5317">
        <ele>1464</ele>
        <time>2025-06-19T15:15:33Z</time>
      </trkpt>
      <trkpt lat="45.74344" lon="6.53192">
        <ele>1471</ele>
        <time>2025-06-19T15:15:37Z</time>
      </trkpt>
      <trkpt lat="45.7435" lon="6.53226">
        <ele>1474</ele>
        <time>2025-06-19T15:15:43Z</time>
      </trkpt>
      <trkpt lat="45.74347" lon="6.53263">
        <ele>1470</ele>
        <time>2025-06-19T15:15:49Z</time>
      </trkpt>
      <trkpt lat="45.74335" lon="6.53307">
        <ele>1462</ele>
        <time>2025-06-19T15:15:57Z</time>
      </trkpt>
      <trkpt lat="45.74339" lon="6.53389">
        <ele>1475</ele>
        <time>2025-06-19T15:16:10Z</time>
      </trkpt>
      <trkpt lat="45.74327" lon="6.53448">
        <ele>1480</ele>
        <time>2025-06-19T15:16:20Z</time>
      </trkpt>
      <trkpt lat="45.74316" lon="6.53475">
        <ele>1478</ele>
        <time>2025-06-19T15:16:25Z</time>
      </trkpt>
      <trkpt lat="45.74307" lon="6.53497">
        <ele>1477</ele>
        <time>2025-06-19T15:16:30Z</time>
      </trkpt>
      <trkpt lat="45.74306" lon="6.53522">
        <ele>1482</ele>
        <time>2025-06-19T15:16:34Z</time>
      </trkpt>
      <trkpt lat="45.74297" lon="6.53557">
        <ele>1482</ele>
        <time>2025-06-19T15:16:40Z</time>
      </trkpt>
      <trkpt lat="45.74291" lon="6.5361">
        <ele>1491</ele>
        <time>2025-06-19T15:16:48Z</time>
      </trkpt>
      <trkpt lat="45.74291" lon="6.5366">
        <ele>1506</ele>
        <time>2025-06-19T15:16:57Z</time>
      </trkpt>
      <trkpt lat="45.7428" lon="6.53707">
        <ele>1513</ele>
        <time>2025-06-19T15:17:05Z</time>
      </trkpt>
      <trkpt lat="45.74255" lon="6.53765">
        <ele>1517</ele>
        <time>2025-06-19T15:17:16Z</time>
      </trkpt>
      <trkpt lat="45.74242" lon="6.53805">
        <ele>1522</ele>
        <time>2025-06-19T15:17:23Z</time>
      </trkpt>
      <trkpt lat="45.74202" lon="6.53877">
        <ele>1523</ele>
        <time>2025-06-19T15:17:38Z</time>
      </trkpt>
      <trkpt lat="45.74182" lon="6.53909">
        <ele>1523</ele>
        <time>2025-06-19T15:17:45Z</time>
      </trkpt>
      <trkpt lat="45.74159" lon="6.53945">
        <ele>1525</ele>
        <time>2025-06-19T15:17:53Z</time>
      </trkpt>
      <trkpt lat="45.74152" lon="6.5395">
        <ele>1522</ele>
        <time>2025-06-19T15:17:55Z</time>
      </trkpt>
      <trkpt lat="45.74147" lon="6.53978">
        <ele>1529</ele>
        <time>2025-06-19T15:17:59Z</time>
      </trkpt>
      <trkpt lat="45.74135" lon="6.53993">
        <ele>1527</ele>
        <time>2025-06-19T15:18:03Z</time>
      </trkpt>
      <trkpt lat="45.74135" lon="6.54005">
        <ele>1530</ele>
        <time>2025-06-19T15:18:05Z</time>
      </trkpt>
      <trkpt lat="45.74137" lon="6.54006">
        <ele>1532</ele>
        <time>2025-06-19T15:18:06Z</time>
      </trkpt>
      <trkpt lat="45.7414" lon="6.54009">
        <ele>1534</ele>
        <time>2025-06-19T15:18:07Z</time>
      </trkpt>
      <trkpt lat="45.7416" lon="6.54006">
        <ele>1545</ele>
        <time>2025-06-19T15:18:11Z</time>
      </trkpt>
      <trkpt lat="45.74197" lon="6.54003">
        <ele>1558</ele>
        <time>2025-06-19T15:18:20Z</time>
      </trkpt>
      <trkpt lat="45.74212" lon="6.53994">
        <ele>1561</ele>
        <time>2025-06-19T15:18:24Z</time>
      </trkpt>
      <trkpt lat="45.74219" lon="6.53996">
        <ele>1564</ele>
        <time>2025-06-19T15:18:25Z</time>
      </trkpt>
      <trkpt lat="45.74219" lon="6.54003">
        <ele>1566</ele>
        <time>2025-06-19T15:18:26Z</time>
      </trkpt>
      <trkpt lat="45.74219" lon="6.54005">
        <ele>1566</ele>
        <time>2025-06-19T15:18:27Z</time>
      </trkpt>
      <trkpt lat="45.74201" lon="6.5403">
        <ele>1567</ele>
        <time>2025-06-19T15:18:33Z</time>
      </trkpt>
      <trkpt lat="45.74195" lon="6.54044">
        <ele>1568</ele>
        <time>2025-06-19T15:18:35Z</time>
      </trkpt>
      <trkpt lat="45.74187" lon="6.54068">
        <ele>1572</ele>
        <time>2025-06-19T15:18:40Z</time>
      </trkpt>
      <trkpt lat="45.7417" lon="6.5408">
        <ele>1569</ele>
        <time>2025-06-19T15:18:44Z</time>
      </trkpt>
      <trkpt lat="45.74157" lon="6.54084">
        <ele>1564</ele>
        <time>2025-06-19T15:18:47Z</time>
      </trkpt>
      <trkpt lat="45.74149" lon="6.54096">
        <ele>1562</ele>
        <time>2025-06-19T15:18:50Z</time>
      </trkpt>
      <trkpt lat="45.74145" lon="6.5412">
        <ele>1563</ele>
        <time>2025-06-19T15:18:54Z</time>
      </trkpt>
      <trkpt lat="45.74129" lon="6.54158">
        <ele>1559</ele>
        <time>2025-06-19T15:19:01Z</time>
      </trkpt>
      <trkpt lat="45.74129" lon="6.54193">
        <ele>1561</ele>
        <time>2025-06-19T15:19:07Z</time>
      </trkpt>
      <trkpt lat="45.74132" lon="6.54218">
        <ele>1563</ele>
        <time>2025-06-19T15:19:11Z</time>
      </trkpt>
      <trkpt lat="45.74131" lon="6.54236">
        <ele>1563</ele>
        <time>2025-06-19T15:19:14Z</time>
      </trkpt>
      <trkpt lat="45.74142" lon="6.54277">
        <ele>1568</ele>
        <time>2025-06-19T15:19:21Z</time>
      </trkpt>
      <trkpt lat="45.74149" lon="6.54297">
        <ele>1570</ele>
        <time>2025-06-19T15:19:25Z</time>
      </trkpt>
      <trkpt lat="45.74154" lon="6.54304">
        <ele>1572</ele>
        <time>2025-06-19T15:19:26Z</time>
      </trkpt>
      <trkpt lat="45.74156" lon="6.54314">
        <ele>1573</ele>
        <time>2025-06-19T15:19:28Z</time>
      </trkpt>
      <trkpt lat="45.74153" lon="6.54335">
        <ele>1569</ele>
        <time>2025-06-19T15:19:32Z</time>
      </trkpt>
      <trkpt lat="45.74157" lon="6.54354">
        <ele>1569</ele>
        <time>2025-06-19T15:19:35Z</time>
      </trkpt>
      <trkpt lat="45.74167" lon="6.54366">
        <ele>1574</ele>
        <time>2025-06-19T15:19:38Z</time>
      </trkpt>
      <trkpt lat="45.74188" lon="6.54373">
        <ele>1578</ele>
        <time>2025-06-19T15:19:43Z</time>
      </trkpt>
      <trkpt lat="45.7421" lon="6.54375">
        <ele>1584</ele>
        <time>2025-06-19T15:19:48Z</time>
      </trkpt>
      <trkpt lat="45.74221" lon="6.54379">
        <ele>1586</ele>
        <time>2025-06-19T15:19:51Z</time>
      </trkpt>
      <trkpt lat="45.74236" lon="6.54392">
        <ele>1589</ele>
        <time>2025-06-19T15:19:55Z</time>
      </trkpt>
      <trkpt lat="45.7426" lon="6.54417">
        <ele>1591</ele>
        <time>2025-06-19T15:20:02Z</time>
      </trkpt>
      <trkpt lat="45.74282" lon="6.54424">
        <ele>1591</ele>
        <time>2025-06-19T15:20:07Z</time>
      </trkpt>
      <trkpt lat="45.74322" lon="6.54427">
        <ele>1593</ele>
        <time>2025-06-19T15:20:16Z</time>
      </trkpt>
      <trkpt lat="45.74403" lon="6.54448">
        <ele>1594</ele>
        <time>2025-06-19T15:20:36Z</time>
      </trkpt>
      <trkpt lat="45.74411" lon="6.54447">
        <ele>1594</ele>
        <time>2025-06-19T15:20:37Z</time>
      </trkpt>
      <trkpt lat="45.74441" lon="6.54441">
        <ele>1595</ele>
        <time>2025-06-19T15:20:44Z</time>
      </trkpt>
      <trkpt lat="45.74458" lon="6.54438">
        <ele>1596</ele>
        <time>2025-06-19T15:20:48Z</time>
      </trkpt>
      <trkpt lat="45.74484" lon="6.5443">
        <ele>1597</ele>
        <time>2025-06-19T15:20:55Z</time>
      </trkpt>
      <trkpt lat="45.745" lon="6.5442">
        <ele>1599</ele>
        <time>2025-06-19T15:20:59Z</time>
      </trkpt>
      <trkpt lat="45.74507" lon="6.54417">
        <ele>1600</ele>
        <time>2025-06-19T15:21:00Z</time>
      </trkpt>
      <trkpt lat="45.74516" lon="6.54417">
        <ele>1600</ele>
        <time>2025-06-19T15:21:03Z</time>
      </trkpt>
      <trkpt lat="45.74529" lon="6.5442">
        <ele>1599</ele>
        <time>2025-06-19T15:21:06Z</time>
      </trkpt>
      <trkpt lat="45.74533" lon="6.54419">
        <ele>1599</ele>
        <time>2025-06-19T15:21:07Z</time>
      </trkpt>
      <trkpt lat="45.74536" lon="6.54414">
        <ele>1600</ele>
        <time>2025-06-19T15:21:08Z</time>
      </trkpt>
      <trkpt lat="45.74536" lon="6.54408">
        <ele>1601</ele>
        <time>2025-06-19T15:21:09Z</time>
      </trkpt>
      <trkpt lat="45.7453" lon="6.54405">
        <ele>1601</ele>
        <time>2025-06-19T15:21:10Z</time>
      </trkpt>
      <trkpt lat="45.74514" lon="6.54401">
        <ele>1602</ele>
        <time>2025-06-19T15:21:14Z</time>
      </trkpt>
      <trkpt lat="45.74488" lon="6.54396">
        <ele>1603</ele>
        <time>2025-06-19T15:21:20Z</time>
      </trkpt>
      <trkpt lat="45.74467" lon="6.54384">
        <ele>1605</ele>
        <time>2025-06-19T15:21:25Z</time>
      </trkpt>
      <trkpt lat="45.74456" lon="6.5438">
        <ele>1605</ele>
        <time>2025-06-19T15:21:28Z</time>
      </trkpt>
      <trkpt lat="45.74446" lon="6.54366">
        <ele>1607</ele>
        <time>2025-06-19T15:21:31Z</time>
      </trkpt>
      <trkpt lat="45.74425" lon="6.54348">
        <ele>1609</ele>
        <time>2025-06-19T15:21:37Z</time>
      </trkpt>
      <trkpt lat="45.74414" lon="6.54331">
        <ele>1610</ele>
        <time>2025-06-19T15:21:41Z</time>
      </trkpt>
      <trkpt lat="45.74395" lon="6.54301">
        <ele>1614</ele>
        <time>2025-06-19T15:21:47Z</time>
      </trkpt>
      <trkpt lat="45.74381" lon="6.54267">
        <ele>1618</ele>
        <time>2025-06-19T15:21:54Z</time>
      </trkpt>
      <trkpt lat="45.74377" lon="6.54257">
        <ele>1619</ele>
        <time>2025-06-19T15:21:56Z</time>
      </trkpt>
      <trkpt lat="45.74348" lon="6.54211">
        <ele>1619</ele>
        <time>2025-06-19T15:22:06Z</time>
      </trkpt>
      <trkpt lat="45.74334" lon="6.5417">
        <ele>1620</ele>
        <time>2025-06-19T15:22:13Z</time>
      </trkpt>
      <trkpt lat="45.7433" lon="6.54155">
        <ele>1619</ele>
        <time>2025-06-19T15:22:16Z</time>
      </trkpt>
      <trkpt lat="45.74336" lon="6.54127">
        <ele>1620</ele>
        <time>2025-06-19T15:22:21Z</time>
      </trkpt>
      <trkpt lat="45.74339" lon="6.54124">
        <ele>1620</ele>
        <time>2025-06-19T15:22:21Z</time>
      </trkpt>
      <trkpt lat="45.74349" lon="6.54114">
        <ele>1622</ele>
        <time>2025-06-19T15:22:24Z</time>
      </trkpt>
      <trkpt lat="45.74368" lon="6.54119">
        <ele>1625</ele>
        <time>2025-06-19T15:22:29Z</time>
      </trkpt>
      <trkpt lat="45.74381" lon="6.54123">
        <ele>1627</ele>
        <time>2025-06-19T15:22:32Z</time>
      </trkpt>
      <trkpt lat="45.74404" lon="6.54169">
        <ele>1629</ele>
        <time>2025-06-19T15:22:41Z</time>
      </trkpt>
      <trkpt lat="45.74417" lon="6.54175">
        <ele>1630</ele>
        <time>2025-06-19T15:22:44Z</time>
      </trkpt>
      <trkpt lat="45.7444" lon="6.54175">
        <ele>1630</ele>
        <time>2025-06-19T15:22:50Z</time>
      </trkpt>
      <trkpt lat="45.74448" lon="6.54176">
        <ele>1629</ele>
        <time>2025-06-19T15:22:52Z</time>
      </trkpt>
      <trkpt lat="45.74469" lon="6.54179">
        <ele>1629</ele>
        <time>2025-06-19T15:22:56Z</time>
      </trkpt>
      <trkpt lat="45.74491" lon="6.54184">
        <ele>1627</ele>
        <time>2025-06-19T15:23:02Z</time>
      </trkpt>
      <trkpt lat="45.74512" lon="6.54183">
        <ele>1627</ele>
        <time>2025-06-19T15:23:07Z</time>
      </trkpt>
      <trkpt lat="45.74536" lon="6.54177">
        <ele>1628</ele>
        <time>2025-06-19T15:23:12Z</time>
      </trkpt>
      <trkpt lat="45.74576" lon="6.54168">
        <ele>1629</ele>
        <time>2025-06-19T15:23:22Z</time>
      </trkpt>
      <trkpt lat="45.74643" lon="6.54155">
        <ele>1632</ele>
        <time>2025-06-19T15:23:38Z</time>
      </trkpt>
      <trkpt lat="45.74648" lon="6.54161">
        <ele>1631</ele>
        <time>2025-06-19T15:23:39Z</time>
      </trkpt>
      <trkpt lat="45.74643" lon="6.54155">
        <ele>1632</ele>
        <time>2025-06-19T15:23:41Z</time>
      </trkpt>
      <trkpt lat="45.74588" lon="6.54099">
        <ele>1641</ele>
        <time>2025-06-19T15:23:56Z</time>
      </trkpt>
      <trkpt lat="45.74559" lon="6.54071">
        <ele>1645</ele>
        <time>2025-06-19T15:24:05Z</time>
      </trkpt>
      <trkpt lat="45.74547" lon="6.54055">
        <ele>1645</ele>
        <time>2025-06-19T15:24:08Z</time>
      </trkpt>
      <trkpt lat="45.74525" lon="6.54014">
        <ele>1648</ele>
        <time>2025-06-19T15:24:17Z</time>
      </trkpt>
      <trkpt lat="45.7452" lon="6.53993">
        <ele>1649</ele>
        <time>2025-06-19T15:24:20Z</time>
      </trkpt>
      <trkpt lat="45.74519" lon="6.53977">
        <ele>1650</ele>
        <time>2025-06-19T15:24:23Z</time>
      </trkpt>
      <trkpt lat="45.74519" lon="6.5396">
        <ele>1650</ele>
        <time>2025-06-19T15:24:26Z</time>
      </trkpt>
      <trkpt lat="45.74521" lon="6.53938">
        <ele>1651</ele>
        <time>2025-06-19T15:24:29Z</time>
      </trkpt>
      <trkpt lat="45.7453" lon="6.53888">
        <ele>1654</ele>
        <time>2025-06-19T15:24:38Z</time>
      </trkpt>
      <trkpt lat="45.74543" lon="6.53817">
        <ele>1658</ele>
        <time>2025-06-19T15:24:50Z</time>
      </trkpt>
      <trkpt lat="45.74548" lon="6.53799">
        <ele>1660</ele>
        <time>2025-06-19T15:24:53Z</time>
      </trkpt>
      <trkpt lat="45.74558" lon="6.53779">
        <ele>1662</ele>
        <time>2025-06-19T15:24:57Z</time>
      </trkpt>
      <trkpt lat="45.74607" lon="6.53711">
        <ele>1669</ele>
        <time>2025-06-19T15:25:13Z</time>
      </trkpt>
      <trkpt lat="45.74619" lon="6.53681">
        <ele>1670</ele>
        <time>2025-06-19T15:25:18Z</time>
      </trkpt>
      <trkpt lat="45.74626" lon="6.53655">
        <ele>1671</ele>
        <time>2025-06-19T15:25:23Z</time>
      </trkpt>
      <trkpt lat="45.74628" lon="6.53649">
        <ele>1671</ele>
        <time>2025-06-19T15:25:24Z</time>
      </trkpt>
      <trkpt lat="45.74626" lon="6.53655">
        <ele>1671</ele>
        <time>2025-06-19T15:25:25Z</time>
      </trkpt>
      <trkpt lat="45.74648" lon="6.53668">
        <ele>1669</ele>
        <time>2025-06-19T15:25:31Z</time>
      </trkpt>
      <trkpt lat="45.74673" lon="6.53676">
        <ele>1667</ele>
        <time>2025-06-19T15:25:37Z</time>
      </trkpt>
      <trkpt lat="45.74695" lon="6.53672">
        <ele>1665</ele>
        <time>2025-06-19T15:25:42Z</time>
      </trkpt>
      <trkpt lat="45.74715" lon="6.53665">
        <ele>1664</ele>
        <time>2025-06-19T15:25:47Z</time>
      </trkpt>
      <trkpt lat="45.74737" lon="6.53649">
        <ele>1664</ele>
        <time>2025-06-19T15:25:52Z</time>
      </trkpt>
      <trkpt lat="45.74761" lon="6.53637">
        <ele>1662</ele>
        <time>2025-06-19T15:25:58Z</time>
      </trkpt>
      <trkpt lat="45.74781" lon="6.53611">
        <ele>1662</ele>
        <time>2025-06-19T15:26:05Z</time>
      </trkpt>
      <trkpt lat="45.74797" lon="6.53595">
        <ele>1660</ele>
        <time>2025-06-19T15:26:09Z</time>
      </trkpt>
      <trkpt lat="45.74814" lon="6.53556">
        <ele>1662</ele>
        <time>2025-06-19T15:26:17Z</time>
      </trkpt>
      <trkpt lat="45.7487" lon="6.53466">
        <ele>1665</ele>
        <time>2025-06-19T15:26:36Z</time>
      </trkpt>
      <trkpt lat="45.7489" lon="6.53427">
        <ele>1667</ele>
        <time>2025-06-19T15:26:44Z</time>
      </trkpt>
      <trkpt lat="45.74898" lon="6.5342">
        <ele>1667</ele>
        <time>2025-06-19T15:26:47Z</time>
      </trkpt>
      <trkpt lat="45.74908" lon="6.53409">
        <ele>1668</ele>
        <time>2025-06-19T15:26:49Z</time>
      </trkpt>
      <trkpt lat="45.74961" lon="6.53352">
        <ele>1666</ele>
        <time>2025-06-19T15:27:05Z</time>
      </trkpt>
      <trkpt lat="45.74973" lon="6.5335">
        <ele>1664</ele>
        <time>2025-06-19T15:27:08Z</time>
      </trkpt>
      <trkpt lat="45.75013" lon="6.53355">
        <ele>1657</ele>
        <time>2025-06-19T15:27:17Z</time>
      </trkpt>
      <trkpt lat="45.75044" lon="6.53357">
        <ele>1653</ele>
        <time>2025-06-19T15:27:24Z</time>
      </trkpt>
      <trkpt lat="45.75053" lon="6.53358">
        <ele>1652</ele>
        <time>2025-06-19T15:27:26Z</time>
      </trkpt>
      <trkpt lat="45.75071" lon="6.53353">
        <ele>1650</ele>
        <time>2025-06-19T15:27:31Z</time>
      </trkpt>
      <trkpt lat="45.75075" lon="6.53352">
        <ele>1650</ele>
        <time>2025-06-19T15:27:32Z</time>
      </trkpt>
      <trkpt lat="45.75082" lon="6.53352">
        <ele>1649</ele>
        <time>2025-06-19T15:27:33Z</time>
      </trkpt>
      <trkpt lat="45.75089" lon="6.5335">
        <ele>1648</ele>
        <time>2025-06-19T15:27:35Z</time>
      </trkpt>
      <trkpt lat="45.75098" lon="6.53344">
        <ele>1648</ele>
        <time>2025-06-19T15:27:37Z</time>
      </trkpt>
      <trkpt lat="45.75116" lon="6.53338">
        <ele>1647</ele>
        <time>2025-06-19T15:27:42Z</time>
      </trkpt>
      <trkpt lat="45.75133" lon="6.53329">
        <ele>1646</ele>
        <time>2025-06-19T15:27:46Z</time>
      </trkpt>
      <trkpt lat="45.75158" lon="6.53321">
        <ele>1644</ele>
        <time>2025-06-19T15:27:52Z</time>
      </trkpt>
      <trkpt lat="45.75177" lon="6.53313">
        <ele>1642</ele>
        <time>2025-06-19T15:27:56Z</time>
      </trkpt>
      <trkpt lat="45.75226" lon="6.5329">
        <ele>1638</ele>
        <time>2025-06-19T15:28:09Z</time>
      </trkpt>
      <trkpt lat="45.75238" lon="6.53275">
        <ele>1637</ele>
        <time>2025-06-19T15:28:12Z</time>
      </trkpt>
      <trkpt lat="45.7526" lon="6.53259">
        <ele>1635</ele>
        <time>2025-06-19T15:28:18Z</time>
      </trkpt>
      <trkpt lat="45.75274" lon="6.53243">
        <ele>1634</ele>
        <time>2025-06-19T15:28:22Z</time>
      </trkpt>
      <trkpt lat="45.75284" lon="6.53235">
        <ele>1632</ele>
        <time>2025-06-19T15:28:25Z</time>
      </trkpt>
      <trkpt lat="45.7529" lon="6.53236">
        <ele>1632</ele>
        <time>2025-06-19T15:28:26Z</time>
      </trkpt>
      <trkpt lat="45.75304" lon="6.53245">
        <ele>1630</ele>
        <time>2025-06-19T15:28:30Z</time>
      </trkpt>
      <trkpt lat="45.75323" lon="6.53262">
        <ele>1628</ele>
        <time>2025-06-19T15:28:35Z</time>
      </trkpt>
      <trkpt lat="45.75342" lon="6.53277">
        <ele>1625</ele>
        <time>2025-06-19T15:28:40Z</time>
      </trkpt>
      <trkpt lat="45.7537" lon="6.53295">
        <ele>1622</ele>
        <time>2025-06-19T15:28:47Z</time>
      </trkpt>
      <trkpt lat="45.75395" lon="6.5331">
        <ele>1618</ele>
        <time>2025-06-19T15:28:54Z</time>
      </trkpt>
      <trkpt lat="45.75439" lon="6.53334">
        <ele>1614</ele>
        <time>2025-06-19T15:29:05Z</time>
      </trkpt>
      <trkpt lat="45.75454" lon="6.53341">
        <ele>1614</ele>
        <time>2025-06-19T15:29:08Z</time>
      </trkpt>
      <trkpt lat="45.75463" lon="6.53346">
        <ele>1614</ele>
        <time>2025-06-19T15:29:11Z</time>
      </trkpt>
      <trkpt lat="45.75466" lon="6.53331">
        <ele>1614</ele>
        <time>2025-06-19T15:29:13Z</time>
      </trkpt>
      <trkpt lat="45.75475" lon="6.5332">
        <ele>1614</ele>
        <time>2025-06-19T15:29:16Z</time>
      </trkpt>
      <trkpt lat="45.7548" lon="6.53309">
        <ele>1614</ele>
        <time>2025-06-19T15:29:18Z</time>
      </trkpt>
      <trkpt lat="45.75483" lon="6.53273">
        <ele>1614</ele>
        <time>2025-06-19T15:29:24Z</time>
      </trkpt>
      <trkpt lat="45.75485" lon="6.53259">
        <ele>1614</ele>
        <time>2025-06-19T15:29:26Z</time>
      </trkpt>
      <trkpt lat="45.75482" lon="6.53247">
        <ele>1614</ele>
        <time>2025-06-19T15:29:28Z</time>
      </trkpt>
      <trkpt lat="45.75483" lon="6.53235">
        <ele>1614</ele>
        <time>2025-06-19T15:29:30Z</time>
      </trkpt>
      <trkpt lat="45.75485" lon="6.53222">
        <ele>1615</ele>
        <time>2025-06-19T15:29:32Z</time>
      </trkpt>
      <trkpt lat="45.75503" lon="6.53187">
        <ele>1615</ele>
        <time>2025-06-19T15:29:40Z</time>
      </trkpt>
      <trkpt lat="45.75526" lon="6.53168">
        <ele>1616</ele>
        <time>2025-06-19T15:29:46Z</time>
      </trkpt>
      <trkpt lat="45.75555" lon="6.5314">
        <ele>1617</ele>
        <time>2025-06-19T15:29:54Z</time>
      </trkpt>
      <trkpt lat="45.75568" lon="6.53126">
        <ele>1618</ele>
        <time>2025-06-19T15:29:58Z</time>
      </trkpt>
      <trkpt lat="45.75575" lon="6.53114">
        <ele>1618</ele>
        <time>2025-06-19T15:30:00Z</time>
      </trkpt>
      <trkpt lat="45.75586" lon="6.53091">
        <ele>1618</ele>
        <time>2025-06-19T15:30:05Z</time>
      </trkpt>
      <trkpt lat="45.75588" lon="6.53087">
        <ele>1618</ele>
        <time>2025-06-19T15:30:06Z</time>
      </trkpt>
      <trkpt lat="45.75594" lon="6.53079">
        <ele>1619</ele>
        <time>2025-06-19T15:30:08Z</time>
      </trkpt>
      <trkpt lat="45.75604" lon="6.53073">
        <ele>1620</ele>
        <time>2025-06-19T15:30:10Z</time>
      </trkpt>
      <trkpt lat="45.7561" lon="6.53068">
        <ele>1620</ele>
        <time>2025-06-19T15:30:12Z</time>
      </trkpt>
      <trkpt lat="45.75622" lon="6.5307">
        <ele>1621</ele>
        <time>2025-06-19T15:30:15Z</time>
      </trkpt>
      <trkpt lat="45.75627" lon="6.53072">
        <ele>1622</ele>
        <time>2025-06-19T15:30:16Z</time>
      </trkpt>
      <trkpt lat="45.75632" lon="6.53077">
        <ele>1622</ele>
        <time>2025-06-19T15:30:17Z</time>
      </trkpt>
      <trkpt lat="45.75644" lon="6.53095">
        <ele>1623</ele>
        <time>2025-06-19T15:30:21Z</time>
      </trkpt>
      <trkpt lat="45.75658" lon="6.53122">
        <ele>1625</ele>
        <time>2025-06-19T15:30:27Z</time>
      </trkpt>
      <trkpt lat="45.75665" lon="6.5314">
        <ele>1626</ele>
        <time>2025-06-19T15:30:30Z</time>
      </trkpt>
      <trkpt lat="45.7567" lon="6.5314">
        <ele>1627</ele>
        <time>2025-06-19T15:30:31Z</time>
      </trkpt>
      <trkpt lat="45.75673" lon="6.5314">
        <ele>1627</ele>
        <time>2025-06-19T15:30:32Z</time>
      </trkpt>
      <trkpt lat="45.75679" lon="6.5313">
        <ele>1628</ele>
        <time>2025-06-19T15:30:34Z</time>
      </trkpt>
      <trkpt lat="45.75688" lon="6.53105">
        <ele>1629</ele>
        <time>2025-06-19T15:30:39Z</time>
      </trkpt>
      <trkpt lat="45.75693" lon="6.53095">
        <ele>1629</ele>
        <time>2025-06-19T15:30:41Z</time>
      </trkpt>
      <trkpt lat="45.75699" lon="6.53091">
        <ele>1630</ele>
        <time>2025-06-19T15:30:42Z</time>
      </trkpt>
      <trkpt lat="45.75705" lon="6.53091">
        <ele>1630</ele>
        <time>2025-06-19T15:30:44Z</time>
      </trkpt>
      <trkpt lat="45.75708" lon="6.53092">
        <ele>1631</ele>
        <time>2025-06-19T15:30:44Z</time>
      </trkpt>
      <trkpt lat="45.75711" lon="6.53094">
        <ele>1631</ele>
        <time>2025-06-19T15:30:45Z</time>
      </trkpt>
      <trkpt lat="45.75714" lon="6.53104">
        <ele>1632</ele>
        <time>2025-06-19T15:30:47Z</time>
      </trkpt>
      <trkpt lat="45.75714" lon="6.53111">
        <ele>1632</ele>
        <time>2025-06-19T15:30:48Z</time>
      </trkpt>
      <trkpt lat="45.7571" lon="6.53133">
        <ele>1633</ele>
        <time>2025-06-19T15:30:52Z</time>
      </trkpt>
      <trkpt lat="45.75709" lon="6.53145">
        <ele>1633</ele>
        <time>2025-06-19T15:30:54Z</time>
      </trkpt>
      <trkpt lat="45.75712" lon="6.5316">
        <ele>1634</ele>
        <time>2025-06-19T15:30:56Z</time>
      </trkpt>
      <trkpt lat="45.75727" lon="6.53183">
        <ele>1637</ele>
        <time>2025-06-19T15:31:01Z</time>
      </trkpt>
      <trkpt lat="45.75735" lon="6.532">
        <ele>1638</ele>
        <time>2025-06-19T15:31:05Z</time>
      </trkpt>
      <trkpt lat="45.75739" lon="6.53202">
        <ele>1639</ele>
        <time>2025-06-19T15:31:06Z</time>
      </trkpt>
      <trkpt lat="45.75742" lon="6.53203">
        <ele>1640</ele>
        <time>2025-06-19T15:31:06Z</time>
      </trkpt>
      <trkpt lat="45.75745" lon="6.53201">
        <ele>1640</ele>
        <time>2025-06-19T15:31:07Z</time>
      </trkpt>
      <trkpt lat="45.7576" lon="6.53171">
        <ele>1642</ele>
        <time>2025-06-19T15:31:13Z</time>
      </trkpt>
      <trkpt lat="45.7577" lon="6.53153">
        <ele>1643</ele>
        <time>2025-06-19T15:31:17Z</time>
      </trkpt>
      <trkpt lat="45.75776" lon="6.53148">
        <ele>1643</ele>
        <time>2025-06-19T15:31:19Z</time>
      </trkpt>
      <trkpt lat="45.75782" lon="6.53147">
        <ele>1644</ele>
        <time>2025-06-19T15:31:20Z</time>
      </trkpt>
      <trkpt lat="45.75779" lon="6.53159">
        <ele>1644</ele>
        <time>2025-06-19T15:31:22Z</time>
      </trkpt>
      <trkpt lat="45.75772" lon="6.53219">
        <ele>1644</ele>
        <time>2025-06-19T15:31:32Z</time>
      </trkpt>
      <trkpt lat="45.75774" lon="6.53277">
        <ele>1645</ele>
        <time>2025-06-19T15:31:41Z</time>
      </trkpt>
      <trkpt lat="45.75778" lon="6.53316">
        <ele>1644</ele>
        <time>2025-06-19T15:31:48Z</time>
      </trkpt>
      <trkpt lat="45.75786" lon="6.53336">
        <ele>1645</ele>
        <time>2025-06-19T15:31:52Z</time>
      </trkpt>
      <trkpt lat="45.75798" lon="6.53353">
        <ele>1646</ele>
        <time>2025-06-19T15:31:56Z</time>
      </trkpt>
      <trkpt lat="45.75802" lon="6.53356">
        <ele>1647</ele>
        <time>2025-06-19T15:31:57Z</time>
      </trkpt>
      <trkpt lat="45.75807" lon="6.53358">
        <ele>1647</ele>
        <time>2025-06-19T15:31:58Z</time>
      </trkpt>
      <trkpt lat="45.75811" lon="6.53367">
        <ele>1648</ele>
        <time>2025-06-19T15:32:00Z</time>
      </trkpt>
      <trkpt lat="45.75818" lon="6.53375">
        <ele>1648</ele>
        <time>2025-06-19T15:32:02Z</time>
      </trkpt>
      <trkpt lat="45.75877" lon="6.53404">
        <ele>1653</ele>
        <time>2025-06-19T15:32:16Z</time>
      </trkpt>
      <trkpt lat="45.75898" lon="6.53416">
        <ele>1654</ele>
        <time>2025-06-19T15:32:21Z</time>
      </trkpt>
      <trkpt lat="45.75902" lon="6.53416">
        <ele>1655</ele>
        <time>2025-06-19T15:32:22Z</time>
      </trkpt>
      <trkpt lat="45.75903" lon="6.53416">
        <ele>1655</ele>
        <time>2025-06-19T15:32:23Z</time>
      </trkpt>
      <trkpt lat="45.75906" lon="6.53414">
        <ele>1655</ele>
        <time>2025-06-19T15:32:23Z</time>
      </trkpt>
      <trkpt lat="45.7591" lon="6.53407">
        <ele>1655</ele>
        <time>2025-06-19T15:32:25Z</time>
      </trkpt>
      <trkpt lat="45.75935" lon="6.53425">
        <ele>1657</ele>
        <time>2025-06-19T15:32:31Z</time>
      </trkpt>
      <trkpt lat="45.75939" lon="6.53426">
        <ele>1658</ele>
        <time>2025-06-19T15:32:32Z</time>
      </trkpt>
      <trkpt lat="45.75939" lon="6.53421">
        <ele>1657</ele>
        <time>2025-06-19T15:32:33Z</time>
      </trkpt>
      <trkpt lat="45.75941" lon="6.53418">
        <ele>1657</ele>
        <time>2025-06-19T15:32:34Z</time>
      </trkpt>
      <trkpt lat="45.75944" lon="6.53415">
        <ele>1658</ele>
        <time>2025-06-19T15:32:35Z</time>
      </trkpt>
      <trkpt lat="45.75947" lon="6.53414">
        <ele>1658</ele>
        <time>2025-06-19T15:32:35Z</time>
      </trkpt>
      <trkpt lat="45.7595" lon="6.53414">
        <ele>1658</ele>
        <time>2025-06-19T15:32:36Z</time>
      </trkpt>
      <trkpt lat="45.75952" lon="6.53416">
        <ele>1658</ele>
        <time>2025-06-19T15:32:37Z</time>
      </trkpt>
      <trkpt lat="45.75955" lon="6.53419">
        <ele>1658</ele>
        <time>2025-06-19T15:32:38Z</time>
      </trkpt>
      <trkpt lat="45.75982" lon="6.5339">
        <ele>1659</ele>
        <time>2025-06-19T15:32:45Z</time>
      </trkpt>
      <trkpt lat="45.75999" lon="6.53376">
        <ele>1659</ele>
        <time>2025-06-19T15:32:50Z</time>
      </trkpt>
      <trkpt lat="45.76022" lon="6.53363">
        <ele>1660</ele>
        <time>2025-06-19T15:32:56Z</time>
      </trkpt>
      <trkpt lat="45.76032" lon="6.53359">
        <ele>1660</ele>
        <time>2025-06-19T15:32:58Z</time>
      </trkpt>
      <trkpt lat="45.76035" lon="6.53358">
        <ele>1660</ele>
        <time>2025-06-19T15:32:59Z</time>
      </trkpt>
      <trkpt lat="45.76039" lon="6.53378">
        <ele>1661</ele>
        <time>2025-06-19T15:33:02Z</time>
      </trkpt>
      <trkpt lat="45.76037" lon="6.53386">
        <ele>1661</ele>
        <time>2025-06-19T15:33:04Z</time>
      </trkpt>
      <trkpt lat="45.76031" lon="6.53396">
        <ele>1661</ele>
        <time>2025-06-19T15:33:06Z</time>
      </trkpt>
      <trkpt lat="45.76023" lon="6.53406">
        <ele>1661</ele>
        <time>2025-06-19T15:33:08Z</time>
      </trkpt>
      <trkpt lat="45.76006" lon="6.53421">
        <ele>1661</ele>
        <time>2025-06-19T15:33:13Z</time>
      </trkpt>
      <trkpt lat="45.76" lon="6.53427">
        <ele>1661</ele>
        <time>2025-06-19T15:33:15Z</time>
      </trkpt>
      <trkpt lat="45.75997" lon="6.53432">
        <ele>1661</ele>
        <time>2025-06-19T15:33:16Z</time>
      </trkpt>
      <trkpt lat="45.75993" lon="6.5344">
        <ele>1661</ele>
        <time>2025-06-19T15:33:17Z</time>
      </trkpt>
      <trkpt lat="45.7599" lon="6.53453">
        <ele>1661</ele>
        <time>2025-06-19T15:33:20Z</time>
      </trkpt>
      <trkpt lat="45.7599" lon="6.5346">
        <ele>1661</ele>
        <time>2025-06-19T15:33:21Z</time>
      </trkpt>
      <trkpt lat="45.7599" lon="6.53466">
        <ele>1662</ele>
        <time>2025-06-19T15:33:22Z</time>
      </trkpt>
      <trkpt lat="45.75992" lon="6.53477">
        <ele>1662</ele>
        <time>2025-06-19T15:33:24Z</time>
      </trkpt>
      <trkpt lat="45.75981" lon="6.53491">
        <ele>1662</ele>
        <time>2025-06-19T15:33:27Z</time>
      </trkpt>
      <trkpt lat="45.75976" lon="6.53507">
        <ele>1662</ele>
        <time>2025-06-19T15:33:30Z</time>
      </trkpt>
      <trkpt lat="45.75972" lon="6.53511">
        <ele>1662</ele>
        <time>2025-06-19T15:33:31Z</time>
      </trkpt>
      <trkpt lat="45.75963" lon="6.53541">
        <ele>1662</ele>
        <time>2025-06-19T15:33:36Z</time>
      </trkpt>
      <trkpt lat="45.7596" lon="6.53547">
        <ele>1662</ele>
        <time>2025-06-19T15:33:38Z</time>
      </trkpt>
      <trkpt lat="45.75945" lon="6.53576">
        <ele>1662</ele>
        <time>2025-06-19T15:33:43Z</time>
      </trkpt>
      <trkpt lat="45.7594" lon="6.53583">
        <ele>1662</ele>
        <time>2025-06-19T15:33:45Z</time>
      </trkpt>
      <trkpt lat="45.75926" lon="6.5359">
        <ele>1660</ele>
        <time>2025-06-19T15:33:49Z</time>
      </trkpt>
      <trkpt lat="45.75922" lon="6.5359">
        <ele>1660</ele>
        <time>2025-06-19T15:33:49Z</time>
      </trkpt>
      <trkpt lat="45.75928" lon="6.536">
        <ele>1661</ele>
        <time>2025-06-19T15:33:52Z</time>
      </trkpt>
      <trkpt lat="45.75933" lon="6.53616">
        <ele>1663</ele>
        <time>2025-06-19T15:33:54Z</time>
      </trkpt>
      <trkpt lat="45.75932" lon="6.53626">
        <ele>1663</ele>
        <time>2025-06-19T15:33:56Z</time>
      </trkpt>
      <trkpt lat="45.75933" lon="6.53639">
        <ele>1664</ele>
        <time>2025-06-19T15:33:58Z</time>
      </trkpt>
      <trkpt lat="45.75936" lon="6.53648">
        <ele>1665</ele>
        <time>2025-06-19T15:34:00Z</time>
      </trkpt>
      <trkpt lat="45.75937" lon="6.53661">
        <ele>1666</ele>
        <time>2025-06-19T15:34:02Z</time>
      </trkpt>
      <trkpt lat="45.75939" lon="6.53693">
        <ele>1669</ele>
        <time>2025-06-19T15:34:07Z</time>
      </trkpt>
      <trkpt lat="45.7594" lon="6.53702">
        <ele>1670</ele>
        <time>2025-06-19T15:34:09Z</time>
      </trkpt>
      <trkpt lat="45.75948" lon="6.53722">
        <ele>1672</ele>
        <time>2025-06-19T15:34:12Z</time>
      </trkpt>
      <trkpt lat="45.75951" lon="6.53733">
        <ele>1674</ele>
        <time>2025-06-19T15:34:14Z</time>
      </trkpt>
      <trkpt lat="45.7595" lon="6.53765">
        <ele>1676</ele>
        <time>2025-06-19T15:34:20Z</time>
      </trkpt>
      <trkpt lat="45.75946" lon="6.53804">
        <ele>1679</ele>
        <time>2025-06-19T15:34:26Z</time>
      </trkpt>
      <trkpt lat="45.75943" lon="6.53829">
        <ele>1681</ele>
        <time>2025-06-19T15:34:30Z</time>
      </trkpt>
      <trkpt lat="45.75934" lon="6.53862">
        <ele>1683</ele>
        <time>2025-06-19T15:34:36Z</time>
      </trkpt>
      <trkpt lat="45.75927" lon="6.53891">
        <ele>1684</ele>
        <time>2025-06-19T15:34:41Z</time>
      </trkpt>
      <trkpt lat="45.75919" lon="6.53917">
        <ele>1685</ele>
        <time>2025-06-19T15:34:46Z</time>
      </trkpt>
      <trkpt lat="45.75919" lon="6.53953">
        <ele>1688</ele>
        <time>2025-06-19T15:34:51Z</time>
      </trkpt>
      <trkpt lat="45.7592" lon="6.53973">
        <ele>1690</ele>
        <time>2025-06-19T15:34:55Z</time>
      </trkpt>
      <trkpt lat="45.75921" lon="6.54028">
        <ele>1693</ele>
        <time>2025-06-19T15:35:04Z</time>
      </trkpt>
      <trkpt lat="45.75928" lon="6.54046">
        <ele>1696</ele>
        <time>2025-06-19T15:35:07Z</time>
      </trkpt>
      <trkpt lat="45.75939" lon="6.54114">
        <ele>1703</ele>
        <time>2025-06-19T15:35:18Z</time>
      </trkpt>
      <trkpt lat="45.75942" lon="6.54126">
        <ele>1704</ele>
        <time>2025-06-19T15:35:20Z</time>
      </trkpt>
      <trkpt lat="45.75942" lon="6.5413">
        <ele>1704</ele>
        <time>2025-06-19T15:35:21Z</time>
      </trkpt>
      <trkpt lat="45.75935" lon="6.54182">
        <ele>1705</ele>
        <time>2025-06-19T15:35:30Z</time>
      </trkpt>
      <trkpt lat="45.7594" lon="6.5421">
        <ele>1709</ele>
        <time>2025-06-19T15:35:34Z</time>
      </trkpt>
      <trkpt lat="45.75941" lon="6.54249">
        <ele>1711</ele>
        <time>2025-06-19T15:35:41Z</time>
      </trkpt>
      <trkpt lat="45.7594" lon="6.54274">
        <ele>1713</ele>
        <time>2025-06-19T15:35:45Z</time>
      </trkpt>
      <trkpt lat="45.75937" lon="6.54301">
        <ele>1714</ele>
        <time>2025-06-19T15:35:49Z</time>
      </trkpt>
      <trkpt lat="45.75942" lon="6.54324">
        <ele>1718</ele>
        <time>2025-06-19T15:35:53Z</time>
      </trkpt>
      <trkpt lat="45.75948" lon="6.54379">
        <ele>1722</ele>
        <time>2025-06-19T15:36:02Z</time>
      </trkpt>
      <trkpt lat="45.7596" lon="6.54465">
        <ele>1732</ele>
        <time>2025-06-19T15:36:17Z</time>
      </trkpt>
      <trkpt lat="45.75963" lon="6.54499">
        <ele>1736</ele>
        <time>2025-06-19T15:36:22Z</time>
      </trkpt>
      <trkpt lat="45.75965" lon="6.54538">
        <ele>1741</ele>
        <time>2025-06-19T15:36:29Z</time>
      </trkpt>
      <trkpt lat="45.75962" lon="6.54557">
        <ele>1743</ele>
        <time>2025-06-19T15:36:32Z</time>
      </trkpt>
      <trkpt lat="45.75962" lon="6.54574">
        <ele>1745</ele>
        <time>2025-06-19T15:36:35Z</time>
      </trkpt>
      <trkpt lat="45.75958" lon="6.54588">
        <ele>1745</ele>
        <time>2025-06-19T15:36:37Z</time>
      </trkpt>
      <trkpt lat="45.75957" lon="6.54598">
        <ele>1746</ele>
        <time>2025-06-19T15:36:39Z</time>
      </trkpt>
      <trkpt lat="45.75955" lon="6.54632">
        <ele>1749</ele>
        <time>2025-06-19T15:36:44Z</time>
      </trkpt>
      <trkpt lat="45.75954" lon="6.54664">
        <ele>1752</ele>
        <time>2025-06-19T15:36:49Z</time>
      </trkpt>
      <trkpt lat="45.75954" lon="6.54686">
        <ele>1753</ele>
        <time>2025-06-19T15:36:53Z</time>
      </trkpt>
      <trkpt lat="45.75956" lon="6.54709">
        <ele>1754</ele>
        <time>2025-06-19T15:36:57Z</time>
      </trkpt>
      <trkpt lat="45.75961" lon="6.54733">
        <ele>1756</ele>
        <time>2025-06-19T15:37:01Z</time>
      </trkpt>
      <trkpt lat="45.75985" lon="6.54806">
        <ele>1762</ele>
        <time>2025-06-19T15:37:14Z</time>
      </trkpt>
      <trkpt lat="45.75992" lon="6.54824">
        <ele>1764</ele>
        <time>2025-06-19T15:37:17Z</time>
      </trkpt>
      <trkpt lat="45.76001" lon="6.54854">
        <ele>1766</ele>
        <time>2025-06-19T15:37:23Z</time>
      </trkpt>
      <trkpt lat="45.76013" lon="6.54916">
        <ele>1769</ele>
        <time>2025-06-19T15:37:33Z</time>
      </trkpt>
      <trkpt lat="45.76009" lon="6.54936">
        <ele>1770</ele>
        <time>2025-06-19T15:37:37Z</time>
      </trkpt>
      <trkpt lat="45.76006" lon="6.54975">
        <ele>1771</ele>
        <time>2025-06-19T15:37:43Z</time>
      </trkpt>
      <trkpt lat="45.76004" lon="6.54988">
        <ele>1772</ele>
        <time>2025-06-19T15:37:45Z</time>
      </trkpt>
      <trkpt lat="45.76001" lon="6.54999">
        <ele>1772</ele>
        <time>2025-06-19T15:37:47Z</time>
      </trkpt>
      <trkpt lat="45.76" lon="6.55009">
        <ele>1773</ele>
        <time>2025-06-19T15:37:49Z</time>
      </trkpt>
      <trkpt lat="45.75992" lon="6.5502">
        <ele>1773</ele>
        <time>2025-06-19T15:37:51Z</time>
      </trkpt>
      <trkpt lat="45.75987" lon="6.5502">
        <ele>1773</ele>
        <time>2025-06-19T15:37:52Z</time>
      </trkpt>
      <trkpt lat="45.75973" lon="6.55041">
        <ele>1774</ele>
        <time>2025-06-19T15:37:57Z</time>
      </trkpt>
      <trkpt lat="45.75958" lon="6.55041">
        <ele>1774</ele>
        <time>2025-06-19T15:38:01Z</time>
      </trkpt>
      <trkpt lat="45.75918" lon="6.55034">
        <ele>1772</ele>
        <time>2025-06-19T15:38:10Z</time>
      </trkpt>
      <trkpt lat="45.75905" lon="6.55038">
        <ele>1772</ele>
        <time>2025-06-19T15:38:13Z</time>
      </trkpt>
      <trkpt lat="45.75895" lon="6.55044">
        <ele>1772</ele>
        <time>2025-06-19T15:38:16Z</time>
      </trkpt>
      <trkpt lat="45.75878" lon="6.55065">
        <ele>1773</ele>
        <time>2025-06-19T15:38:21Z</time>
      </trkpt>
      <trkpt lat="45.75872" lon="6.5507">
        <ele>1773</ele>
        <time>2025-06-19T15:38:23Z</time>
      </trkpt>
      <trkpt lat="45.75864" lon="6.55077">
        <ele>1774</ele>
        <time>2025-06-19T15:38:25Z</time>
      </trkpt>
      <trkpt lat="45.75855" lon="6.55091">
        <ele>1774</ele>
        <time>2025-06-19T15:38:28Z</time>
      </trkpt>
      <trkpt lat="45.75846" lon="6.55108">
        <ele>1775</ele>
        <time>2025-06-19T15:38:31Z</time>
      </trkpt>
      <trkpt lat="45.75835" lon="6.55118">
        <ele>1775</ele>
        <time>2025-06-19T15:38:34Z</time>
      </trkpt>
      <trkpt lat="45.7583" lon="6.55126">
        <ele>1775</ele>
        <time>2025-06-19T15:38:36Z</time>
      </trkpt>
      <trkpt lat="45.75817" lon="6.55133">
        <ele>1774</ele>
        <time>2025-06-19T15:38:39Z</time>
      </trkpt>
      <trkpt lat="45.75806" lon="6.55136">
        <ele>1773</ele>
        <time>2025-06-19T15:38:42Z</time>
      </trkpt>
      <trkpt lat="45.758" lon="6.55144">
        <ele>1773</ele>
        <time>2025-06-19T15:38:44Z</time>
      </trkpt>
      <trkpt lat="45.75785" lon="6.55174">
        <ele>1775</ele>
        <time>2025-06-19T15:38:50Z</time>
      </trkpt>
      <trkpt lat="45.75767" lon="6.55214">
        <ele>1777</ele>
        <time>2025-06-19T15:38:58Z</time>
      </trkpt>
      <trkpt lat="45.7576" lon="6.55227">
        <ele>1777</ele>
        <time>2025-06-19T15:39:00Z</time>
      </trkpt>
      <trkpt lat="45.75757" lon="6.5523">
        <ele>1777</ele>
        <time>2025-06-19T15:39:01Z</time>
      </trkpt>
      <trkpt lat="45.75742" lon="6.55244">
        <ele>1776</ele>
        <time>2025-06-19T15:39:05Z</time>
      </trkpt>
      <trkpt lat="45.75734" lon="6.55246">
        <ele>1774</ele>
        <time>2025-06-19T15:39:07Z</time>
      </trkpt>
      <trkpt lat="45.75725" lon="6.5525">
        <ele>1773</ele>
        <time>2025-06-19T15:39:09Z</time>
      </trkpt>
      <trkpt lat="45.75693" lon="6.5527">
        <ele>1769</ele>
        <time>2025-06-19T15:39:18Z</time>
      </trkpt>
      <trkpt lat="45.75677" lon="6.55285">
        <ele>1768</ele>
        <time>2025-06-19T15:39:22Z</time>
      </trkpt>
      <trkpt lat="45.7567" lon="6.5529">
        <ele>1768</ele>
        <time>2025-06-19T15:39:24Z</time>
      </trkpt>
      <trkpt lat="45.75666" lon="6.55304">
        <ele>1769</ele>
        <time>2025-06-19T15:39:26Z</time>
      </trkpt>
      <trkpt lat="45.75665" lon="6.55318">
        <ele>1772</ele>
        <time>2025-06-19T15:39:29Z</time>
      </trkpt>
      <trkpt lat="45.75661" lon="6.55322">
        <ele>1773</ele>
        <time>2025-06-19T15:39:30Z</time>
      </trkpt>
      <trkpt lat="45.75648" lon="6.55312">
        <ele>1772</ele>
        <time>2025-06-19T15:39:33Z</time>
      </trkpt>
      <trkpt lat="45.75643" lon="6.55312">
        <ele>1772</ele>
        <time>2025-06-19T15:39:34Z</time>
      </trkpt>
      <trkpt lat="45.75632" lon="6.55306">
        <ele>1772</ele>
        <time>2025-06-19T15:39:37Z</time>
      </trkpt>
      <trkpt lat="45.75618" lon="6.55295">
        <ele>1771</ele>
        <time>2025-06-19T15:39:41Z</time>
      </trkpt>
      <trkpt lat="45.75609" lon="6.55279">
        <ele>1769</ele>
        <time>2025-06-19T15:39:44Z</time>
      </trkpt>
      <trkpt lat="45.75602" lon="6.5527">
        <ele>1768</ele>
        <time>2025-06-19T15:39:46Z</time>
      </trkpt>
      <trkpt lat="45.75583" lon="6.55254">
        <ele>1766</ele>
        <time>2025-06-19T15:39:52Z</time>
      </trkpt>
      <trkpt lat="45.75569" lon="6.5524">
        <ele>1764</ele>
        <time>2025-06-19T15:39:56Z</time>
      </trkpt>
      <trkpt lat="45.75549" lon="6.55227">
        <ele>1762</ele>
        <time>2025-06-19T15:40:01Z</time>
      </trkpt>
      <trkpt lat="45.75542" lon="6.55221">
        <ele>1762</ele>
        <time>2025-06-19T15:40:03Z</time>
      </trkpt>
      <trkpt lat="45.75536" lon="6.55218">
        <ele>1761</ele>
        <time>2025-06-19T15:40:04Z</time>
      </trkpt>
      <trkpt lat="45.75528" lon="6.55218">
        <ele>1762</ele>
        <time>2025-06-19T15:40:06Z</time>
      </trkpt>
      <trkpt lat="45.75517" lon="6.55217">
        <ele>1763</ele>
        <time>2025-06-19T15:40:09Z</time>
      </trkpt>
      <trkpt lat="45.75499" lon="6.55217">
        <ele>1764</ele>
        <time>2025-06-19T15:40:13Z</time>
      </trkpt>
      <trkpt lat="45.75482" lon="6.55213">
        <ele>1762</ele>
        <time>2025-06-19T15:40:17Z</time>
      </trkpt>
      <trkpt lat="45.75476" lon="6.55211">
        <ele>1761</ele>
        <time>2025-06-19T15:40:18Z</time>
      </trkpt>
      <trkpt lat="45.75461" lon="6.5521">
        <ele>1759</ele>
        <time>2025-06-19T15:40:22Z</time>
      </trkpt>
      <trkpt lat="45.75453" lon="6.55211">
        <ele>1759</ele>
        <time>2025-06-19T15:40:24Z</time>
      </trkpt>
      <trkpt lat="45.75441" lon="6.55216">
        <ele>1759</ele>
        <time>2025-06-19T15:40:27Z</time>
      </trkpt>
      <trkpt lat="45.75429" lon="6.55218">
        <ele>1759</ele>
        <time>2025-06-19T15:40:29Z</time>
      </trkpt>
      <trkpt lat="45.75421" lon="6.55223">
        <ele>1759</ele>
        <time>2025-06-19T15:40:31Z</time>
      </trkpt>
      <trkpt lat="45.75404" lon="6.55239">
        <ele>1761</ele>
        <time>2025-06-19T15:40:36Z</time>
      </trkpt>
      <trkpt lat="45.75392" lon="6.5525">
        <ele>1761</ele>
        <time>2025-06-19T15:40:39Z</time>
      </trkpt>
      <trkpt lat="45.75368" lon="6.55278">
        <ele>1763</ele>
        <time>2025-06-19T15:40:47Z</time>
      </trkpt>
      <trkpt lat="45.75362" lon="6.55284">
        <ele>1764</ele>
        <time>2025-06-19T15:40:48Z</time>
      </trkpt>
      <trkpt lat="45.75355" lon="6.5529">
        <ele>1764</ele>
        <time>2025-06-19T15:40:50Z</time>
      </trkpt>
      <trkpt lat="45.75333" lon="6.55299">
        <ele>1762</ele>
        <time>2025-06-19T15:40:56Z</time>
      </trkpt>
      <trkpt lat="45.75319" lon="6.55306">
        <ele>1763</ele>
        <time>2025-06-19T15:40:59Z</time>
      </trkpt>
      <trkpt lat="45.75311" lon="6.55308">
        <ele>1763</ele>
        <time>2025-06-19T15:41:01Z</time>
      </trkpt>
      <trkpt lat="45.75289" lon="6.55311">
        <ele>1762</ele>
        <time>2025-06-19T15:41:06Z</time>
      </trkpt>
      <trkpt lat="45.75273" lon="6.55304">
        <ele>1759</ele>
        <time>2025-06-19T15:41:10Z</time>
      </trkpt>
      <trkpt lat="45.75261" lon="6.55296">
        <ele>1756</ele>
        <time>2025-06-19T15:41:13Z</time>
      </trkpt>
      <trkpt lat="45.75244" lon="6.55288">
        <ele>1753</ele>
        <time>2025-06-19T15:41:17Z</time>
      </trkpt>
      <trkpt lat="45.75204" lon="6.55261">
        <ele>1747</ele>
        <time>2025-06-19T15:41:28Z</time>
      </trkpt>
      <trkpt lat="45.75191" lon="6.55264">
        <ele>1748</ele>
        <time>2025-06-19T15:41:31Z</time>
      </trkpt>
      <trkpt lat="45.75181" lon="6.55261">
        <ele>1748</ele>
        <time>2025-06-19T15:41:33Z</time>
      </trkpt>
      <trkpt lat="45.75174" lon="6.55263">
        <ele>1749</ele>
        <time>2025-06-19T15:41:35Z</time>
      </trkpt>
      <trkpt lat="45.75162" lon="6.55271">
        <ele>1750</ele>
        <time>2025-06-19T15:41:38Z</time>
      </trkpt>
      <trkpt lat="45.75147" lon="6.55283">
        <ele>1750</ele>
        <time>2025-06-19T15:41:42Z</time>
      </trkpt>
      <trkpt lat="45.75136" lon="6.55311">
        <ele>1754</ele>
        <time>2025-06-19T15:41:47Z</time>
      </trkpt>
      <trkpt lat="45.75129" lon="6.55337">
        <ele>1758</ele>
        <time>2025-06-19T15:41:52Z</time>
      </trkpt>
      <trkpt lat="45.75118" lon="6.55363">
        <ele>1759</ele>
        <time>2025-06-19T15:41:57Z</time>
      </trkpt>
      <trkpt lat="45.75102" lon="6.55388">
        <ele>1759</ele>
        <time>2025-06-19T15:42:02Z</time>
      </trkpt>
      <trkpt lat="45.75094" lon="6.55399">
        <ele>1759</ele>
        <time>2025-06-19T15:42:05Z</time>
      </trkpt>
      <trkpt lat="45.75088" lon="6.55453">
        <ele>1757</ele>
        <time>2025-06-19T15:42:14Z</time>
      </trkpt>
      <trkpt lat="45.75091" lon="6.55477">
        <ele>1757</ele>
        <time>2025-06-19T15:42:18Z</time>
      </trkpt>
      <trkpt lat="45.75098" lon="6.55504">
        <ele>1757</ele>
        <time>2025-06-19T15:42:22Z</time>
      </trkpt>
      <trkpt lat="45.75107" lon="6.55526">
        <ele>1754</ele>
        <time>2025-06-19T15:42:26Z</time>
      </trkpt>
      <trkpt lat="45.75113" lon="6.55534">
        <ele>1754</ele>
        <time>2025-06-19T15:42:28Z</time>
      </trkpt>
      <trkpt lat="45.7512" lon="6.55544">
        <ele>1754</ele>
        <time>2025-06-19T15:42:31Z</time>
      </trkpt>
      <trkpt lat="45.75127" lon="6.55549">
        <ele>1755</ele>
        <time>2025-06-19T15:42:33Z</time>
      </trkpt>
      <trkpt lat="45.75136" lon="6.55561">
        <ele>1754</ele>
        <time>2025-06-19T15:42:35Z</time>
      </trkpt>
      <trkpt lat="45.75156" lon="6.55578">
        <ele>1755</ele>
        <time>2025-06-19T15:42:41Z</time>
      </trkpt>
      <trkpt lat="45.75184" lon="6.556">
        <ele>1756</ele>
        <time>2025-06-19T15:42:48Z</time>
      </trkpt>
      <trkpt lat="45.75194" lon="6.55606">
        <ele>1758</ele>
        <time>2025-06-19T15:42:51Z</time>
      </trkpt>
      <trkpt lat="45.75206" lon="6.55617">
        <ele>1759</ele>
        <time>2025-06-19T15:42:54Z</time>
      </trkpt>
      <trkpt lat="45.75212" lon="6.55626">
        <ele>1758</ele>
        <time>2025-06-19T15:42:56Z</time>
      </trkpt>
      <trkpt lat="45.75232" lon="6.55646">
        <ele>1759</ele>
        <time>2025-06-19T15:43:02Z</time>
      </trkpt>
      <trkpt lat="45.7524" lon="6.55655">
        <ele>1759</ele>
        <time>2025-06-19T15:43:04Z</time>
      </trkpt>
      <trkpt lat="45.75283" lon="6.55695">
        <ele>1756</ele>
        <time>2025-06-19T15:43:16Z</time>
      </trkpt>
      <trkpt lat="45.75312" lon="6.55729">
        <ele>1755</ele>
        <time>2025-06-19T15:43:25Z</time>
      </trkpt>
      <trkpt lat="45.75334" lon="6.5576">
        <ele>1754</ele>
        <time>2025-06-19T15:43:32Z</time>
      </trkpt>
      <trkpt lat="45.75354" lon="6.55795">
        <ele>1750</ele>
        <time>2025-06-19T15:43:40Z</time>
      </trkpt>
      <trkpt lat="45.75379" lon="6.55858">
        <ele>1746</ele>
        <time>2025-06-19T15:43:51Z</time>
      </trkpt>
      <trkpt lat="45.75388" lon="6.55879">
        <ele>1747</ele>
        <time>2025-06-19T15:43:55Z</time>
      </trkpt>
      <trkpt lat="45.75396" lon="6.55896">
        <ele>1747</ele>
        <time>2025-06-19T15:43:59Z</time>
      </trkpt>
      <trkpt lat="45.75398" lon="6.55937">
        <ele>1740</ele>
        <time>2025-06-19T15:44:05Z</time>
      </trkpt>
      <trkpt lat="45.75414" lon="6.55966">
        <ele>1745</ele>
        <time>2025-06-19T15:44:11Z</time>
      </trkpt>
      <trkpt lat="45.75413" lon="6.55979">
        <ele>1742</ele>
        <time>2025-06-19T15:44:14Z</time>
      </trkpt>
      <trkpt lat="45.75408" lon="6.56035">
        <ele>1735</ele>
        <time>2025-06-19T15:44:23Z</time>
      </trkpt>
      <trkpt lat="45.75407" lon="6.56056">
        <ele>1734</ele>
        <time>2025-06-19T15:44:26Z</time>
      </trkpt>
      <trkpt lat="45.75403" lon="6.56077">
        <ele>1731</ele>
        <time>2025-06-19T15:44:30Z</time>
      </trkpt>
      <trkpt lat="45.75396" lon="6.56103">
        <ele>1726</ele>
        <time>2025-06-19T15:44:34Z</time>
      </trkpt>
      <trkpt lat="45.75393" lon="6.56121">
        <ele>1724</ele>
        <time>2025-06-19T15:44:37Z</time>
      </trkpt>
      <trkpt lat="45.75393" lon="6.56138">
        <ele>1724</ele>
        <time>2025-06-19T15:44:40Z</time>
      </trkpt>
      <trkpt lat="45.75396" lon="6.56155">
        <ele>1725</ele>
        <time>2025-06-19T15:44:43Z</time>
      </trkpt>
      <trkpt lat="45.75404" lon="6.5617">
        <ele>1727</ele>
        <time>2025-06-19T15:44:46Z</time>
      </trkpt>
      <trkpt lat="45.75413" lon="6.56178">
        <ele>1729</ele>
        <time>2025-06-19T15:44:48Z</time>
      </trkpt>
      <trkpt lat="45.75423" lon="6.5619">
        <ele>1729</ele>
        <time>2025-06-19T15:44:52Z</time>
      </trkpt>
      <trkpt lat="45.7543" lon="6.56197">
        <ele>1730</ele>
        <time>2025-06-19T15:44:54Z</time>
      </trkpt>
      <trkpt lat="45.75439" lon="6.56202">
        <ele>1731</ele>
        <time>2025-06-19T15:44:56Z</time>
      </trkpt>
      <trkpt lat="45.75447" lon="6.5621">
        <ele>1731</ele>
        <time>2025-06-19T15:44:58Z</time>
      </trkpt>
      <trkpt lat="45.7545" lon="6.56215">
        <ele>1730</ele>
        <time>2025-06-19T15:44:59Z</time>
      </trkpt>
      <trkpt lat="45.75455" lon="6.56219">
        <ele>1730</ele>
        <time>2025-06-19T15:45:00Z</time>
      </trkpt>
      <trkpt lat="45.75478" lon="6.56228">
        <ele>1734</ele>
        <time>2025-06-19T15:45:06Z</time>
      </trkpt>
      <trkpt lat="45.75504" lon="6.56235">
        <ele>1738</ele>
        <time>2025-06-19T15:45:12Z</time>
      </trkpt>
      <trkpt lat="45.7551" lon="6.56242">
        <ele>1737</ele>
        <time>2025-06-19T15:45:14Z</time>
      </trkpt>
      <trkpt lat="45.75532" lon="6.56253">
        <ele>1736</ele>
        <time>2025-06-19T15:45:19Z</time>
      </trkpt>
      <trkpt lat="45.75538" lon="6.56258">
        <ele>1735</ele>
        <time>2025-06-19T15:45:21Z</time>
      </trkpt>
      <trkpt lat="45.75599" lon="6.5629">
        <ele>1734</ele>
        <time>2025-06-19T15:45:36Z</time>
      </trkpt>
      <trkpt lat="45.75621" lon="6.56297">
        <ele>1734</ele>
        <time>2025-06-19T15:45:42Z</time>
      </trkpt>
      <trkpt lat="45.75664" lon="6.56308">
        <ele>1736</ele>
        <time>2025-06-19T15:45:52Z</time>
      </trkpt>
      <trkpt lat="45.75672" lon="6.56313">
        <ele>1734</ele>
        <time>2025-06-19T15:45:54Z</time>
      </trkpt>
      <trkpt lat="45.75685" lon="6.56315">
        <ele>1734</ele>
        <time>2025-06-19T15:45:57Z</time>
      </trkpt>
      <trkpt lat="45.75719" lon="6.56335">
        <ele>1728</ele>
        <time>2025-06-19T15:46:05Z</time>
      </trkpt>
      <trkpt lat="45.75749" lon="6.56348">
        <ele>1725</ele>
        <time>2025-06-19T15:46:13Z</time>
      </trkpt>
      <trkpt lat="45.75759" lon="6.56354">
        <ele>1724</ele>
        <time>2025-06-19T15:46:15Z</time>
      </trkpt>
      <trkpt lat="45.75762" lon="6.56355">
        <ele>1724</ele>
        <time>2025-06-19T15:46:16Z</time>
      </trkpt>
      <trkpt lat="45.75776" lon="6.56358">
        <ele>1724</ele>
        <time>2025-06-19T15:46:19Z</time>
      </trkpt>
      <trkpt lat="45.75783" lon="6.56361">
        <ele>1723</ele>
        <time>2025-06-19T15:46:21Z</time>
      </trkpt>
      <trkpt lat="45.75798" lon="6.56371">
        <ele>1721</ele>
        <time>2025-06-19T15:46:25Z</time>
      </trkpt>
      <trkpt lat="45.7582" lon="6.56362">
        <ele>1725</ele>
        <time>2025-06-19T15:46:30Z</time>
      </trkpt>
      <trkpt lat="45.75829" lon="6.56361">
        <ele>1726</ele>
        <time>2025-06-19T15:46:32Z</time>
      </trkpt>
      <trkpt lat="45.7585" lon="6.56364">
        <ele>1731</ele>
        <time>2025-06-19T15:46:37Z</time>
      </trkpt>
      <trkpt lat="45.75855" lon="6.56364">
        <ele>1732</ele>
        <time>2025-06-19T15:46:38Z</time>
      </trkpt>
      <trkpt lat="45.75859" lon="6.5636">
        <ele>1734</ele>
        <time>2025-06-19T15:46:40Z</time>
      </trkpt>
      <trkpt lat="45.75861" lon="6.56356">
        <ele>1736</ele>
        <time>2025-06-19T15:46:40Z</time>
      </trkpt>
      <trkpt lat="45.75882" lon="6.56309">
        <ele>1749</ele>
        <time>2025-06-19T15:46:49Z</time>
      </trkpt>
      <trkpt lat="45.759" lon="6.56266">
        <ele>1757</ele>
        <time>2025-06-19T15:46:58Z</time>
      </trkpt>
      <trkpt lat="45.75909" lon="6.56263">
        <ele>1759</ele>
        <time>2025-06-19T15:47:00Z</time>
      </trkpt>
      <trkpt lat="45.75927" lon="6.5629">
        <ele>1760</ele>
        <time>2025-06-19T15:47:06Z</time>
      </trkpt>
      <trkpt lat="45.7593" lon="6.56299">
        <ele>1760</ele>
        <time>2025-06-19T15:47:07Z</time>
      </trkpt>
      <trkpt lat="45.7594" lon="6.5635">
        <ele>1760</ele>
        <time>2025-06-19T15:47:16Z</time>
      </trkpt>
      <trkpt lat="45.75946" lon="6.56373">
        <ele>1760</ele>
        <time>2025-06-19T15:47:20Z</time>
      </trkpt>
      <trkpt lat="45.75957" lon="6.564">
        <ele>1763</ele>
        <time>2025-06-19T15:47:25Z</time>
      </trkpt>
      <trkpt lat="45.75959" lon="6.56406">
        <ele>1763</ele>
        <time>2025-06-19T15:47:26Z</time>
      </trkpt>
      <trkpt lat="45.75971" lon="6.56426">
        <ele>1765</ele>
        <time>2025-06-19T15:47:31Z</time>
      </trkpt>
      <trkpt lat="45.75993" lon="6.56468">
        <ele>1765</ele>
        <time>2025-06-19T15:47:39Z</time>
      </trkpt>
      <trkpt lat="45.76017" lon="6.56491">
        <ele>1768</ele>
        <time>2025-06-19T15:47:46Z</time>
      </trkpt>
      <trkpt lat="45.76029" lon="6.56511">
        <ele>1767</ele>
        <time>2025-06-19T15:47:50Z</time>
      </trkpt>
      <trkpt lat="45.76037" lon="6.5652">
        <ele>1767</ele>
        <time>2025-06-19T15:47:53Z</time>
      </trkpt>
      <trkpt lat="45.7605" lon="6.56531">
        <ele>1768</ele>
        <time>2025-06-19T15:47:56Z</time>
      </trkpt>
      <trkpt lat="45.76058" lon="6.56541">
        <ele>1769</ele>
        <time>2025-06-19T15:47:59Z</time>
      </trkpt>
      <trkpt lat="45.76067" lon="6.56556">
        <ele>1768</ele>
        <time>2025-06-19T15:48:02Z</time>
      </trkpt>
      <trkpt lat="45.76084" lon="6.5657">
        <ele>1772</ele>
        <time>2025-06-19T15:48:06Z</time>
      </trkpt>
      <trkpt lat="45.76091" lon="6.56572">
        <ele>1774</ele>
        <time>2025-06-19T15:48:08Z</time>
      </trkpt>
      <trkpt lat="45.76093" lon="6.56566">
        <ele>1776</ele>
        <time>2025-06-19T15:48:09Z</time>
      </trkpt>
      <trkpt lat="45.76092" lon="6.56552">
        <ele>1778</ele>
        <time>2025-06-19T15:48:11Z</time>
      </trkpt>
      <trkpt lat="45.76089" lon="6.56532">
        <ele>1782</ele>
        <time>2025-06-19T15:48:15Z</time>
      </trkpt>
      <trkpt lat="45.76096" lon="6.56538">
        <ele>1783</ele>
        <time>2025-06-19T15:48:17Z</time>
      </trkpt>
      <trkpt lat="45.7611" lon="6.56558">
        <ele>1782</ele>
        <time>2025-06-19T15:48:21Z</time>
      </trkpt>
      <trkpt lat="45.7613" lon="6.566">
        <ele>1780</ele>
        <time>2025-06-19T15:48:30Z</time>
      </trkpt>
      <trkpt lat="45.76139" lon="6.56631">
        <ele>1778</ele>
        <time>2025-06-19T15:48:35Z</time>
      </trkpt>
      <trkpt lat="45.76149" lon="6.56654">
        <ele>1778</ele>
        <time>2025-06-19T15:48:39Z</time>
      </trkpt>
      <trkpt lat="45.76157" lon="6.5667">
        <ele>1778</ele>
        <time>2025-06-19T15:48:43Z</time>
      </trkpt>
      <trkpt lat="45.76187" lon="6.56693">
        <ele>1782</ele>
        <time>2025-06-19T15:48:51Z</time>
      </trkpt>
      <trkpt lat="45.76205" lon="6.56716">
        <ele>1783</ele>
        <time>2025-06-19T15:48:56Z</time>
      </trkpt>
      <trkpt lat="45.7623" lon="6.56766">
        <ele>1782</ele>
        <time>2025-06-19T15:49:06Z</time>
      </trkpt>
      <trkpt lat="45.76242" lon="6.56784">
        <ele>1782</ele>
        <time>2025-06-19T15:49:10Z</time>
      </trkpt>
      <trkpt lat="45.76247" lon="6.5679">
        <ele>1783</ele>
        <time>2025-06-19T15:49:12Z</time>
      </trkpt>
      <trkpt lat="45.76265" lon="6.56805">
        <ele>1784</ele>
        <time>2025-06-19T15:49:17Z</time>
      </trkpt>
      <trkpt lat="45.76268" lon="6.56812">
        <ele>1784</ele>
        <time>2025-06-19T15:49:18Z</time>
      </trkpt>
      <trkpt lat="45.76269" lon="6.56822">
        <ele>1782</ele>
        <time>2025-06-19T15:49:20Z</time>
      </trkpt>
      <trkpt lat="45.76269" lon="6.56838">
        <ele>1780</ele>
        <time>2025-06-19T15:49:22Z</time>
      </trkpt>
      <trkpt lat="45.7627" lon="6.56849">
        <ele>1778</ele>
        <time>2025-06-19T15:49:24Z</time>
      </trkpt>
      <trkpt lat="45.76273" lon="6.5686">
        <ele>1777</ele>
        <time>2025-06-19T15:49:26Z</time>
      </trkpt>
      <trkpt lat="45.76277" lon="6.56867">
        <ele>1776</ele>
        <time>2025-06-19T15:49:27Z</time>
      </trkpt>
      <trkpt lat="45.76284" lon="6.56872">
        <ele>1777</ele>
        <time>2025-06-19T15:49:29Z</time>
      </trkpt>
      <trkpt lat="45.76292" lon="6.56873">
        <ele>1778</ele>
        <time>2025-06-19T15:49:31Z</time>
      </trkpt>
      <trkpt lat="45.76311" lon="6.56871">
        <ele>1782</ele>
        <time>2025-06-19T15:49:36Z</time>
      </trkpt>
      <trkpt lat="45.76334" lon="6.56871">
        <ele>1786</ele>
        <time>2025-06-19T15:49:41Z</time>
      </trkpt>
      <trkpt lat="45.76341" lon="6.56872">
        <ele>1786</ele>
        <time>2025-06-19T15:49:43Z</time>
      </trkpt>
      <trkpt lat="45.76356" lon="6.56875">
        <ele>1786</ele>
        <time>2025-06-19T15:49:46Z</time>
      </trkpt>
      <trkpt lat="45.76366" lon="6.56881">
        <ele>1785</ele>
        <time>2025-06-19T15:49:49Z</time>
      </trkpt>
      <trkpt lat="45.76387" lon="6.56898">
        <ele>1783</ele>
        <time>2025-06-19T15:49:54Z</time>
      </trkpt>
      <trkpt lat="45.76411" lon="6.5693">
        <ele>1782</ele>
        <time>2025-06-19T15:50:02Z</time>
      </trkpt>
      <trkpt lat="45.76445" lon="6.56959">
        <ele>1778</ele>
        <time>2025-06-19T15:50:11Z</time>
      </trkpt>
      <trkpt lat="45.76492" lon="6.56978">
        <ele>1779</ele>
        <time>2025-06-19T15:50:23Z</time>
      </trkpt>
      <trkpt lat="45.76507" lon="6.56986">
        <ele>1779</ele>
        <time>2025-06-19T15:50:26Z</time>
      </trkpt>
      <trkpt lat="45.76508" lon="6.56988">
        <ele>1779</ele>
        <time>2025-06-19T15:50:27Z</time>
      </trkpt>
      <trkpt lat="45.76507" lon="6.56986">
        <ele>1779</ele>
        <time>2025-06-19T15:50:27Z</time>
      </trkpt>
      <trkpt lat="45.76492" lon="6.56978">
        <ele>1779</ele>
        <time>2025-06-19T15:50:31Z</time>
      </trkpt>
      <trkpt lat="45.76488" lon="6.56967">
        <ele>1778</ele>
        <time>2025-06-19T15:50:33Z</time>
      </trkpt>
      <trkpt lat="45.76475" lon="6.56958">
        <ele>1778</ele>
        <time>2025-06-19T15:50:36Z</time>
      </trkpt>
      <trkpt lat="45.76458" lon="6.56939">
        <ele>1779</ele>
        <time>2025-06-19T15:50:41Z</time>
      </trkpt>
      <trkpt lat="45.76443" lon="6.56924">
        <ele>1780</ele>
        <time>2025-06-19T15:50:46Z</time>
      </trkpt>
      <trkpt lat="45.76424" lon="6.56907">
        <ele>1783</ele>
        <time>2025-06-19T15:50:51Z</time>
      </trkpt>
      <trkpt lat="45.7641" lon="6.56899">
        <ele>1784</ele>
        <time>2025-06-19T15:50:54Z</time>
      </trkpt>
      <trkpt lat="45.76398" lon="6.56881">
        <ele>1785</ele>
        <time>2025-06-19T15:50:58Z</time>
      </trkpt>
      <trkpt lat="45.76393" lon="6.5687">
        <ele>1786</ele>
        <time>2025-06-19T15:51:01Z</time>
      </trkpt>
      <trkpt lat="45.76382" lon="6.56857">
        <ele>1788</ele>
        <time>2025-06-19T15:51:04Z</time>
      </trkpt>
      <trkpt lat="45.76377" lon="6.56844">
        <ele>1789</ele>
        <time>2025-06-19T15:51:06Z</time>
      </trkpt>
      <trkpt lat="45.76368" lon="6.56836">
        <ele>1791</ele>
        <time>2025-06-19T15:51:09Z</time>
      </trkpt>
      <trkpt lat="45.76365" lon="6.56828">
        <ele>1792</ele>
        <time>2025-06-19T15:51:10Z</time>
      </trkpt>
      <trkpt lat="45.76362" lon="6.56787">
        <ele>1796</ele>
        <time>2025-06-19T15:51:17Z</time>
      </trkpt>
      <trkpt lat="45.76342" lon="6.56741">
        <ele>1804</ele>
        <time>2025-06-19T15:51:26Z</time>
      </trkpt>
      <trkpt lat="45.76327" lon="6.56714">
        <ele>1804</ele>
        <time>2025-06-19T15:51:31Z</time>
      </trkpt>
      <trkpt lat="45.7631" lon="6.56675">
        <ele>1803</ele>
        <time>2025-06-19T15:51:39Z</time>
      </trkpt>
      <trkpt lat="45.76285" lon="6.56642">
        <ele>1801</ele>
        <time>2025-06-19T15:51:47Z</time>
      </trkpt>
      <trkpt lat="45.76273" lon="6.56637">
        <ele>1802</ele>
        <time>2025-06-19T15:51:50Z</time>
      </trkpt>
      <trkpt lat="45.76259" lon="6.56606">
        <ele>1803</ele>
        <time>2025-06-19T15:51:56Z</time>
      </trkpt>
      <trkpt lat="45.76255" lon="6.56595">
        <ele>1804</ele>
        <time>2025-06-19T15:51:58Z</time>
      </trkpt>
      <trkpt lat="45.7625" lon="6.56567">
        <ele>1805</ele>
        <time>2025-06-19T15:52:02Z</time>
      </trkpt>
      <trkpt lat="45.76243" lon="6.56559">
        <ele>1804</ele>
        <time>2025-06-19T15:52:05Z</time>
      </trkpt>
      <trkpt lat="45.76239" lon="6.5655">
        <ele>1804</ele>
        <time>2025-06-19T15:52:06Z</time>
      </trkpt>
      <trkpt lat="45.76239" lon="6.56542">
        <ele>1804</ele>
        <time>2025-06-19T15:52:08Z</time>
      </trkpt>
      <trkpt lat="45.76236" lon="6.56537">
        <ele>1804</ele>
        <time>2025-06-19T15:52:09Z</time>
      </trkpt>
      <trkpt lat="45.76233" lon="6.56536">
        <ele>1804</ele>
        <time>2025-06-19T15:52:09Z</time>
      </trkpt>
      <trkpt lat="45.76227" lon="6.56515">
        <ele>1804</ele>
        <time>2025-06-19T15:52:13Z</time>
      </trkpt>
      <trkpt lat="45.76215" lon="6.56506">
        <ele>1805</ele>
        <time>2025-06-19T15:52:16Z</time>
      </trkpt>
      <trkpt lat="45.76186" lon="6.56458">
        <ele>1809</ele>
        <time>2025-06-19T15:52:27Z</time>
      </trkpt>
      <trkpt lat="45.7618" lon="6.56455">
        <ele>1810</ele>
        <time>2025-06-19T15:52:28Z</time>
      </trkpt>
      <trkpt lat="45.76171" lon="6.56454">
        <ele>1812</ele>
        <time>2025-06-19T15:52:30Z</time>
      </trkpt>
      <trkpt lat="45.76166" lon="6.56455">
        <ele>1813</ele>
        <time>2025-06-19T15:52:31Z</time>
      </trkpt>
      <trkpt lat="45.7616" lon="6.56447">
        <ele>1812</ele>
        <time>2025-06-19T15:52:33Z</time>
      </trkpt>
      <trkpt lat="45.76156" lon="6.56437">
        <ele>1812</ele>
        <time>2025-06-19T15:52:35Z</time>
      </trkpt>
      <trkpt lat="45.76149" lon="6.56436">
        <ele>1810</ele>
        <time>2025-06-19T15:52:37Z</time>
      </trkpt>
      <trkpt lat="45.76141" lon="6.56443">
        <ele>1808</ele>
        <time>2025-06-19T15:52:39Z</time>
      </trkpt>
      <trkpt lat="45.76136" lon="6.56438">
        <ele>1808</ele>
        <time>2025-06-19T15:52:40Z</time>
      </trkpt>
      <trkpt lat="45.76121" lon="6.56429">
        <ele>1805</ele>
        <time>2025-06-19T15:52:44Z</time>
      </trkpt>
      <trkpt lat="45.76094" lon="6.56421">
        <ele>1801</ele>
        <time>2025-06-19T15:52:51Z</time>
      </trkpt>
      <trkpt lat="45.76082" lon="6.5641">
        <ele>1799</ele>
        <time>2025-06-19T15:52:54Z</time>
      </trkpt>
      <trkpt lat="45.76056" lon="6.56372">
        <ele>1790</ele>
        <time>2025-06-19T15:53:03Z</time>
      </trkpt>
      <trkpt lat="45.76047" lon="6.56354">
        <ele>1788</ele>
        <time>2025-06-19T15:53:06Z</time>
      </trkpt>
      <trkpt lat="45.76034" lon="6.56338">
        <ele>1785</ele>
        <time>2025-06-19T15:53:10Z</time>
      </trkpt>
      <trkpt lat="45.76031" lon="6.56315">
        <ele>1783</ele>
        <time>2025-06-19T15:53:14Z</time>
      </trkpt>
      <trkpt lat="45.76024" lon="6.56305">
        <ele>1782</ele>
        <time>2025-06-19T15:53:16Z</time>
      </trkpt>
      <trkpt lat="45.76014" lon="6.563">
        <ele>1781</ele>
        <time>2025-06-19T15:53:19Z</time>
      </trkpt>
      <trkpt lat="45.76009" lon="6.56291">
        <ele>1780</ele>
        <time>2025-06-19T15:53:21Z</time>
      </trkpt>
      <trkpt lat="45.76003" lon="6.56275">
        <ele>1779</ele>
        <time>2025-06-19T15:53:24Z</time>
      </trkpt>
      <trkpt lat="45.75996" lon="6.5626">
        <ele>1778</ele>
        <time>2025-06-19T15:53:27Z</time>
      </trkpt>
      <trkpt lat="45.75986" lon="6.56247">
        <ele>1775</ele>
        <time>2025-06-19T15:53:30Z</time>
      </trkpt>
      <trkpt lat="45.75982" lon="6.56235">
        <ele>1774</ele>
        <time>2025-06-19T15:53:32Z</time>
      </trkpt>
      <trkpt lat="45.75981" lon="6.56216">
        <ele>1773</ele>
        <time>2025-06-19T15:53:35Z</time>
      </trkpt>
      <trkpt lat="45.75973" lon="6.562">
        <ele>1772</ele>
        <time>2025-06-19T15:53:38Z</time>
      </trkpt>
      <trkpt lat="45.75968" lon="6.56181">
        <ele>1771</ele>
        <time>2025-06-19T15:53:42Z</time>
      </trkpt>
      <trkpt lat="45.75967" lon="6.56159">
        <ele>1771</ele>
        <time>2025-06-19T15:53:45Z</time>
      </trkpt>
      <trkpt lat="45.75964" lon="6.56128">
        <ele>1770</ele>
        <time>2025-06-19T15:53:50Z</time>
      </trkpt>
      <trkpt lat="45.75958" lon="6.5611">
        <ele>1770</ele>
        <time>2025-06-19T15:53:54Z</time>
      </trkpt>
      <trkpt lat="45.75952" lon="6.56107">
        <ele>1771</ele>
        <time>2025-06-19T15:53:55Z</time>
      </trkpt>
      <trkpt lat="45.75947" lon="6.56084">
        <ele>1772</ele>
        <time>2025-06-19T15:53:59Z</time>
      </trkpt>
      <trkpt lat="45.75938" lon="6.56055">
        <ele>1773</ele>
        <time>2025-06-19T15:54:04Z</time>
      </trkpt>
      <trkpt lat="45.75908" lon="6.55954">
        <ele>1782</ele>
        <time>2025-06-19T15:54:22Z</time>
      </trkpt>
      <trkpt lat="45.75907" lon="6.55919">
        <ele>1784</ele>
        <time>2025-06-19T15:54:28Z</time>
      </trkpt>
      <trkpt lat="45.75923" lon="6.55851">
        <ele>1785</ele>
        <time>2025-06-19T15:54:39Z</time>
      </trkpt>
      <trkpt lat="45.75957" lon="6.55778">
        <ele>1784</ele>
        <time>2025-06-19T15:54:54Z</time>
      </trkpt>
      <trkpt lat="45.76004" lon="6.55711">
        <ele>1780</ele>
        <time>2025-06-19T15:55:09Z</time>
      </trkpt>
      <trkpt lat="45.76008" lon="6.55692">
        <ele>1780</ele>
        <time>2025-06-19T15:55:12Z</time>
      </trkpt>
      <trkpt lat="45.76007" lon="6.55604">
        <ele>1783</ele>
        <time>2025-06-19T15:55:27Z</time>
      </trkpt>
      <trkpt lat="45.76002" lon="6.55575">
        <ele>1785</ele>
        <time>2025-06-19T15:55:32Z</time>
      </trkpt>
      <trkpt lat="45.76002" lon="6.55572">
        <ele>1785</ele>
        <time>2025-06-19T15:55:32Z</time>
      </trkpt>
      <trkpt lat="45.76003" lon="6.55524">
        <ele>1785</ele>
        <time>2025-06-19T15:55:40Z</time>
      </trkpt>
      <trkpt lat="45.76001" lon="6.55485">
        <ele>1787</ele>
        <time>2025-06-19T15:55:46Z</time>
      </trkpt>
      <trkpt lat="45.76003" lon="6.55474">
        <ele>1787</ele>
        <time>2025-06-19T15:55:48Z</time>
      </trkpt>
      <trkpt lat="45.76037" lon="6.55443">
        <ele>1784</ele>
        <time>2025-06-19T15:55:58Z</time>
      </trkpt>
      <trkpt lat="45.76041" lon="6.55425">
        <ele>1784</ele>
        <time>2025-06-19T15:56:01Z</time>
      </trkpt>
      <trkpt lat="45.76036" lon="6.55389">
        <ele>1786</ele>
        <time>2025-06-19T15:56:07Z</time>
      </trkpt>
      <trkpt lat="45.76036" lon="6.55355">
        <ele>1787</ele>
        <time>2025-06-19T15:56:12Z</time>
      </trkpt>
      <trkpt lat="45.76041" lon="6.55331">
        <ele>1787</ele>
        <time>2025-06-19T15:56:16Z</time>
      </trkpt>
      <trkpt lat="45.76058" lon="6.55288">
        <ele>1786</ele>
        <time>2025-06-19T15:56:24Z</time>
      </trkpt>
      <trkpt lat="45.76063" lon="6.55254">
        <ele>1786</ele>
        <time>2025-06-19T15:56:30Z</time>
      </trkpt>
      <trkpt lat="45.76064" lon="6.55243">
        <ele>1786</ele>
        <time>2025-06-19T15:56:32Z</time>
      </trkpt>
      <trkpt lat="45.76065" lon="6.55236">
        <ele>1786</ele>
        <time>2025-06-19T15:56:33Z</time>
      </trkpt>
      <trkpt lat="45.76078" lon="6.55218">
        <ele>1786</ele>
        <time>2025-06-19T15:56:37Z</time>
      </trkpt>
      <trkpt lat="45.76088" lon="6.55196">
        <ele>1786</ele>
        <time>2025-06-19T15:56:41Z</time>
      </trkpt>
      <trkpt lat="45.76101" lon="6.5515">
        <ele>1786</ele>
        <time>2025-06-19T15:56:50Z</time>
      </trkpt>
      <trkpt lat="45.76109" lon="6.55127">
        <ele>1786</ele>
        <time>2025-06-19T15:56:54Z</time>
      </trkpt>
      <trkpt lat="45.76125" lon="6.551">
        <ele>1787</ele>
        <time>2025-06-19T15:56:59Z</time>
      </trkpt>
      <trkpt lat="45.76157" lon="6.55076">
        <ele>1790</ele>
        <time>2025-06-19T15:57:08Z</time>
      </trkpt>
      <trkpt lat="45.76164" lon="6.55068">
        <ele>1791</ele>
        <time>2025-06-19T15:57:10Z</time>
      </trkpt>
      <trkpt lat="45.7617" lon="6.55061">
        <ele>1791</ele>
        <time>2025-06-19T15:57:12Z</time>
      </trkpt>
      <trkpt lat="45.76181" lon="6.55036">
        <ele>1793</ele>
        <time>2025-06-19T15:57:17Z</time>
      </trkpt>
      <trkpt lat="45.76199" lon="6.54991">
        <ele>1795</ele>
        <time>2025-06-19T15:57:25Z</time>
      </trkpt>
      <trkpt lat="45.76219" lon="6.54925">
        <ele>1799</ele>
        <time>2025-06-19T15:57:37Z</time>
      </trkpt>
      <trkpt lat="45.7624" lon="6.54844">
        <ele>1803</ele>
        <time>2025-06-19T15:57:51Z</time>
      </trkpt>
      <trkpt lat="45.76245" lon="6.54823">
        <ele>1804</ele>
        <time>2025-06-19T15:57:54Z</time>
      </trkpt>
      <trkpt lat="45.76268" lon="6.54767">
        <ele>1807</ele>
        <time>2025-06-19T15:58:05Z</time>
      </trkpt>
      <trkpt lat="45.76278" lon="6.5475">
        <ele>1807</ele>
        <time>2025-06-19T15:58:09Z</time>
      </trkpt>
      <trkpt lat="45.76287" lon="6.54739">
        <ele>1807</ele>
        <time>2025-06-19T15:58:11Z</time>
      </trkpt>
      <trkpt lat="45.76292" lon="6.5473">
        <ele>1807</ele>
        <time>2025-06-19T15:58:13Z</time>
      </trkpt>
      <trkpt lat="45.76275" lon="6.54744">
        <ele>1807</ele>
        <time>2025-06-19T15:58:18Z</time>
      </trkpt>
      <trkpt lat="45.76267" lon="6.54664">
        <ele>1804</ele>
        <time>2025-06-19T15:58:31Z</time>
      </trkpt>
      <trkpt lat="45.76251" lon="6.54624">
        <ele>1800</ele>
        <time>2025-06-19T15:58:39Z</time>
      </trkpt>
      <trkpt lat="45.76232" lon="6.54555">
        <ele>1796</ele>
        <time>2025-06-19T15:58:51Z</time>
      </trkpt>
      <trkpt lat="45.7618" lon="6.54533">
        <ele>1792</ele>
        <time>2025-06-19T15:59:03Z</time>
      </trkpt>
      <trkpt lat="45.76134" lon="6.54445">
        <ele>1780</ele>
        <time>2025-06-19T15:59:21Z</time>
      </trkpt>
      <trkpt lat="45.76173" lon="6.54317">
        <ele>1771</ele>
        <time>2025-06-19T15:59:44Z</time>
      </trkpt>
      <trkpt lat="45.76147" lon="6.54251">
        <ele>1761</ele>
        <time>2025-06-19T15:59:56Z</time>
      </trkpt>
      <trkpt lat="45.76109" lon="6.54033">
        <ele>1736</ele>
        <time>2025-06-19T16:00:33Z</time>
      </trkpt>
      <trkpt lat="45.76089" lon="6.54007">
        <ele>1733</ele>
        <time>2025-06-19T16:00:39Z</time>
      </trkpt>
      <trkpt lat="45.76077" lon="6.53992">
        <ele>1730</ele>
        <time>2025-06-19T16:00:43Z</time>
      </trkpt>
      <trkpt lat="45.76099" lon="6.53964">
        <ele>1727</ele>
        <time>2025-06-19T16:00:50Z</time>
      </trkpt>
      <trkpt lat="45.76119" lon="6.53944">
        <ele>1723</ele>
        <time>2025-06-19T16:00:56Z</time>
      </trkpt>
      <trkpt lat="45.76129" lon="6.53943">
        <ele>1723</ele>
        <time>2025-06-19T16:00:58Z</time>
      </trkpt>
      <trkpt lat="45.76131" lon="6.53917">
        <ele>1718</ele>
        <time>2025-06-19T16:01:02Z</time>
      </trkpt>
      <trkpt lat="45.76112" lon="6.5392">
        <ele>1719</ele>
        <time>2025-06-19T16:01:07Z</time>
      </trkpt>
      <trkpt lat="45.76095" lon="6.53906">
        <ele>1717</ele>
        <time>2025-06-19T16:01:11Z</time>
      </trkpt>
      <trkpt lat="45.76114" lon="6.53886">
        <ele>1714</ele>
        <time>2025-06-19T16:01:17Z</time>
      </trkpt>
      <trkpt lat="45.76128" lon="6.53861">
        <ele>1711</ele>
        <time>2025-06-19T16:01:22Z</time>
      </trkpt>
      <trkpt lat="45.76123" lon="6.53838">
        <ele>1708</ele>
        <time>2025-06-19T16:01:26Z</time>
      </trkpt>
      <trkpt lat="45.76113" lon="6.53822">
        <ele>1705</ele>
        <time>2025-06-19T16:01:29Z</time>
      </trkpt>
      <trkpt lat="45.76095" lon="6.53835">
        <ele>1706</ele>
        <time>2025-06-19T16:01:34Z</time>
      </trkpt>
      <trkpt lat="45.76097" lon="6.53802">
        <ele>1702</ele>
        <time>2025-06-19T16:01:39Z</time>
      </trkpt>
      <trkpt lat="45.76076" lon="6.53803">
        <ele>1700</ele>
        <time>2025-06-19T16:01:44Z</time>
      </trkpt>
      <trkpt lat="45.76062" lon="6.53781">
        <ele>1696</ele>
        <time>2025-06-19T16:01:49Z</time>
      </trkpt>
      <trkpt lat="45.76058" lon="6.53745">
        <ele>1691</ele>
        <time>2025-06-19T16:01:55Z</time>
      </trkpt>
      <trkpt lat="45.76049" lon="6.53694">
        <ele>1685</ele>
        <time>2025-06-19T16:02:04Z</time>
      </trkpt>
      <trkpt lat="45.76048" lon="6.53677">
        <ele>1683</ele>
        <time>2025-06-19T16:02:07Z</time>
      </trkpt>
      <trkpt lat="45.76048" lon="6.53666">
        <ele>1682</ele>
        <time>2025-06-19T16:02:08Z</time>
      </trkpt>
      <trkpt lat="45.7605" lon="6.53651">
        <ele>1681</ele>
        <time>2025-06-19T16:02:11Z</time>
      </trkpt>
      <trkpt lat="45.76057" lon="6.53619">
        <ele>1678</ele>
        <time>2025-06-19T16:02:16Z</time>
      </trkpt>
      <trkpt lat="45.76068" lon="6.53594">
        <ele>1677</ele>
        <time>2025-06-19T16:02:21Z</time>
      </trkpt>
      <trkpt lat="45.76092" lon="6.53535">
        <ele>1674</ele>
        <time>2025-06-19T16:02:32Z</time>
      </trkpt>
      <trkpt lat="45.76105" lon="6.53522">
        <ele>1674</ele>
        <time>2025-06-19T16:02:36Z</time>
      </trkpt>
      <trkpt lat="45.7612" lon="6.53517">
        <ele>1674</ele>
        <time>2025-06-19T16:02:39Z</time>
      </trkpt>
      <trkpt lat="45.76125" lon="6.53511">
        <ele>1674</ele>
        <time>2025-06-19T16:02:41Z</time>
      </trkpt>
      <trkpt lat="45.76126" lon="6.5351">
        <ele>1674</ele>
        <time>2025-06-19T16:02:41Z</time>
      </trkpt>
      <trkpt lat="45.76126" lon="6.53504">
        <ele>1673</ele>
        <time>2025-06-19T16:02:42Z</time>
      </trkpt>
      <trkpt lat="45.76125" lon="6.53494">
        <ele>1672</ele>
        <time>2025-06-19T16:02:44Z</time>
      </trkpt>
      <trkpt lat="45.76122" lon="6.53492">
        <ele>1672</ele>
        <time>2025-06-19T16:02:45Z</time>
      </trkpt>
      <trkpt lat="45.76119" lon="6.5349">
        <ele>1671</ele>
        <time>2025-06-19T16:02:45Z</time>
      </trkpt>
      <trkpt lat="45.7611" lon="6.5349">
        <ele>1671</ele>
        <time>2025-06-19T16:02:48Z</time>
      </trkpt>
      <trkpt lat="45.76024" lon="6.535">
        <ele>1665</ele>
        <time>2025-06-19T16:03:08Z</time>
      </trkpt>
      <trkpt lat="45.76014" lon="6.53499">
        <ele>1664</ele>
        <time>2025-06-19T16:03:10Z</time>
      </trkpt>
      <trkpt lat="45.76005" lon="6.53495">
        <ele>1663</ele>
        <time>2025-06-19T16:03:12Z</time>
      </trkpt>
      <trkpt lat="45.76001" lon="6.53492">
        <ele>1663</ele>
        <time>2025-06-19T16:03:13Z</time>
      </trkpt>
      <trkpt lat="45.75997" lon="6.53487">
        <ele>1663</ele>
        <time>2025-06-19T16:03:15Z</time>
      </trkpt>
      <trkpt lat="45.75992" lon="6.53477">
        <ele>1662</ele>
        <time>2025-06-19T16:03:17Z</time>
      </trkpt>
      <trkpt lat="45.7599" lon="6.53466">
        <ele>1662</ele>
        <time>2025-06-19T16:03:18Z</time>
      </trkpt>
      <trkpt lat="45.7599" lon="6.5346">
        <ele>1661</ele>
        <time>2025-06-19T16:03:19Z</time>
      </trkpt>
      <trkpt lat="45.7599" lon="6.53453">
        <ele>1661</ele>
        <time>2025-06-19T16:03:21Z</time>
      </trkpt>
      <trkpt lat="45.75993" lon="6.5344">
        <ele>1661</ele>
        <time>2025-06-19T16:03:23Z</time>
      </trkpt>
      <trkpt lat="45.75997" lon="6.53432">
        <ele>1661</ele>
        <time>2025-06-19T16:03:24Z</time>
      </trkpt>
      <trkpt lat="45.76" lon="6.53427">
        <ele>1661</ele>
        <time>2025-06-19T16:03:25Z</time>
      </trkpt>
      <trkpt lat="45.76006" lon="6.53421">
        <ele>1661</ele>
        <time>2025-06-19T16:03:27Z</time>
      </trkpt>
      <trkpt lat="45.76023" lon="6.53406">
        <ele>1661</ele>
        <time>2025-06-19T16:03:32Z</time>
      </trkpt>
      <trkpt lat="45.76031" lon="6.53396">
        <ele>1661</ele>
        <time>2025-06-19T16:03:34Z</time>
      </trkpt>
      <trkpt lat="45.76037" lon="6.53386">
        <ele>1661</ele>
        <time>2025-06-19T16:03:36Z</time>
      </trkpt>
      <trkpt lat="45.76039" lon="6.53378">
        <ele>1661</ele>
        <time>2025-06-19T16:03:38Z</time>
      </trkpt>
      <trkpt lat="45.76035" lon="6.53358">
        <ele>1660</ele>
        <time>2025-06-19T16:03:41Z</time>
      </trkpt>
      <trkpt lat="45.76032" lon="6.53359">
        <ele>1660</ele>
        <time>2025-06-19T16:03:42Z</time>
      </trkpt>
      <trkpt lat="45.76022" lon="6.53363">
        <ele>1660</ele>
        <time>2025-06-19T16:03:44Z</time>
      </trkpt>
      <trkpt lat="45.75999" lon="6.53376">
        <ele>1659</ele>
        <time>2025-06-19T16:03:50Z</time>
      </trkpt>
      <trkpt lat="45.75988" lon="6.53385">
        <ele>1659</ele>
        <time>2025-06-19T16:03:53Z</time>
      </trkpt>
    </trkseg>
  </trk>
</gpx>